<?xml version='1.0' encoding='UTF-8'?>
<gpx version="1.1" creator="https://www.komoot.de" xmlns="http://www.topografix.com/GPX/1/1" xmlns:xsi="http://www.w3.org/2001/XMLSchema-instance" xsi:schemaLocation="http://www.topografix.com/GPX/1/1 http://www.topografix.com/GPX/1/1/gpx.xsd">
  <metadata>
    <name>47_790JungholzRuettehof</name>
    <author>
      <link href="https://www.komoot.de">
        <text>komoot</text>
        <type>text/html</type>
      </link>
    </author>
  </metadata>
  <trk>
    <name>47_790JungholzRuettehof</name>
    <trkseg>
      <trkpt lat="47.541953" lon="7.871286">
        <ele>343.129171</ele>
        <time>2021-11-08T20:17:39.451Z</time>
      </trkpt>
      <trkpt lat="47.541953" lon="7.871286">
        <ele>343.129171</ele>
        <time>2021-11-08T20:17:39.465Z</time>
      </trkpt>
      <trkpt lat="47.542039" lon="7.871556">
        <ele>343.129171</ele>
        <time>2021-11-08T20:17:44.334Z</time>
      </trkpt>
      <trkpt lat="47.542067" lon="7.871664">
        <ele>343.129171</ele>
        <time>2021-11-08T20:17:46.027Z</time>
      </trkpt>
      <trkpt lat="47.542091" lon="7.871721">
        <ele>343.129171</ele>
        <time>2021-11-08T20:17:46.676Z</time>
      </trkpt>
      <trkpt lat="47.542218" lon="7.871866">
        <ele>343.129171</ele>
        <time>2021-11-08T20:17:52.238Z</time>
      </trkpt>
      <trkpt lat="47.542394" lon="7.872341">
        <ele>343.129171</ele>
        <time>2021-11-08T20:18:02.978Z</time>
      </trkpt>
      <trkpt lat="47.542436" lon="7.872494">
        <ele>343.463824</ele>
        <time>2021-11-08T20:18:06.471Z</time>
      </trkpt>
      <trkpt lat="47.542537" lon="7.872430">
        <ele>344.044860</ele>
        <time>2021-11-08T20:18:08.653Z</time>
      </trkpt>
      <trkpt lat="47.542714" lon="7.872334">
        <ele>345.041834</ele>
        <time>2021-11-08T20:18:15.897Z</time>
      </trkpt>
      <trkpt lat="47.542814" lon="7.872280">
        <ele>345.604806</ele>
        <time>2021-11-08T20:18:18.853Z</time>
      </trkpt>
      <trkpt lat="47.542919" lon="7.872226">
        <ele>346.192694</ele>
        <time>2021-11-08T20:18:22.757Z</time>
      </trkpt>
      <trkpt lat="47.543013" lon="7.872182">
        <ele>346.714114</ele>
        <time>2021-11-08T20:18:26.387Z</time>
      </trkpt>
      <trkpt lat="47.543233" lon="7.872082">
        <ele>347.931296</ele>
        <time>2021-11-08T20:18:33.485Z</time>
      </trkpt>
      <trkpt lat="47.543251" lon="7.872152">
        <ele>348.198746</ele>
        <time>2021-11-08T20:18:36.899Z</time>
      </trkpt>
      <trkpt lat="47.543332" lon="7.872237">
        <ele>348.723776</ele>
        <time>2021-11-08T20:18:40.309Z</time>
      </trkpt>
      <trkpt lat="47.544390" lon="7.872423">
        <ele>354.868319</ele>
        <time>2021-11-08T20:19:21.941Z</time>
      </trkpt>
      <trkpt lat="47.544883" lon="7.872555">
        <ele>358.304347</ele>
        <time>2021-11-08T20:19:44.284Z</time>
      </trkpt>
      <trkpt lat="47.545131" lon="7.872664">
        <ele>360.078536</ele>
        <time>2021-11-08T20:19:55.288Z</time>
      </trkpt>
      <trkpt lat="47.545375" lon="7.872836">
        <ele>361.931801</ele>
        <time>2021-11-08T20:20:06.229Z</time>
      </trkpt>
      <trkpt lat="47.545478" lon="7.872968">
        <ele>362.865868</ele>
        <time>2021-11-08T20:20:13.036Z</time>
      </trkpt>
      <trkpt lat="47.545515" lon="7.873015">
        <ele>363.200145</ele>
        <time>2021-11-08T20:20:14.993Z</time>
      </trkpt>
      <trkpt lat="47.545746" lon="7.873302">
        <ele>365.214847</ele>
        <time>2021-11-08T20:20:28.192Z</time>
      </trkpt>
      <trkpt lat="47.545934" lon="7.873549">
        <ele>366.622324</ele>
        <time>2021-11-08T20:20:38.292Z</time>
      </trkpt>
      <trkpt lat="47.546077" lon="7.873763">
        <ele>367.760834</ele>
        <time>2021-11-08T20:20:47.489Z</time>
      </trkpt>
      <trkpt lat="47.546135" lon="7.873859">
        <ele>368.247949</ele>
        <time>2021-11-08T20:20:50.728Z</time>
      </trkpt>
      <trkpt lat="47.546309" lon="7.874154">
        <ele>369.729119</ele>
        <time>2021-11-08T20:21:01.842Z</time>
      </trkpt>
      <trkpt lat="47.547126" lon="7.875801">
        <ele>375.883509</ele>
        <time>2021-11-08T20:21:47.604Z</time>
      </trkpt>
      <trkpt lat="47.547574" lon="7.876801">
        <ele>377.450887</ele>
        <time>2021-11-08T20:22:06.599Z</time>
      </trkpt>
      <trkpt lat="47.547992" lon="7.877974">
        <ele>377.601119</ele>
        <time>2021-11-08T20:22:19.400Z</time>
      </trkpt>
      <trkpt lat="47.548234" lon="7.878638">
        <ele>376.187642</ele>
        <time>2021-11-08T20:22:24.712Z</time>
      </trkpt>
      <trkpt lat="47.548422" lon="7.878959">
        <ele>375.391582</ele>
        <time>2021-11-08T20:22:27.555Z</time>
      </trkpt>
      <trkpt lat="47.548718" lon="7.879258">
        <ele>374.397395</ele>
        <time>2021-11-08T20:22:31.093Z</time>
      </trkpt>
      <trkpt lat="47.549140" lon="7.879391">
        <ele>373.028057</ele>
        <time>2021-11-08T20:22:35.280Z</time>
      </trkpt>
      <trkpt lat="47.549318" lon="7.879398">
        <ele>372.285134</ele>
        <time>2021-11-08T20:22:36.907Z</time>
      </trkpt>
      <trkpt lat="47.549327" lon="7.879547">
        <ele>371.863861</ele>
        <time>2021-11-08T20:22:37.893Z</time>
      </trkpt>
      <trkpt lat="47.549726" lon="7.880786">
        <ele>367.997953</ele>
        <time>2021-11-08T20:22:46.828Z</time>
      </trkpt>
      <trkpt lat="47.549927" lon="7.881490">
        <ele>365.873622</ele>
        <time>2021-11-08T20:22:51.860Z</time>
      </trkpt>
      <trkpt lat="47.550234" lon="7.883221">
        <ele>361.574981</ele>
        <time>2021-11-08T20:23:04.260Z</time>
      </trkpt>
      <trkpt lat="47.550332" lon="7.884727">
        <ele>357.260625</ele>
        <time>2021-11-08T20:23:14.105Z</time>
      </trkpt>
      <trkpt lat="47.550391" lon="7.885109">
        <ele>355.941750</ele>
        <time>2021-11-08T20:23:16.637Z</time>
      </trkpt>
      <trkpt lat="47.550548" lon="7.885799">
        <ele>353.491110</ele>
        <time>2021-11-08T20:23:21.242Z</time>
      </trkpt>
      <trkpt lat="47.550677" lon="7.886476">
        <ele>351.123579</ele>
        <time>2021-11-08T20:23:25.672Z</time>
      </trkpt>
      <trkpt lat="47.550758" lon="7.887295">
        <ele>347.843078</ele>
        <time>2021-11-08T20:23:30.814Z</time>
      </trkpt>
      <trkpt lat="47.550789" lon="7.887816">
        <ele>345.709168</ele>
        <time>2021-11-08T20:23:34.046Z</time>
      </trkpt>
      <trkpt lat="47.550831" lon="7.888611">
        <ele>342.455670</ele>
        <time>2021-11-08T20:23:39.002Z</time>
      </trkpt>
      <trkpt lat="47.550833" lon="7.889069">
        <ele>340.587005</ele>
        <time>2021-11-08T20:23:41.812Z</time>
      </trkpt>
      <trkpt lat="47.550915" lon="7.890600">
        <ele>334.508796</ele>
        <time>2021-11-08T20:23:51.205Z</time>
      </trkpt>
      <trkpt lat="47.550904" lon="7.891725">
        <ele>330.075876</ele>
        <time>2021-11-08T20:23:58.209Z</time>
      </trkpt>
      <trkpt lat="47.550892" lon="7.893176">
        <ele>327.163486</ele>
        <time>2021-11-08T20:24:07.821Z</time>
      </trkpt>
      <trkpt lat="47.550908" lon="7.894308">
        <ele>325.236884</ele>
        <time>2021-11-08T20:24:17.026Z</time>
      </trkpt>
      <trkpt lat="47.550878" lon="7.895158">
        <ele>324.208519</ele>
        <time>2021-11-08T20:24:24.211Z</time>
      </trkpt>
      <trkpt lat="47.550838" lon="7.895509">
        <ele>323.864342</ele>
        <time>2021-11-08T20:24:27.375Z</time>
      </trkpt>
      <trkpt lat="47.550660" lon="7.896255">
        <ele>323.099303</ele>
        <time>2021-11-08T20:24:33.863Z</time>
      </trkpt>
      <trkpt lat="47.550639" lon="7.896345">
        <ele>323.007231</ele>
        <time>2021-11-08T20:24:35.051Z</time>
      </trkpt>
      <trkpt lat="47.550648" lon="7.896481">
        <ele>322.875104</ele>
        <time>2021-11-08T20:24:36.006Z</time>
      </trkpt>
      <trkpt lat="47.550819" lon="7.898109">
        <ele>319.849497</ele>
        <time>2021-11-08T20:24:47.754Z</time>
      </trkpt>
      <trkpt lat="47.550801" lon="7.900244">
        <ele>314.423587</ele>
        <time>2021-11-08T20:25:01.591Z</time>
      </trkpt>
      <trkpt lat="47.550769" lon="7.901362">
        <ele>311.390351</ele>
        <time>2021-11-08T20:25:08.863Z</time>
      </trkpt>
      <trkpt lat="47.550757" lon="7.901591">
        <ele>310.767742</ele>
        <time>2021-11-08T20:25:10.999Z</time>
      </trkpt>
      <trkpt lat="47.550688" lon="7.902451">
        <ele>308.420163</ele>
        <time>2021-11-08T20:25:19.433Z</time>
      </trkpt>
      <trkpt lat="47.550498" lon="7.903445">
        <ele>305.768181</ele>
        <time>2021-11-08T20:25:29.683Z</time>
      </trkpt>
      <trkpt lat="47.550302" lon="7.904164">
        <ele>303.782876</ele>
        <time>2021-11-08T20:25:36.943Z</time>
      </trkpt>
      <trkpt lat="47.550025" lon="7.904774">
        <ele>301.900538</ele>
        <time>2021-11-08T20:25:43.868Z</time>
      </trkpt>
      <trkpt lat="47.549868" lon="7.905010">
        <ele>301.129278</ele>
        <time>2021-11-08T20:25:46.999Z</time>
      </trkpt>
      <trkpt lat="47.549867" lon="7.905155">
        <ele>300.826348</ele>
        <time>2021-11-08T20:25:48.396Z</time>
      </trkpt>
      <trkpt lat="47.550067" lon="7.905245">
        <ele>300.179396</ele>
        <time>2021-11-08T20:25:51.321Z</time>
      </trkpt>
      <trkpt lat="47.550283" lon="7.905413">
        <ele>299.424323</ele>
        <time>2021-11-08T20:25:54.771Z</time>
      </trkpt>
      <trkpt lat="47.550497" lon="7.905558">
        <ele>298.695983</ele>
        <time>2021-11-08T20:25:58.130Z</time>
      </trkpt>
      <trkpt lat="47.549539" lon="7.908625">
        <ele>293.171712</ele>
        <time>2021-11-08T20:26:22.594Z</time>
      </trkpt>
      <trkpt lat="47.549520" lon="7.908678">
        <ele>293.091451</ele>
        <time>2021-11-08T20:26:23.095Z</time>
      </trkpt>
      <trkpt lat="47.549232" lon="7.909631">
        <ele>291.953654</ele>
        <time>2021-11-08T20:26:31.627Z</time>
      </trkpt>
      <trkpt lat="47.549195" lon="7.909756">
        <ele>291.844296</ele>
        <time>2021-11-08T20:26:32.714Z</time>
      </trkpt>
      <trkpt lat="47.549102" lon="7.910058">
        <ele>291.578336</ele>
        <time>2021-11-08T20:26:35.435Z</time>
      </trkpt>
      <trkpt lat="47.549012" lon="7.910340">
        <ele>291.328410</ele>
        <time>2021-11-08T20:26:37.934Z</time>
      </trkpt>
      <trkpt lat="47.548412" lon="7.912168">
        <ele>289.847341</ele>
        <time>2021-11-08T20:26:54.245Z</time>
      </trkpt>
      <trkpt lat="47.548027" lon="7.913334">
        <ele>289.111005</ele>
        <time>2021-11-08T20:27:05.006Z</time>
      </trkpt>
      <trkpt lat="47.547994" lon="7.913433">
        <ele>289.048370</ele>
        <time>2021-11-08T20:27:05.926Z</time>
      </trkpt>
      <trkpt lat="47.547423" lon="7.915080">
        <ele>288.773615</ele>
        <time>2021-11-08T20:27:23.415Z</time>
      </trkpt>
      <trkpt lat="47.547113" lon="7.915971">
        <ele>288.839162</ele>
        <time>2021-11-08T20:27:34.053Z</time>
      </trkpt>
      <trkpt lat="47.547091" lon="7.916039">
        <ele>288.844093</ele>
        <time>2021-11-08T20:27:35.103Z</time>
      </trkpt>
      <trkpt lat="47.547032" lon="7.916218">
        <ele>288.857118</ele>
        <time>2021-11-08T20:27:37.373Z</time>
      </trkpt>
      <trkpt lat="47.546821" lon="7.916867">
        <ele>289.077729</ele>
        <time>2021-11-08T20:27:45.788Z</time>
      </trkpt>
      <trkpt lat="47.546262" lon="7.919081">
        <ele>289.934461</ele>
        <time>2021-11-08T20:28:13.450Z</time>
      </trkpt>
      <trkpt lat="47.546128" lon="7.919617">
        <ele>290.078083</ele>
        <time>2021-11-08T20:28:18.878Z</time>
      </trkpt>
      <trkpt lat="47.545973" lon="7.920313">
        <ele>290.262239</ele>
        <time>2021-11-08T20:28:26.297Z</time>
      </trkpt>
      <trkpt lat="47.545913" lon="7.920765">
        <ele>290.377989</ele>
        <time>2021-11-08T20:28:31.055Z</time>
      </trkpt>
      <trkpt lat="47.545881" lon="7.921096">
        <ele>290.462008</ele>
        <time>2021-11-08T20:28:35.022Z</time>
      </trkpt>
      <trkpt lat="47.545810" lon="7.921755">
        <ele>291.072111</ele>
        <time>2021-11-08T20:28:43.632Z</time>
      </trkpt>
      <trkpt lat="47.545778" lon="7.921947">
        <ele>291.364946</ele>
        <time>2021-11-08T20:28:46.585Z</time>
      </trkpt>
      <trkpt lat="47.545714" lon="7.922249">
        <ele>291.833641</ele>
        <time>2021-11-08T20:28:50.439Z</time>
      </trkpt>
      <trkpt lat="47.545699" lon="7.922325">
        <ele>291.950887</ele>
        <time>2021-11-08T20:28:51.636Z</time>
      </trkpt>
      <trkpt lat="47.545690" lon="7.922369">
        <ele>292.018964</ele>
        <time>2021-11-08T20:28:52.708Z</time>
      </trkpt>
      <trkpt lat="47.545641" lon="7.922610">
        <ele>292.391653</ele>
        <time>2021-11-08T20:28:56.063Z</time>
      </trkpt>
      <trkpt lat="47.545587" lon="7.922895">
        <ele>292.829967</ele>
        <time>2021-11-08T20:29:00.895Z</time>
      </trkpt>
      <trkpt lat="47.545553" lon="7.923142">
        <ele>293.203232</ele>
        <time>2021-11-08T20:29:04.506Z</time>
      </trkpt>
      <trkpt lat="47.545536" lon="7.923407">
        <ele>293.597390</ele>
        <time>2021-11-08T20:29:09.382Z</time>
      </trkpt>
      <trkpt lat="47.545521" lon="7.923709">
        <ele>294.045776</ele>
        <time>2021-11-08T20:29:14.548Z</time>
      </trkpt>
      <trkpt lat="47.545481" lon="7.924396">
        <ele>295.474298</ele>
        <time>2021-11-08T20:29:29.152Z</time>
      </trkpt>
      <trkpt lat="47.545466" lon="7.924880">
        <ele>296.694067</ele>
        <time>2021-11-08T20:29:40.458Z</time>
      </trkpt>
      <trkpt lat="47.545446" lon="7.925350">
        <ele>297.879656</ele>
        <time>2021-11-08T20:29:50.833Z</time>
      </trkpt>
      <trkpt lat="47.545417" lon="7.925848">
        <ele>299.138045</ele>
        <time>2021-11-08T20:30:01.312Z</time>
      </trkpt>
      <trkpt lat="47.545409" lon="7.926773">
        <ele>301.243883</ele>
        <time>2021-11-08T20:30:18.513Z</time>
      </trkpt>
      <trkpt lat="47.545407" lon="7.927001">
        <ele>301.350228</ele>
        <time>2021-11-08T20:30:22.322Z</time>
      </trkpt>
      <trkpt lat="47.545406" lon="7.927306">
        <ele>301.492478</ele>
        <time>2021-11-08T20:30:26.926Z</time>
      </trkpt>
      <trkpt lat="47.545421" lon="7.927686">
        <ele>301.670009</ele>
        <time>2021-11-08T20:30:32.462Z</time>
      </trkpt>
      <trkpt lat="47.545475" lon="7.928419">
        <ele>302.013901</ele>
        <time>2021-11-08T20:30:41.780Z</time>
      </trkpt>
      <trkpt lat="47.545563" lon="7.929641">
        <ele>302.009230</ele>
        <time>2021-11-08T20:30:51.659Z</time>
      </trkpt>
      <trkpt lat="47.545661" lon="7.930955">
        <ele>300.268683</ele>
        <time>2021-11-08T20:31:01.055Z</time>
      </trkpt>
      <trkpt lat="47.545696" lon="7.931497">
        <ele>299.551826</ele>
        <time>2021-11-08T20:31:05.024Z</time>
      </trkpt>
      <trkpt lat="47.545721" lon="7.931992">
        <ele>298.923343</ele>
        <time>2021-11-08T20:31:08.816Z</time>
      </trkpt>
      <trkpt lat="47.545724" lon="7.932758">
        <ele>298.776031</ele>
        <time>2021-11-08T20:31:15.026Z</time>
      </trkpt>
      <trkpt lat="47.545702" lon="7.933290">
        <ele>298.673530</ele>
        <time>2021-11-08T20:31:19.669Z</time>
      </trkpt>
      <trkpt lat="47.545674" lon="7.933625">
        <ele>298.608614</ele>
        <time>2021-11-08T20:31:22.869Z</time>
      </trkpt>
      <trkpt lat="47.545457" lon="7.935110">
        <ele>298.914373</ele>
        <time>2021-11-08T20:31:41.004Z</time>
      </trkpt>
      <trkpt lat="47.545074" lon="7.936484">
        <ele>300.359176</ele>
        <time>2021-11-08T20:32:02.531Z</time>
      </trkpt>
      <trkpt lat="47.544903" lon="7.936917">
        <ele>300.846754</ele>
        <time>2021-11-08T20:32:09.848Z</time>
      </trkpt>
      <trkpt lat="47.544705" lon="7.937395">
        <ele>301.490155</ele>
        <time>2021-11-08T20:32:18.032Z</time>
      </trkpt>
      <trkpt lat="47.544472" lon="7.937932">
        <ele>302.268300</ele>
        <time>2021-11-08T20:32:27.439Z</time>
      </trkpt>
      <trkpt lat="47.543826" lon="7.939433">
        <ele>304.396994</ele>
        <time>2021-11-08T20:32:54.320Z</time>
      </trkpt>
      <trkpt lat="47.543435" lon="7.940670">
        <ele>305.691392</ele>
        <time>2021-11-08T20:33:14.281Z</time>
      </trkpt>
      <trkpt lat="47.543161" lon="7.942213">
        <ele>306.676963</ele>
        <time>2021-11-08T20:33:35.130Z</time>
      </trkpt>
      <trkpt lat="47.543007" lon="7.943867">
        <ele>306.300795</ele>
        <time>2021-11-08T20:33:50.674Z</time>
      </trkpt>
      <trkpt lat="47.542913" lon="7.945267">
        <ele>304.732387</ele>
        <time>2021-11-08T20:34:01.434Z</time>
      </trkpt>
      <trkpt lat="47.542872" lon="7.945781">
        <ele>303.863361</ele>
        <time>2021-11-08T20:34:05.030Z</time>
      </trkpt>
      <trkpt lat="47.542875" lon="7.946089">
        <ele>303.346166</ele>
        <time>2021-11-08T20:34:07.120Z</time>
      </trkpt>
      <trkpt lat="47.542902" lon="7.946514">
        <ele>302.629424</ele>
        <time>2021-11-08T20:34:10.000Z</time>
      </trkpt>
      <trkpt lat="47.542943" lon="7.946806">
        <ele>302.128654</ele>
        <time>2021-11-08T20:34:12.047Z</time>
      </trkpt>
      <trkpt lat="47.542974" lon="7.946965">
        <ele>301.850776</ele>
        <time>2021-11-08T20:34:13.258Z</time>
      </trkpt>
      <trkpt lat="47.542979" lon="7.946989">
        <ele>301.808604</ele>
        <time>2021-11-08T20:34:13.413Z</time>
      </trkpt>
      <trkpt lat="47.543007" lon="7.947104">
        <ele>301.642210</ele>
        <time>2021-11-08T20:34:14.261Z</time>
      </trkpt>
      <trkpt lat="47.543087" lon="7.947317">
        <ele>301.391013</ele>
        <time>2021-11-08T20:34:16.004Z</time>
      </trkpt>
      <trkpt lat="47.543191" lon="7.947615">
        <ele>301.045294</ele>
        <time>2021-11-08T20:34:18.445Z</time>
      </trkpt>
      <trkpt lat="47.543242" lon="7.947745">
        <ele>300.890341</ele>
        <time>2021-11-08T20:34:19.576Z</time>
      </trkpt>
      <trkpt lat="47.543273" lon="7.947816">
        <ele>300.803200</ele>
        <time>2021-11-08T20:34:20.203Z</time>
      </trkpt>
      <trkpt lat="47.543358" lon="7.947967">
        <ele>300.600581</ele>
        <time>2021-11-08T20:34:21.645Z</time>
      </trkpt>
      <trkpt lat="47.543389" lon="7.948019">
        <ele>300.529087</ele>
        <time>2021-11-08T20:34:22.165Z</time>
      </trkpt>
      <trkpt lat="47.543455" lon="7.948127">
        <ele>300.378954</ele>
        <time>2021-11-08T20:34:23.316Z</time>
      </trkpt>
      <trkpt lat="47.543532" lon="7.948214">
        <ele>300.231112</ele>
        <time>2021-11-08T20:34:24.396Z</time>
      </trkpt>
      <trkpt lat="47.543579" lon="7.948287">
        <ele>300.127151</ele>
        <time>2021-11-08T20:34:25.160Z</time>
      </trkpt>
      <trkpt lat="47.543760" lon="7.948548">
        <ele>299.741533</ele>
        <time>2021-11-08T20:34:28.048Z</time>
      </trkpt>
      <trkpt lat="47.543864" lon="7.948694">
        <ele>299.522795</ele>
        <time>2021-11-08T20:34:29.720Z</time>
      </trkpt>
      <trkpt lat="47.544239" lon="7.949202">
        <ele>299.020091</ele>
        <time>2021-11-08T20:34:37.082Z</time>
      </trkpt>
      <trkpt lat="47.544521" lon="7.949558">
        <ele>299.186341</ele>
        <time>2021-11-08T20:34:43.256Z</time>
      </trkpt>
      <trkpt lat="47.544901" lon="7.950044">
        <ele>299.411604</ele>
        <time>2021-11-08T20:34:52.414Z</time>
      </trkpt>
      <trkpt lat="47.545166" lon="7.950366">
        <ele>299.565395</ele>
        <time>2021-11-08T20:34:58.743Z</time>
      </trkpt>
      <trkpt lat="47.545434" lon="7.950668">
        <ele>299.716486</ele>
        <time>2021-11-08T20:35:04.528Z</time>
      </trkpt>
      <trkpt lat="47.545542" lon="7.950842">
        <ele>299.755365</ele>
        <time>2021-11-08T20:35:07.011Z</time>
      </trkpt>
      <trkpt lat="47.545667" lon="7.950979">
        <ele>299.725629</ele>
        <time>2021-11-08T20:35:09.548Z</time>
      </trkpt>
      <trkpt lat="47.545737" lon="7.951055">
        <ele>299.709032</ele>
        <time>2021-11-08T20:35:10.821Z</time>
      </trkpt>
      <trkpt lat="47.545876" lon="7.951233">
        <ele>299.673894</ele>
        <time>2021-11-08T20:35:13.564Z</time>
      </trkpt>
      <trkpt lat="47.546112" lon="7.951485">
        <ele>299.618259</ele>
        <time>2021-11-08T20:35:17.697Z</time>
      </trkpt>
      <trkpt lat="47.546164" lon="7.951520">
        <ele>299.607336</ele>
        <time>2021-11-08T20:35:18.536Z</time>
      </trkpt>
      <trkpt lat="47.546212" lon="7.951535">
        <ele>299.597954</ele>
        <time>2021-11-08T20:35:19.250Z</time>
      </trkpt>
      <trkpt lat="47.546231" lon="7.951558">
        <ele>299.593262</ele>
        <time>2021-11-08T20:35:19.568Z</time>
      </trkpt>
      <trkpt lat="47.546421" lon="7.951793">
        <ele>299.545927</ele>
        <time>2021-11-08T20:35:22.872Z</time>
      </trkpt>
      <trkpt lat="47.546634" lon="7.952024">
        <ele>299.495444</ele>
        <time>2021-11-08T20:35:26.301Z</time>
      </trkpt>
      <trkpt lat="47.546695" lon="7.952091">
        <ele>299.480922</ele>
        <time>2021-11-08T20:35:27.265Z</time>
      </trkpt>
      <trkpt lat="47.546776" lon="7.952185">
        <ele>299.461244</ele>
        <time>2021-11-08T20:35:28.615Z</time>
      </trkpt>
      <trkpt lat="47.546935" lon="7.952372">
        <ele>299.422420</ele>
        <time>2021-11-08T20:35:31.263Z</time>
      </trkpt>
      <trkpt lat="47.547090" lon="7.952543">
        <ele>299.338957</ele>
        <time>2021-11-08T20:35:33.874Z</time>
      </trkpt>
      <trkpt lat="47.547400" lon="7.952910">
        <ele>299.164215</ele>
        <time>2021-11-08T20:35:39.280Z</time>
      </trkpt>
      <trkpt lat="47.547458" lon="7.952975">
        <ele>299.132190</ele>
        <time>2021-11-08T20:35:40.269Z</time>
      </trkpt>
      <trkpt lat="47.547550" lon="7.953078">
        <ele>299.081411</ele>
        <time>2021-11-08T20:35:41.881Z</time>
      </trkpt>
      <trkpt lat="47.547624" lon="7.953160">
        <ele>299.040718</ele>
        <time>2021-11-08T20:35:43.139Z</time>
      </trkpt>
      <trkpt lat="47.547797" lon="7.953355">
        <ele>298.944994</ele>
        <time>2021-11-08T20:35:46.151Z</time>
      </trkpt>
      <trkpt lat="47.547871" lon="7.953437">
        <ele>298.904301</ele>
        <time>2021-11-08T20:35:47.446Z</time>
      </trkpt>
      <trkpt lat="47.547994" lon="7.953584">
        <ele>298.834711</ele>
        <time>2021-11-08T20:35:49.623Z</time>
      </trkpt>
      <trkpt lat="47.548115" lon="7.953729">
        <ele>298.766179</ele>
        <time>2021-11-08T20:35:51.778Z</time>
      </trkpt>
      <trkpt lat="47.548251" lon="7.953895">
        <ele>298.688584</ele>
        <time>2021-11-08T20:35:54.174Z</time>
      </trkpt>
      <trkpt lat="47.548335" lon="7.953779">
        <ele>298.638017</ele>
        <time>2021-11-08T20:35:56.080Z</time>
      </trkpt>
      <trkpt lat="47.549083" lon="7.953382">
        <ele>297.757529</ele>
        <time>2021-11-08T20:36:10.392Z</time>
      </trkpt>
      <trkpt lat="47.549296" lon="7.953268">
        <ele>297.502613</ele>
        <time>2021-11-08T20:36:14.397Z</time>
      </trkpt>
      <trkpt lat="47.549442" lon="7.953195">
        <ele>297.329171</ele>
        <time>2021-11-08T20:36:16.951Z</time>
      </trkpt>
      <trkpt lat="47.549640" lon="7.953086">
        <ele>297.091416</ele>
        <time>2021-11-08T20:36:20.661Z</time>
      </trkpt>
      <trkpt lat="47.549673" lon="7.953076">
        <ele>297.053502</ele>
        <time>2021-11-08T20:36:21.220Z</time>
      </trkpt>
      <trkpt lat="47.549687" lon="7.953071">
        <ele>297.037292</ele>
        <time>2021-11-08T20:36:21.412Z</time>
      </trkpt>
      <trkpt lat="47.550567" lon="7.953069">
        <ele>295.534027</ele>
        <time>2021-11-08T20:36:35.584Z</time>
      </trkpt>
      <trkpt lat="47.550656" lon="7.953072">
        <ele>295.341714</ele>
        <time>2021-11-08T20:36:36.899Z</time>
      </trkpt>
      <trkpt lat="47.550967" lon="7.953063">
        <ele>294.669747</ele>
        <time>2021-11-08T20:36:41.662Z</time>
      </trkpt>
      <trkpt lat="47.551254" lon="7.952986">
        <ele>294.039671</ele>
        <time>2021-11-08T20:36:46.051Z</time>
      </trkpt>
      <trkpt lat="47.551295" lon="7.952900">
        <ele>293.886155</ele>
        <time>2021-11-08T20:36:47.114Z</time>
      </trkpt>
      <trkpt lat="47.551334" lon="7.952777">
        <ele>293.688014</ele>
        <time>2021-11-08T20:36:49.789Z</time>
      </trkpt>
      <trkpt lat="47.551339" lon="7.952761">
        <ele>293.662307</ele>
        <time>2021-11-08T20:36:50.160Z</time>
      </trkpt>
      <trkpt lat="47.551381" lon="7.952341">
        <ele>293.043254</ele>
        <time>2021-11-08T20:36:58.941Z</time>
      </trkpt>
      <trkpt lat="47.551506" lon="7.950255">
        <ele>291.190213</ele>
        <time>2021-11-08T20:37:44.478Z</time>
      </trkpt>
      <trkpt lat="47.551525" lon="7.950027">
        <ele>291.002579</ele>
        <time>2021-11-08T20:37:49.939Z</time>
      </trkpt>
      <trkpt lat="47.551581" lon="7.949830">
        <ele>290.827991</ele>
        <time>2021-11-08T20:37:55.091Z</time>
      </trkpt>
      <trkpt lat="47.551673" lon="7.949634">
        <ele>290.633000</ele>
        <time>2021-11-08T20:38:01.165Z</time>
      </trkpt>
      <trkpt lat="47.551794" lon="7.949387">
        <ele>290.609060</ele>
        <time>2021-11-08T20:38:08.738Z</time>
      </trkpt>
      <trkpt lat="47.552010" lon="7.949039">
        <ele>290.771115</ele>
        <time>2021-11-08T20:38:20.910Z</time>
      </trkpt>
      <trkpt lat="47.552049" lon="7.948982">
        <ele>290.798936</ele>
        <time>2021-11-08T20:38:23.052Z</time>
      </trkpt>
      <trkpt lat="47.552094" lon="7.948926">
        <ele>290.828781</ele>
        <time>2021-11-08T20:38:25.389Z</time>
      </trkpt>
      <trkpt lat="47.552164" lon="7.948975">
        <ele>290.868099</ele>
        <time>2021-11-08T20:38:28.475Z</time>
      </trkpt>
      <trkpt lat="47.552202" lon="7.949003">
        <ele>290.889653</ele>
        <time>2021-11-08T20:38:30.101Z</time>
      </trkpt>
      <trkpt lat="47.552351" lon="7.949099">
        <ele>290.972168</ele>
        <time>2021-11-08T20:38:36.496Z</time>
      </trkpt>
      <trkpt lat="47.552382" lon="7.949119">
        <ele>290.989340</ele>
        <time>2021-11-08T20:38:37.940Z</time>
      </trkpt>
      <trkpt lat="47.552518" lon="7.949236">
        <ele>291.069207</ele>
        <time>2021-11-08T20:38:44.356Z</time>
      </trkpt>
      <trkpt lat="47.552953" lon="7.948775">
        <ele>291.340818</ele>
        <time>2021-11-08T20:39:06.190Z</time>
      </trkpt>
      <trkpt lat="47.553197" lon="7.948543">
        <ele>291.495813</ele>
        <time>2021-11-08T20:39:17.712Z</time>
      </trkpt>
      <trkpt lat="47.553293" lon="7.948463">
        <ele>291.565246</ele>
        <time>2021-11-08T20:39:25.352Z</time>
      </trkpt>
      <trkpt lat="47.553293" lon="7.948463">
        <ele>291.565246</ele>
        <time>2021-11-08T20:39:25.356Z</time>
      </trkpt>
      <trkpt lat="47.553868" lon="7.947972">
        <ele>291.983609</ele>
        <time>2021-11-08T20:39:37.656Z</time>
      </trkpt>
      <trkpt lat="47.554443" lon="7.947481">
        <ele>292.401971</ele>
        <time>2021-11-08T20:39:49.958Z</time>
      </trkpt>
      <trkpt lat="47.554446" lon="7.947485">
        <ele>292.404515</ele>
        <time>2021-11-08T20:39:50.039Z</time>
      </trkpt>
      <trkpt lat="47.554475" lon="7.947529">
        <ele>292.430681</ele>
        <time>2021-11-08T20:39:50.762Z</time>
      </trkpt>
      <trkpt lat="47.554517" lon="7.947576">
        <ele>292.463860</ele>
        <time>2021-11-08T20:39:51.642Z</time>
      </trkpt>
      <trkpt lat="47.554563" lon="7.947632">
        <ele>292.501390</ele>
        <time>2021-11-08T20:39:52.746Z</time>
      </trkpt>
      <trkpt lat="47.554614" lon="7.947707">
        <ele>292.546687</ele>
        <time>2021-11-08T20:39:54.024Z</time>
      </trkpt>
      <trkpt lat="47.554731" lon="7.947945">
        <ele>292.817225</ele>
        <time>2021-11-08T20:39:57.589Z</time>
      </trkpt>
      <trkpt lat="47.554749" lon="7.947993">
        <ele>292.881875</ele>
        <time>2021-11-08T20:39:58.328Z</time>
      </trkpt>
      <trkpt lat="47.554810" lon="7.947963">
        <ele>292.993998</ele>
        <time>2021-11-08T20:39:59.853Z</time>
      </trkpt>
      <trkpt lat="47.554903" lon="7.947916">
        <ele>293.165413</ele>
        <time>2021-11-08T20:40:01.857Z</time>
      </trkpt>
      <trkpt lat="47.555286" lon="7.947750">
        <ele>293.861550</ele>
        <time>2021-11-08T20:40:10.211Z</time>
      </trkpt>
      <trkpt lat="47.555306" lon="7.947738">
        <ele>293.899192</ele>
        <time>2021-11-08T20:40:10.639Z</time>
      </trkpt>
      <trkpt lat="47.555379" lon="7.947702">
        <ele>294.033408</ele>
        <time>2021-11-08T20:40:12.213Z</time>
      </trkpt>
      <trkpt lat="47.555417" lon="7.947683">
        <ele>294.103371</ele>
        <time>2021-11-08T20:40:13.067Z</time>
      </trkpt>
      <trkpt lat="47.555582" lon="7.947589">
        <ele>294.411754</ele>
        <time>2021-11-08T20:40:17.347Z</time>
      </trkpt>
      <trkpt lat="47.555636" lon="7.947544">
        <ele>294.519832</ele>
        <time>2021-11-08T20:40:18.714Z</time>
      </trkpt>
      <trkpt lat="47.555751" lon="7.947427">
        <ele>294.763186</ele>
        <time>2021-11-08T20:40:21.855Z</time>
      </trkpt>
      <trkpt lat="47.555846" lon="7.947320">
        <ele>294.971355</ele>
        <time>2021-11-08T20:40:25.018Z</time>
      </trkpt>
      <trkpt lat="47.555912" lon="7.947254">
        <ele>295.110258</ele>
        <time>2021-11-08T20:40:26.805Z</time>
      </trkpt>
      <trkpt lat="47.556009" lon="7.947161">
        <ele>295.311807</ele>
        <time>2021-11-08T20:40:29.299Z</time>
      </trkpt>
      <trkpt lat="47.556050" lon="7.947125">
        <ele>295.394945</ele>
        <time>2021-11-08T20:40:30.397Z</time>
      </trkpt>
      <trkpt lat="47.556160" lon="7.947027">
        <ele>295.618854</ele>
        <time>2021-11-08T20:40:33.815Z</time>
      </trkpt>
      <trkpt lat="47.556716" lon="7.946585">
        <ele>297.137695</ele>
        <time>2021-11-08T20:40:48.645Z</time>
      </trkpt>
      <trkpt lat="47.556890" lon="7.946422">
        <ele>297.648164</ele>
        <time>2021-11-08T20:40:53.809Z</time>
      </trkpt>
      <trkpt lat="47.557026" lon="7.946287">
        <ele>298.054087</ele>
        <time>2021-11-08T20:40:57.701Z</time>
      </trkpt>
      <trkpt lat="47.557115" lon="7.946255">
        <ele>298.281188</ele>
        <time>2021-11-08T20:41:00.087Z</time>
      </trkpt>
      <trkpt lat="47.557303" lon="7.946078">
        <ele>298.833521</ele>
        <time>2021-11-08T20:41:05.296Z</time>
      </trkpt>
      <trkpt lat="47.557371" lon="7.946013">
        <ele>299.034184</ele>
        <time>2021-11-08T20:41:07.429Z</time>
      </trkpt>
      <trkpt lat="47.557460" lon="7.945924">
        <ele>299.300435</ele>
        <time>2021-11-08T20:41:10.126Z</time>
      </trkpt>
      <trkpt lat="47.557555" lon="7.945842">
        <ele>299.573064</ele>
        <time>2021-11-08T20:41:12.738Z</time>
      </trkpt>
      <trkpt lat="47.557631" lon="7.945782">
        <ele>299.786603</ele>
        <time>2021-11-08T20:41:14.768Z</time>
      </trkpt>
      <trkpt lat="47.557744" lon="7.945674">
        <ele>300.120043</ele>
        <time>2021-11-08T20:41:18.169Z</time>
      </trkpt>
      <trkpt lat="47.557910" lon="7.945625">
        <ele>300.879739</ele>
        <time>2021-11-08T20:41:22.557Z</time>
      </trkpt>
      <trkpt lat="47.558009" lon="7.945617">
        <ele>301.362980</ele>
        <time>2021-11-08T20:41:25.248Z</time>
      </trkpt>
      <trkpt lat="47.558102" lon="7.945615">
        <ele>301.816308</ele>
        <time>2021-11-08T20:41:27.833Z</time>
      </trkpt>
      <trkpt lat="47.558161" lon="7.945614">
        <ele>302.103891</ele>
        <time>2021-11-08T20:41:29.625Z</time>
      </trkpt>
      <trkpt lat="47.558415" lon="7.945666">
        <ele>303.353642</ele>
        <time>2021-11-08T20:41:37.440Z</time>
      </trkpt>
      <trkpt lat="47.558540" lon="7.945722">
        <ele>303.990124</ele>
        <time>2021-11-08T20:41:41.128Z</time>
      </trkpt>
      <trkpt lat="47.558608" lon="7.945765">
        <ele>304.350470</ele>
        <time>2021-11-08T20:41:44.045Z</time>
      </trkpt>
      <trkpt lat="47.558700" lon="7.945825">
        <ele>304.840383</ele>
        <time>2021-11-08T20:41:47.294Z</time>
      </trkpt>
      <trkpt lat="47.558739" lon="7.945644">
        <ele>305.465325</ele>
        <time>2021-11-08T20:41:51.526Z</time>
      </trkpt>
      <trkpt lat="47.558781" lon="7.945419">
        <ele>306.233169</ele>
        <time>2021-11-08T20:41:57.427Z</time>
      </trkpt>
      <trkpt lat="47.558967" lon="7.945068">
        <ele>307.701051</ele>
        <time>2021-11-08T20:42:08.663Z</time>
      </trkpt>
      <trkpt lat="47.559249" lon="7.944727">
        <ele>309.829840</ele>
        <time>2021-11-08T20:42:24.059Z</time>
      </trkpt>
      <trkpt lat="47.559263" lon="7.944710">
        <ele>309.978150</ele>
        <time>2021-11-08T20:42:25.634Z</time>
      </trkpt>
      <trkpt lat="47.559609" lon="7.944534">
        <ele>312.975636</ele>
        <time>2021-11-08T20:42:43.429Z</time>
      </trkpt>
      <trkpt lat="47.559774" lon="7.944500">
        <ele>314.340646</ele>
        <time>2021-11-08T20:42:50.901Z</time>
      </trkpt>
      <trkpt lat="47.559855" lon="7.944533">
        <ele>315.028982</ele>
        <time>2021-11-08T20:42:55.388Z</time>
      </trkpt>
      <trkpt lat="47.560106" lon="7.944624">
        <ele>317.146321</ele>
        <time>2021-11-08T20:43:08.117Z</time>
      </trkpt>
      <trkpt lat="47.560144" lon="7.944665">
        <ele>317.531479</ele>
        <time>2021-11-08T20:43:11.113Z</time>
      </trkpt>
      <trkpt lat="47.560288" lon="7.944850">
        <ele>319.093092</ele>
        <time>2021-11-08T20:43:21.176Z</time>
      </trkpt>
      <trkpt lat="47.560464" lon="7.945085">
        <ele>321.034278</ele>
        <time>2021-11-08T20:43:32.968Z</time>
      </trkpt>
      <trkpt lat="47.560632" lon="7.945223">
        <ele>322.608200</ele>
        <time>2021-11-08T20:43:41.716Z</time>
      </trkpt>
      <trkpt lat="47.560748" lon="7.945268">
        <ele>323.590726</ele>
        <time>2021-11-08T20:43:47.719Z</time>
      </trkpt>
      <trkpt lat="47.560884" lon="7.945275">
        <ele>324.491428</ele>
        <time>2021-11-08T20:43:53.760Z</time>
      </trkpt>
      <trkpt lat="47.561051" lon="7.945242">
        <ele>325.579987</ele>
        <time>2021-11-08T20:44:01.056Z</time>
      </trkpt>
      <trkpt lat="47.561253" lon="7.945105">
        <ele>327.015327</ele>
        <time>2021-11-08T20:44:11.090Z</time>
      </trkpt>
      <trkpt lat="47.561549" lon="7.944844">
        <ele>329.240763</ele>
        <time>2021-11-08T20:44:25.196Z</time>
      </trkpt>
      <trkpt lat="47.561590" lon="7.944808">
        <ele>329.548678</ele>
        <time>2021-11-08T20:44:26.669Z</time>
      </trkpt>
      <trkpt lat="47.561884" lon="7.944575">
        <ele>331.702826</ele>
        <time>2021-11-08T20:44:40.919Z</time>
      </trkpt>
      <trkpt lat="47.562104" lon="7.944442">
        <ele>333.238001</ele>
        <time>2021-11-08T20:44:49.953Z</time>
      </trkpt>
      <trkpt lat="47.562431" lon="7.944285">
        <ele>335.373864</ele>
        <time>2021-11-08T20:45:03.263Z</time>
      </trkpt>
      <trkpt lat="47.562993" lon="7.944148">
        <ele>336.902119</ele>
        <time>2021-11-08T20:45:20.488Z</time>
      </trkpt>
      <trkpt lat="47.563121" lon="7.944175">
        <ele>337.249037</ele>
        <time>2021-11-08T20:45:23.106Z</time>
      </trkpt>
      <trkpt lat="47.563250" lon="7.944210">
        <ele>337.600930</ele>
        <time>2021-11-08T20:45:27.089Z</time>
      </trkpt>
      <trkpt lat="47.563376" lon="7.944323">
        <ele>337.996107</ele>
        <time>2021-11-08T20:45:29.064Z</time>
      </trkpt>
      <trkpt lat="47.563617" lon="7.944825">
        <ele>339.111589</ele>
        <time>2021-11-08T20:45:36.882Z</time>
      </trkpt>
      <trkpt lat="47.563643" lon="7.944887">
        <ele>339.243758</ele>
        <time>2021-11-08T20:45:39.526Z</time>
      </trkpt>
      <trkpt lat="47.563685" lon="7.944852">
        <ele>339.373049</ele>
        <time>2021-11-08T20:45:40.427Z</time>
      </trkpt>
      <trkpt lat="47.563821" lon="7.944614">
        <ele>339.937725</ele>
        <time>2021-11-08T20:45:43.660Z</time>
      </trkpt>
      <trkpt lat="47.563801" lon="7.944401">
        <ele>340.359490</ele>
        <time>2021-11-08T20:45:47.796Z</time>
      </trkpt>
      <trkpt lat="47.563689" lon="7.944279">
        <ele>340.796932</ele>
        <time>2021-11-08T20:45:51.669Z</time>
      </trkpt>
      <trkpt lat="47.563649" lon="7.944253">
        <ele>340.934391</ele>
        <time>2021-11-08T20:45:52.178Z</time>
      </trkpt>
      <trkpt lat="47.563594" lon="7.944220">
        <ele>341.121128</ele>
        <time>2021-11-08T20:45:52.865Z</time>
      </trkpt>
      <trkpt lat="47.563429" lon="7.944021">
        <ele>341.790621</ele>
        <time>2021-11-08T20:45:59.149Z</time>
      </trkpt>
      <trkpt lat="47.563413" lon="7.943822">
        <ele>342.216199</ele>
        <time>2021-11-08T20:46:01.468Z</time>
      </trkpt>
      <trkpt lat="47.563464" lon="7.943662">
        <ele>342.591971</ele>
        <time>2021-11-08T20:46:04.819Z</time>
      </trkpt>
      <trkpt lat="47.563511" lon="7.943574">
        <ele>342.830298</ele>
        <time>2021-11-08T20:46:05.660Z</time>
      </trkpt>
      <trkpt lat="47.563601" lon="7.943496">
        <ele>343.158413</ele>
        <time>2021-11-08T20:46:08.406Z</time>
      </trkpt>
      <trkpt lat="47.563719" lon="7.943365">
        <ele>343.622408</ele>
        <time>2021-11-08T20:46:12.193Z</time>
      </trkpt>
      <trkpt lat="47.563845" lon="7.943225">
        <ele>344.118012</ele>
        <time>2021-11-08T20:46:15.927Z</time>
      </trkpt>
      <trkpt lat="47.564097" lon="7.942881">
        <ele>345.196241</ele>
        <time>2021-11-08T20:46:26.720Z</time>
      </trkpt>
      <trkpt lat="47.564121" lon="7.942841">
        <ele>345.309906</ele>
        <time>2021-11-08T20:46:28.764Z</time>
      </trkpt>
      <trkpt lat="47.564135" lon="7.942819">
        <ele>345.374123</ele>
        <time>2021-11-08T20:46:29.105Z</time>
      </trkpt>
      <trkpt lat="47.564264" lon="7.942637">
        <ele>346.123976</ele>
        <time>2021-11-08T20:46:35.798Z</time>
      </trkpt>
      <trkpt lat="47.564507" lon="7.942214">
        <ele>348.964367</ele>
        <time>2021-11-08T20:46:51.765Z</time>
      </trkpt>
      <trkpt lat="47.564693" lon="7.942033">
        <ele>350.650419</ele>
        <time>2021-11-08T20:47:00.655Z</time>
      </trkpt>
      <trkpt lat="47.564814" lon="7.941979">
        <ele>351.607943</ele>
        <time>2021-11-08T20:47:07.782Z</time>
      </trkpt>
      <trkpt lat="47.564898" lon="7.941972">
        <ele>352.245443</ele>
        <time>2021-11-08T20:47:11.825Z</time>
      </trkpt>
      <trkpt lat="47.565002" lon="7.941980">
        <ele>353.034545</ele>
        <time>2021-11-08T20:47:16.978Z</time>
      </trkpt>
      <trkpt lat="47.565144" lon="7.942041">
        <ele>354.154813</ele>
        <time>2021-11-08T20:47:25.333Z</time>
      </trkpt>
      <trkpt lat="47.565178" lon="7.942053">
        <ele>354.419647</ele>
        <time>2021-11-08T20:47:27.196Z</time>
      </trkpt>
      <trkpt lat="47.565593" lon="7.942200">
        <ele>357.652803</ele>
        <time>2021-11-08T20:47:47.595Z</time>
      </trkpt>
      <trkpt lat="47.566242" lon="7.941972">
        <ele>361.431486</ele>
        <time>2021-11-08T20:48:18.888Z</time>
      </trkpt>
      <trkpt lat="47.566527" lon="7.941959">
        <ele>362.751429</ele>
        <time>2021-11-08T20:48:30.720Z</time>
      </trkpt>
      <trkpt lat="47.567279" lon="7.942328">
        <ele>366.418416</ele>
        <time>2021-11-08T20:48:50.385Z</time>
      </trkpt>
      <trkpt lat="47.567412" lon="7.942343">
        <ele>367.035878</ele>
        <time>2021-11-08T20:48:54.735Z</time>
      </trkpt>
      <trkpt lat="47.567471" lon="7.942315">
        <ele>367.322661</ele>
        <time>2021-11-08T20:48:56.149Z</time>
      </trkpt>
      <trkpt lat="47.567523" lon="7.942285">
        <ele>367.580973</ele>
        <time>2021-11-08T20:48:57.231Z</time>
      </trkpt>
      <trkpt lat="47.567949" lon="7.942100">
        <ele>368.588240</ele>
        <time>2021-11-08T20:49:08.636Z</time>
      </trkpt>
      <trkpt lat="47.568118" lon="7.941960">
        <ele>368.985192</ele>
        <time>2021-11-08T20:49:13.266Z</time>
      </trkpt>
      <trkpt lat="47.568200" lon="7.941896">
        <ele>369.175203</ele>
        <time>2021-11-08T20:49:14.988Z</time>
      </trkpt>
      <trkpt lat="47.568271" lon="7.941748">
        <ele>369.426417</ele>
        <time>2021-11-08T20:49:17.842Z</time>
      </trkpt>
      <trkpt lat="47.568317" lon="7.941562">
        <ele>369.700462</ele>
        <time>2021-11-08T20:49:21.032Z</time>
      </trkpt>
      <trkpt lat="47.568379" lon="7.941267">
        <ele>370.127893</ele>
        <time>2021-11-08T20:49:24.922Z</time>
      </trkpt>
      <trkpt lat="47.568448" lon="7.941044">
        <ele>370.467273</ele>
        <time>2021-11-08T20:49:28.737Z</time>
      </trkpt>
      <trkpt lat="47.568494" lon="7.940909">
        <ele>370.676490</ele>
        <time>2021-11-08T20:49:30.525Z</time>
      </trkpt>
      <trkpt lat="47.568520" lon="7.940846">
        <ele>370.778652</ele>
        <time>2021-11-08T20:49:31.640Z</time>
      </trkpt>
      <trkpt lat="47.568598" lon="7.940707">
        <ele>371.028750</ele>
        <time>2021-11-08T20:49:33.784Z</time>
      </trkpt>
      <trkpt lat="47.569027" lon="7.940428">
        <ele>372.857102</ele>
        <time>2021-11-08T20:49:43.761Z</time>
      </trkpt>
      <trkpt lat="47.569418" lon="7.940363">
        <ele>374.945445</ele>
        <time>2021-11-08T20:49:54.811Z</time>
      </trkpt>
      <trkpt lat="47.570390" lon="7.940352">
        <ele>380.104726</ele>
        <time>2021-11-08T20:50:36.214Z</time>
      </trkpt>
      <trkpt lat="47.570745" lon="7.940187">
        <ele>382.401407</ele>
        <time>2021-11-08T20:50:52.626Z</time>
      </trkpt>
      <trkpt lat="47.570849" lon="7.940098">
        <ele>383.227148</ele>
        <time>2021-11-08T20:50:58.644Z</time>
      </trkpt>
      <trkpt lat="47.570920" lon="7.939991">
        <ele>383.923376</ele>
        <time>2021-11-08T20:51:04.597Z</time>
      </trkpt>
      <trkpt lat="47.570986" lon="7.939853">
        <ele>384.708106</ele>
        <time>2021-11-08T20:51:08.788Z</time>
      </trkpt>
      <trkpt lat="47.571121" lon="7.939531">
        <ele>386.466818</ele>
        <time>2021-11-08T20:51:19.730Z</time>
      </trkpt>
      <trkpt lat="47.571321" lon="7.939067">
        <ele>389.021143</ele>
        <time>2021-11-08T20:51:35.261Z</time>
      </trkpt>
      <trkpt lat="47.571744" lon="7.938297">
        <ele>393.477770</ele>
        <time>2021-11-08T20:52:03.670Z</time>
      </trkpt>
      <trkpt lat="47.571792" lon="7.938168">
        <ele>393.782342</ele>
        <time>2021-11-08T20:52:08.273Z</time>
      </trkpt>
      <trkpt lat="47.571814" lon="7.938108">
        <ele>393.923524</ele>
        <time>2021-11-08T20:52:09.867Z</time>
      </trkpt>
      <trkpt lat="47.571837" lon="7.938094">
        <ele>393.999716</ele>
        <time>2021-11-08T20:52:10.108Z</time>
      </trkpt>
      <trkpt lat="47.571892" lon="7.938121">
        <ele>394.177261</ele>
        <time>2021-11-08T20:52:12.330Z</time>
      </trkpt>
      <trkpt lat="47.572087" lon="7.938259">
        <ele>394.839432</ele>
        <time>2021-11-08T20:52:20.186Z</time>
      </trkpt>
      <trkpt lat="47.572457" lon="7.938598">
        <ele>396.172380</ele>
        <time>2021-11-08T20:52:32.641Z</time>
      </trkpt>
      <trkpt lat="47.572709" lon="7.938608">
        <ele>396.944882</ele>
        <time>2021-11-08T20:52:37.528Z</time>
      </trkpt>
      <trkpt lat="47.572910" lon="7.938451">
        <ele>397.641112</ele>
        <time>2021-11-08T20:52:41.780Z</time>
      </trkpt>
      <trkpt lat="47.573038" lon="7.938150">
        <ele>398.376701</ele>
        <time>2021-11-08T20:52:45.919Z</time>
      </trkpt>
      <trkpt lat="47.573078" lon="7.937709">
        <ele>399.339649</ele>
        <time>2021-11-08T20:52:50.681Z</time>
      </trkpt>
      <trkpt lat="47.573036" lon="7.937429">
        <ele>399.992329</ele>
        <time>2021-11-08T20:52:55.484Z</time>
      </trkpt>
      <trkpt lat="47.573024" lon="7.937357">
        <ele>400.161086</ele>
        <time>2021-11-08T20:52:56.412Z</time>
      </trkpt>
      <trkpt lat="47.573010" lon="7.937121">
        <ele>400.700162</ele>
        <time>2021-11-08T20:53:00.593Z</time>
      </trkpt>
      <trkpt lat="47.573010" lon="7.936978">
        <ele>401.025550</ele>
        <time>2021-11-08T20:53:02.876Z</time>
      </trkpt>
      <trkpt lat="47.573124" lon="7.936542">
        <ele>402.089542</ele>
        <time>2021-11-08T20:53:11.564Z</time>
      </trkpt>
      <trkpt lat="47.573179" lon="7.936342">
        <ele>402.580984</ele>
        <time>2021-11-08T20:53:16.023Z</time>
      </trkpt>
      <trkpt lat="47.573277" lon="7.936016">
        <ele>403.393082</ele>
        <time>2021-11-08T20:53:23.734Z</time>
      </trkpt>
      <trkpt lat="47.573388" lon="7.935781">
        <ele>404.045837</ele>
        <time>2021-11-08T20:53:29.673Z</time>
      </trkpt>
      <trkpt lat="47.573432" lon="7.935767">
        <ele>404.197620</ele>
        <time>2021-11-08T20:53:31.787Z</time>
      </trkpt>
      <trkpt lat="47.573597" lon="7.935752">
        <ele>404.755172</ele>
        <time>2021-11-08T20:53:37.616Z</time>
      </trkpt>
      <trkpt lat="47.573935" lon="7.935634">
        <ele>407.346627</ele>
        <time>2021-11-08T20:53:49.747Z</time>
      </trkpt>
      <trkpt lat="47.574115" lon="7.935550">
        <ele>408.895371</ele>
        <time>2021-11-08T20:53:57.333Z</time>
      </trkpt>
      <trkpt lat="47.574365" lon="7.935391">
        <ele>411.128012</ele>
        <time>2021-11-08T20:54:09.269Z</time>
      </trkpt>
      <trkpt lat="47.574919" lon="7.934783">
        <ele>416.785250</ele>
        <time>2021-11-08T20:54:45.605Z</time>
      </trkpt>
      <trkpt lat="47.575144" lon="7.934641">
        <ele>418.792229</ele>
        <time>2021-11-08T20:54:59.318Z</time>
      </trkpt>
      <trkpt lat="47.576460" lon="7.934694">
        <ele>432.160633</ele>
        <time>2021-11-08T20:56:14.816Z</time>
      </trkpt>
      <trkpt lat="47.577613" lon="7.934227">
        <ele>442.006158</ele>
        <time>2021-11-08T20:57:21.066Z</time>
      </trkpt>
      <trkpt lat="47.578335" lon="7.934175">
        <ele>446.471955</ele>
        <time>2021-11-08T20:57:48.960Z</time>
      </trkpt>
      <trkpt lat="47.578634" lon="7.934108">
        <ele>448.340170</ele>
        <time>2021-11-08T20:57:57.931Z</time>
      </trkpt>
      <trkpt lat="47.578958" lon="7.933883">
        <ele>449.606904</ele>
        <time>2021-11-08T20:58:05.415Z</time>
      </trkpt>
      <trkpt lat="47.579132" lon="7.933628">
        <ele>449.885502</ele>
        <time>2021-11-08T20:58:08.686Z</time>
      </trkpt>
      <trkpt lat="47.579242" lon="7.933285">
        <ele>450.177217</ele>
        <time>2021-11-08T20:58:11.744Z</time>
      </trkpt>
      <trkpt lat="47.579658" lon="7.932985">
        <ele>450.703969</ele>
        <time>2021-11-08T20:58:17.431Z</time>
      </trkpt>
      <trkpt lat="47.579800" lon="7.932767">
        <ele>450.936735</ele>
        <time>2021-11-08T20:58:21.418Z</time>
      </trkpt>
      <trkpt lat="47.579974" lon="7.931980">
        <ele>452.590747</ele>
        <time>2021-11-08T20:58:33.673Z</time>
      </trkpt>
      <trkpt lat="47.580010" lon="7.931498">
        <ele>455.853817</ele>
        <time>2021-11-08T20:58:46.315Z</time>
      </trkpt>
      <trkpt lat="47.580072" lon="7.931374">
        <ele>456.892394</ele>
        <time>2021-11-08T20:58:49.013Z</time>
      </trkpt>
      <trkpt lat="47.580163" lon="7.931340">
        <ele>457.828504</ele>
        <time>2021-11-08T20:58:55.770Z</time>
      </trkpt>
      <trkpt lat="47.580446" lon="7.931130">
        <ele>460.985329</ele>
        <time>2021-11-08T20:59:12.092Z</time>
      </trkpt>
      <trkpt lat="47.580503" lon="7.931087">
        <ele>461.623287</ele>
        <time>2021-11-08T20:59:18.453Z</time>
      </trkpt>
      <trkpt lat="47.580843" lon="7.931025">
        <ele>465.040347</ele>
        <time>2021-11-08T20:59:40.579Z</time>
      </trkpt>
      <trkpt lat="47.581453" lon="7.931036">
        <ele>472.234370</ele>
        <time>2021-11-08T21:00:32.341Z</time>
      </trkpt>
      <trkpt lat="47.581836" lon="7.931205">
        <ele>478.757086</ele>
        <time>2021-11-08T21:01:10.367Z</time>
      </trkpt>
      <trkpt lat="47.582198" lon="7.931692">
        <ele>486.736214</ele>
        <time>2021-11-08T21:01:51.949Z</time>
      </trkpt>
      <trkpt lat="47.582368" lon="7.932080">
        <ele>491.830326</ele>
        <time>2021-11-08T21:02:18.154Z</time>
      </trkpt>
      <trkpt lat="47.582393" lon="7.932214">
        <ele>493.361097</ele>
        <time>2021-11-08T21:02:26.566Z</time>
      </trkpt>
      <trkpt lat="47.582982" lon="7.933185">
        <ele>506.460153</ele>
        <time>2021-11-08T21:03:40.653Z</time>
      </trkpt>
      <trkpt lat="47.583083" lon="7.933623">
        <ele>510.832101</ele>
        <time>2021-11-08T21:04:06.384Z</time>
      </trkpt>
      <trkpt lat="47.583284" lon="7.934090">
        <ele>516.064340</ele>
        <time>2021-11-08T21:04:34.395Z</time>
      </trkpt>
      <trkpt lat="47.584068" lon="7.934949">
        <ele>527.283968</ele>
        <time>2021-11-08T21:05:39.671Z</time>
      </trkpt>
      <trkpt lat="47.584391" lon="7.935133">
        <ele>530.093940</ele>
        <time>2021-11-08T21:06:01.562Z</time>
      </trkpt>
      <trkpt lat="47.584599" lon="7.935175">
        <ele>531.798652</ele>
        <time>2021-11-08T21:06:13.007Z</time>
      </trkpt>
      <trkpt lat="47.584715" lon="7.935306">
        <ele>532.982819</ele>
        <time>2021-11-08T21:06:20.088Z</time>
      </trkpt>
      <trkpt lat="47.584853" lon="7.935700">
        <ele>535.414554</ele>
        <time>2021-11-08T21:06:33.259Z</time>
      </trkpt>
      <trkpt lat="47.584994" lon="7.935843">
        <ele>536.801854</ele>
        <time>2021-11-08T21:06:39.882Z</time>
      </trkpt>
      <trkpt lat="47.585129" lon="7.935884">
        <ele>537.920922</ele>
        <time>2021-11-08T21:06:44.972Z</time>
      </trkpt>
      <trkpt lat="47.585483" lon="7.935678">
        <ele>540.332768</ele>
        <time>2021-11-08T21:06:56.974Z</time>
      </trkpt>
      <trkpt lat="47.586122" lon="7.934993">
        <ele>544.986336</ele>
        <time>2021-11-08T21:07:28.136Z</time>
      </trkpt>
      <trkpt lat="47.586550" lon="7.934053">
        <ele>549.815555</ele>
        <time>2021-11-08T21:08:08.220Z</time>
      </trkpt>
      <trkpt lat="47.586674" lon="7.933810">
        <ele>552.113284</ele>
        <time>2021-11-08T21:08:15.384Z</time>
      </trkpt>
      <trkpt lat="47.586716" lon="7.933738">
        <ele>552.831102</ele>
        <time>2021-11-08T21:08:21.249Z</time>
      </trkpt>
      <trkpt lat="47.586935" lon="7.933669">
        <ele>555.334215</ele>
        <time>2021-11-08T21:08:33.838Z</time>
      </trkpt>
      <trkpt lat="47.587044" lon="7.933775">
        <ele>556.791594</ele>
        <time>2021-11-08T21:08:41.996Z</time>
      </trkpt>
      <trkpt lat="47.587093" lon="7.933888">
        <ele>557.804594</ele>
        <time>2021-11-08T21:08:50.001Z</time>
      </trkpt>
      <trkpt lat="47.587110" lon="7.933977">
        <ele>558.502104</ele>
        <time>2021-11-08T21:08:53.008Z</time>
      </trkpt>
      <trkpt lat="47.587104" lon="7.934093">
        <ele>559.379384</ele>
        <time>2021-11-08T21:08:56.508Z</time>
      </trkpt>
      <trkpt lat="47.587052" lon="7.934268">
        <ele>560.821380</ele>
        <time>2021-11-08T21:09:05.304Z</time>
      </trkpt>
      <trkpt lat="47.587038" lon="7.934350">
        <ele>561.459215</ele>
        <time>2021-11-08T21:09:10.970Z</time>
      </trkpt>
      <trkpt lat="47.586899" lon="7.935287">
        <ele>568.693677</ele>
        <time>2021-11-08T21:09:57.773Z</time>
      </trkpt>
      <trkpt lat="47.586573" lon="7.936642">
        <ele>582.061213</ele>
        <time>2021-11-08T21:11:11.581Z</time>
      </trkpt>
      <trkpt lat="47.586550" lon="7.936908">
        <ele>584.578849</ele>
        <time>2021-11-08T21:11:24.576Z</time>
      </trkpt>
      <trkpt lat="47.586591" lon="7.937103">
        <ele>586.496389</ele>
        <time>2021-11-08T21:11:34.855Z</time>
      </trkpt>
      <trkpt lat="47.586810" lon="7.937295">
        <ele>590.037679</ele>
        <time>2021-11-08T21:11:54.175Z</time>
      </trkpt>
      <trkpt lat="47.587160" lon="7.937234">
        <ele>594.972243</ele>
        <time>2021-11-08T21:12:21.986Z</time>
      </trkpt>
      <trkpt lat="47.588012" lon="7.937304">
        <ele>607.386652</ele>
        <time>2021-11-08T21:13:30.907Z</time>
      </trkpt>
      <trkpt lat="47.588878" lon="7.937560">
        <ele>620.233697</ele>
        <time>2021-11-08T21:14:40.428Z</time>
      </trkpt>
      <trkpt lat="47.589264" lon="7.937749">
        <ele>624.709096</ele>
        <time>2021-11-08T21:15:11.149Z</time>
      </trkpt>
      <trkpt lat="47.589445" lon="7.937932">
        <ele>627.090074</ele>
        <time>2021-11-08T21:15:26.560Z</time>
      </trkpt>
      <trkpt lat="47.589795" lon="7.938509">
        <ele>632.778436</ele>
        <time>2021-11-08T21:15:59.947Z</time>
      </trkpt>
      <trkpt lat="47.590080" lon="7.938870">
        <ele>636.852273</ele>
        <time>2021-11-08T21:16:21.150Z</time>
      </trkpt>
      <trkpt lat="47.590616" lon="7.939392">
        <ele>642.552785</ele>
        <time>2021-11-08T21:16:53.858Z</time>
      </trkpt>
      <trkpt lat="47.590859" lon="7.939631">
        <ele>644.667190</ele>
        <time>2021-11-08T21:17:08.307Z</time>
      </trkpt>
      <trkpt lat="47.591048" lon="7.939686">
        <ele>646.063784</ele>
        <time>2021-11-08T21:17:17.779Z</time>
      </trkpt>
      <trkpt lat="47.591394" lon="7.939595">
        <ele>648.611812</ele>
        <time>2021-11-08T21:17:34.980Z</time>
      </trkpt>
      <trkpt lat="47.591754" lon="7.939418">
        <ele>651.361957</ele>
        <time>2021-11-08T21:17:51.598Z</time>
      </trkpt>
      <trkpt lat="47.591998" lon="7.939157">
        <ele>653.694435</ele>
        <time>2021-11-08T21:18:05.458Z</time>
      </trkpt>
      <trkpt lat="47.592135" lon="7.938621">
        <ele>657.356040</ele>
        <time>2021-11-08T21:18:24.098Z</time>
      </trkpt>
      <trkpt lat="47.592280" lon="7.938551">
        <ele>658.800438</ele>
        <time>2021-11-08T21:18:33.775Z</time>
      </trkpt>
      <trkpt lat="47.592460" lon="7.938566">
        <ele>660.508089</ele>
        <time>2021-11-08T21:18:45.539Z</time>
      </trkpt>
      <trkpt lat="47.592599" lon="7.938640">
        <ele>661.906984</ele>
        <time>2021-11-08T21:18:54.423Z</time>
      </trkpt>
      <trkpt lat="47.592858" lon="7.938921">
        <ele>664.946792</ele>
        <time>2021-11-08T21:19:14.385Z</time>
      </trkpt>
      <trkpt lat="47.592894" lon="7.939049">
        <ele>665.832694</ele>
        <time>2021-11-08T21:19:21.532Z</time>
      </trkpt>
      <trkpt lat="47.592849" lon="7.939589">
        <ele>669.308375</ele>
        <time>2021-11-08T21:19:45.102Z</time>
      </trkpt>
      <trkpt lat="47.592876" lon="7.939976">
        <ele>671.363913</ele>
        <time>2021-11-08T21:19:59.594Z</time>
      </trkpt>
      <trkpt lat="47.592915" lon="7.940174">
        <ele>672.349631</ele>
        <time>2021-11-08T21:20:09.606Z</time>
      </trkpt>
      <trkpt lat="47.592973" lon="7.940372">
        <ele>673.381221</ele>
        <time>2021-11-08T21:20:16.871Z</time>
      </trkpt>
      <trkpt lat="47.593086" lon="7.940601">
        <ele>674.737202</ele>
        <time>2021-11-08T21:20:27.820Z</time>
      </trkpt>
      <trkpt lat="47.593315" lon="7.940887">
        <ele>676.858754</ele>
        <time>2021-11-08T21:20:42.160Z</time>
      </trkpt>
      <trkpt lat="47.593658" lon="7.941210">
        <ele>679.737931</ele>
        <time>2021-11-08T21:21:01.822Z</time>
      </trkpt>
      <trkpt lat="47.593806" lon="7.941297">
        <ele>680.866052</ele>
        <time>2021-11-08T21:21:08.457Z</time>
      </trkpt>
      <trkpt lat="47.594300" lon="7.941613">
        <ele>683.513165</ele>
        <time>2021-11-08T21:21:27.449Z</time>
      </trkpt>
      <trkpt lat="47.594679" lon="7.941483">
        <ele>684.529421</ele>
        <time>2021-11-08T21:21:36.400Z</time>
      </trkpt>
      <trkpt lat="47.595410" lon="7.941004">
        <ele>686.617250</ele>
        <time>2021-11-08T21:21:57.992Z</time>
      </trkpt>
      <trkpt lat="47.595989" lon="7.940668">
        <ele>689.383765</ele>
        <time>2021-11-08T21:22:18.295Z</time>
      </trkpt>
      <trkpt lat="47.596160" lon="7.940569">
        <ele>690.634858</ele>
        <time>2021-11-08T21:22:25.846Z</time>
      </trkpt>
      <trkpt lat="47.596779" lon="7.940190">
        <ele>695.199005</ele>
        <time>2021-11-08T21:22:54.800Z</time>
      </trkpt>
      <trkpt lat="47.597138" lon="7.940083">
        <ele>697.694641</ele>
        <time>2021-11-08T21:23:16.017Z</time>
      </trkpt>
      <trkpt lat="47.597581" lon="7.940295">
        <ele>701.477351</ele>
        <time>2021-11-08T21:23:45.642Z</time>
      </trkpt>
      <trkpt lat="47.598230" lon="7.940913">
        <ele>709.711468</ele>
        <time>2021-11-08T21:24:35.431Z</time>
      </trkpt>
      <trkpt lat="47.598394" lon="7.941103">
        <ele>711.933273</ele>
        <time>2021-11-08T21:24:49.878Z</time>
      </trkpt>
      <trkpt lat="47.598852" lon="7.941514">
        <ele>717.648380</ele>
        <time>2021-11-08T21:25:22.024Z</time>
      </trkpt>
      <trkpt lat="47.599954" lon="7.942038">
        <ele>728.781588</ele>
        <time>2021-11-08T21:26:32.680Z</time>
      </trkpt>
      <trkpt lat="47.600676" lon="7.942211">
        <ele>735.723311</ele>
        <time>2021-11-08T21:27:12.196Z</time>
      </trkpt>
      <trkpt lat="47.600753" lon="7.942313">
        <ele>736.645645</ele>
        <time>2021-11-08T21:27:17.279Z</time>
      </trkpt>
      <trkpt lat="47.600769" lon="7.942402">
        <ele>737.182025</ele>
        <time>2021-11-08T21:27:21.590Z</time>
      </trkpt>
      <trkpt lat="47.600760" lon="7.942528">
        <ele>737.919869</ele>
        <time>2021-11-08T21:27:27.072Z</time>
      </trkpt>
      <trkpt lat="47.600606" lon="7.942664">
        <ele>739.467789</ele>
        <time>2021-11-08T21:27:36.130Z</time>
      </trkpt>
      <trkpt lat="47.600059" lon="7.942907">
        <ele>744.399182</ele>
        <time>2021-11-08T21:28:08.928Z</time>
      </trkpt>
      <trkpt lat="47.599913" lon="7.942988">
        <ele>745.745410</ele>
        <time>2021-11-08T21:28:17.044Z</time>
      </trkpt>
      <trkpt lat="47.599587" lon="7.943137">
        <ele>748.691488</ele>
        <time>2021-11-08T21:28:36.539Z</time>
      </trkpt>
      <trkpt lat="47.599314" lon="7.943347">
        <ele>751.347467</ele>
        <time>2021-11-08T21:28:54.142Z</time>
      </trkpt>
      <trkpt lat="47.598629" lon="7.944136">
        <ele>755.844663</ele>
        <time>2021-11-08T21:29:34.096Z</time>
      </trkpt>
      <trkpt lat="47.598175" lon="7.944534">
        <ele>758.516384</ele>
        <time>2021-11-08T21:29:53.406Z</time>
      </trkpt>
      <trkpt lat="47.597166" lon="7.944762">
        <ele>761.727892</ele>
        <time>2021-11-08T21:30:24.634Z</time>
      </trkpt>
      <trkpt lat="47.597051" lon="7.944828">
        <ele>761.941614</ele>
        <time>2021-11-08T21:30:27.201Z</time>
      </trkpt>
      <trkpt lat="47.596792" lon="7.945059">
        <ele>762.465442</ele>
        <time>2021-11-08T21:30:35.152Z</time>
      </trkpt>
      <trkpt lat="47.596624" lon="7.945316">
        <ele>762.883778</ele>
        <time>2021-11-08T21:30:41.074Z</time>
      </trkpt>
      <trkpt lat="47.596503" lon="7.945829">
        <ele>763.518971</ele>
        <time>2021-11-08T21:30:50.176Z</time>
      </trkpt>
      <trkpt lat="47.596487" lon="7.945889">
        <ele>763.594381</ele>
        <time>2021-11-08T21:30:51.568Z</time>
      </trkpt>
      <trkpt lat="47.596371" lon="7.946306">
        <ele>764.094611</ele>
        <time>2021-11-08T21:30:58.753Z</time>
      </trkpt>
      <trkpt lat="47.596313" lon="7.946755">
        <ele>764.580070</ele>
        <time>2021-11-08T21:31:07.033Z</time>
      </trkpt>
      <trkpt lat="47.596343" lon="7.946928">
        <ele>764.769754</ele>
        <time>2021-11-08T21:31:10.295Z</time>
      </trkpt>
      <trkpt lat="47.596439" lon="7.947071">
        <ele>764.984023</ele>
        <time>2021-11-08T21:31:14.286Z</time>
      </trkpt>
      <trkpt lat="47.596892" lon="7.947624">
        <ele>765.907971</ele>
        <time>2021-11-08T21:31:29.738Z</time>
      </trkpt>
      <trkpt lat="47.597273" lon="7.948237">
        <ele>766.886888</ele>
        <time>2021-11-08T21:31:43.372Z</time>
      </trkpt>
      <trkpt lat="47.597303" lon="7.948276">
        <ele>766.993492</ele>
        <time>2021-11-08T21:31:45.533Z</time>
      </trkpt>
      <trkpt lat="47.597384" lon="7.948384">
        <ele>767.284553</ele>
        <time>2021-11-08T21:31:48.580Z</time>
      </trkpt>
      <trkpt lat="47.597463" lon="7.948498">
        <ele>767.579097</ele>
        <time>2021-11-08T21:31:51.298Z</time>
      </trkpt>
      <trkpt lat="47.597542" lon="7.948555">
        <ele>767.813851</ele>
        <time>2021-11-08T21:31:53.170Z</time>
      </trkpt>
      <trkpt lat="47.597591" lon="7.948609">
        <ele>767.976979</ele>
        <time>2021-11-08T21:31:55.804Z</time>
      </trkpt>
      <trkpt lat="47.597713" lon="7.948780">
        <ele>768.425544</ele>
        <time>2021-11-08T21:31:59.434Z</time>
      </trkpt>
      <trkpt lat="47.597986" lon="7.949276">
        <ele>769.579184</ele>
        <time>2021-11-08T21:32:09.891Z</time>
      </trkpt>
      <trkpt lat="47.598158" lon="7.949458">
        <ele>770.143786</ele>
        <time>2021-11-08T21:32:16.659Z</time>
      </trkpt>
      <trkpt lat="47.598287" lon="7.949604">
        <ele>770.577402</ele>
        <time>2021-11-08T21:32:19.684Z</time>
      </trkpt>
      <trkpt lat="47.598351" lon="7.949607">
        <ele>770.748501</ele>
        <time>2021-11-08T21:32:21.486Z</time>
      </trkpt>
      <trkpt lat="47.598463" lon="7.949612">
        <ele>771.047910</ele>
        <time>2021-11-08T21:32:25.954Z</time>
      </trkpt>
      <trkpt lat="47.599532" lon="7.949671">
        <ele>775.260998</ele>
        <time>2021-11-08T21:32:57.053Z</time>
      </trkpt>
      <trkpt lat="47.600170" lon="7.949596">
        <ele>777.920028</ele>
        <time>2021-11-08T21:33:18.292Z</time>
      </trkpt>
      <trkpt lat="47.600361" lon="7.949597">
        <ele>778.713585</ele>
        <time>2021-11-08T21:33:25.047Z</time>
      </trkpt>
      <trkpt lat="47.600587" lon="7.949607">
        <ele>779.848955</ele>
        <time>2021-11-08T21:33:32.218Z</time>
      </trkpt>
      <trkpt lat="47.601639" lon="7.950057">
        <ele>785.644489</ele>
        <time>2021-11-08T21:34:11.952Z</time>
      </trkpt>
      <trkpt lat="47.602330" lon="7.950202">
        <ele>789.196884</ele>
        <time>2021-11-08T21:34:38.033Z</time>
      </trkpt>
      <trkpt lat="47.602534" lon="7.950180">
        <ele>790.105248</ele>
        <time>2021-11-08T21:34:46.045Z</time>
      </trkpt>
      <trkpt lat="47.603548" lon="7.950073">
        <ele>794.619844</ele>
        <time>2021-11-08T21:35:20.014Z</time>
      </trkpt>
      <trkpt lat="47.603670" lon="7.950066">
        <ele>795.162056</ele>
        <time>2021-11-08T21:35:24.355Z</time>
      </trkpt>
      <trkpt lat="47.603825" lon="7.950078">
        <ele>795.851354</ele>
        <time>2021-11-08T21:35:28.329Z</time>
      </trkpt>
      <trkpt lat="47.603924" lon="7.950086">
        <ele>796.291669</ele>
        <time>2021-11-08T21:35:31.077Z</time>
      </trkpt>
      <trkpt lat="47.604947" lon="7.950295">
        <ele>798.024768</ele>
        <time>2021-11-08T21:35:54.506Z</time>
      </trkpt>
      <trkpt lat="47.605102" lon="7.950351">
        <ele>798.277123</ele>
        <time>2021-11-08T21:35:58.277Z</time>
      </trkpt>
      <trkpt lat="47.606487" lon="7.951041">
        <ele>799.902073</ele>
        <time>2021-11-08T21:36:21.809Z</time>
      </trkpt>
      <trkpt lat="47.606758" lon="7.951082">
        <ele>800.104955</ele>
        <time>2021-11-08T21:36:26.837Z</time>
      </trkpt>
      <trkpt lat="47.607166" lon="7.950974">
        <ele>800.413626</ele>
        <time>2021-11-08T21:36:34.455Z</time>
      </trkpt>
      <trkpt lat="47.607597" lon="7.950928">
        <ele>800.824328</ele>
        <time>2021-11-08T21:36:42.914Z</time>
      </trkpt>
      <trkpt lat="47.607851" lon="7.950895">
        <ele>801.175985</ele>
        <time>2021-11-08T21:36:48.359Z</time>
      </trkpt>
      <trkpt lat="47.608139" lon="7.950744">
        <ele>801.597279</ele>
        <time>2021-11-08T21:36:54.842Z</time>
      </trkpt>
      <trkpt lat="47.608646" lon="7.950271">
        <ele>802.423349</ele>
        <time>2021-11-08T21:37:07.443Z</time>
      </trkpt>
      <trkpt lat="47.608916" lon="7.950126">
        <ele>802.819388</ele>
        <time>2021-11-08T21:37:13.422Z</time>
      </trkpt>
      <trkpt lat="47.609119" lon="7.950532">
        <ele>803.070429</ele>
        <time>2021-11-08T21:37:20.225Z</time>
      </trkpt>
      <trkpt lat="47.609390" lon="7.951204">
        <ele>802.900793</ele>
        <time>2021-11-08T21:37:29.393Z</time>
      </trkpt>
      <trkpt lat="47.609848" lon="7.952864">
        <ele>802.392491</ele>
        <time>2021-11-08T21:37:44.446Z</time>
      </trkpt>
      <trkpt lat="47.609991" lon="7.953325">
        <ele>801.673533</ele>
        <time>2021-11-08T21:37:48.189Z</time>
      </trkpt>
      <trkpt lat="47.610173" lon="7.953576">
        <ele>801.151281</ele>
        <time>2021-11-08T21:37:50.855Z</time>
      </trkpt>
      <trkpt lat="47.610442" lon="7.953689">
        <ele>800.563741</ele>
        <time>2021-11-08T21:37:54.046Z</time>
      </trkpt>
      <trkpt lat="47.610534" lon="7.953698">
        <ele>800.369982</ele>
        <time>2021-11-08T21:37:54.952Z</time>
      </trkpt>
      <trkpt lat="47.610622" lon="7.953678">
        <ele>800.182890</ele>
        <time>2021-11-08T21:37:55.990Z</time>
      </trkpt>
      <trkpt lat="47.610867" lon="7.953623">
        <ele>799.662156</ele>
        <time>2021-11-08T21:37:58.632Z</time>
      </trkpt>
      <trkpt lat="47.611213" lon="7.953569">
        <ele>798.931019</ele>
        <time>2021-11-08T21:38:02.193Z</time>
      </trkpt>
      <trkpt lat="47.611379" lon="7.953732">
        <ele>798.577786</ele>
        <time>2021-11-08T21:38:04.310Z</time>
      </trkpt>
      <trkpt lat="47.611583" lon="7.954201">
        <ele>798.000453</ele>
        <time>2021-11-08T21:38:08.342Z</time>
      </trkpt>
      <trkpt lat="47.611609" lon="7.954585">
        <ele>797.601256</ele>
        <time>2021-11-08T21:38:11.148Z</time>
      </trkpt>
      <trkpt lat="47.611563" lon="7.954771">
        <ele>797.396325</ele>
        <time>2021-11-08T21:38:12.633Z</time>
      </trkpt>
      <trkpt lat="47.611466" lon="7.955017">
        <ele>797.101541</ele>
        <time>2021-11-08T21:38:14.973Z</time>
      </trkpt>
      <trkpt lat="47.611423" lon="7.955105">
        <ele>796.989120</ele>
        <time>2021-11-08T21:38:15.892Z</time>
      </trkpt>
      <trkpt lat="47.611344" lon="7.955262">
        <ele>796.786475</ele>
        <time>2021-11-08T21:38:17.343Z</time>
      </trkpt>
      <trkpt lat="47.611237" lon="7.955554">
        <ele>796.442702</ele>
        <time>2021-11-08T21:38:20.299Z</time>
      </trkpt>
      <trkpt lat="47.611155" lon="7.956085">
        <ele>796.035591</ele>
        <time>2021-11-08T21:38:24.872Z</time>
      </trkpt>
      <trkpt lat="47.611164" lon="7.956405">
        <ele>796.154610</ele>
        <time>2021-11-08T21:38:27.826Z</time>
      </trkpt>
      <trkpt lat="47.611301" lon="7.956961">
        <ele>796.374595</ele>
        <time>2021-11-08T21:38:34.432Z</time>
      </trkpt>
      <trkpt lat="47.611301" lon="7.956962">
        <ele>796.374967</ele>
        <time>2021-11-08T21:38:34.480Z</time>
      </trkpt>
      <trkpt lat="47.611408" lon="7.957164">
        <ele>796.470432</ele>
        <time>2021-11-08T21:38:37.105Z</time>
      </trkpt>
      <trkpt lat="47.611743" lon="7.957534">
        <ele>796.700659</ele>
        <time>2021-11-08T21:38:44.772Z</time>
      </trkpt>
      <trkpt lat="47.611972" lon="7.957626">
        <ele>796.831437</ele>
        <time>2021-11-08T21:38:49.998Z</time>
      </trkpt>
      <trkpt lat="47.612102" lon="7.957603">
        <ele>796.903604</ele>
        <time>2021-11-08T21:38:52.176Z</time>
      </trkpt>
      <trkpt lat="47.612270" lon="7.957550">
        <ele>797.015938</ele>
        <time>2021-11-08T21:38:56.205Z</time>
      </trkpt>
      <trkpt lat="47.612291" lon="7.957543">
        <ele>797.044477</ele>
        <time>2021-11-08T21:38:56.686Z</time>
      </trkpt>
      <trkpt lat="47.612391" lon="7.957530">
        <ele>797.177579</ele>
        <time>2021-11-08T21:38:58.464Z</time>
      </trkpt>
      <trkpt lat="47.612456" lon="7.957566">
        <ele>797.269576</ele>
        <time>2021-11-08T21:38:59.524Z</time>
      </trkpt>
      <trkpt lat="47.612517" lon="7.957628">
        <ele>797.367623</ele>
        <time>2021-11-08T21:39:01.262Z</time>
      </trkpt>
      <trkpt lat="47.612606" lon="7.957836">
        <ele>797.587836</ele>
        <time>2021-11-08T21:39:04.748Z</time>
      </trkpt>
      <trkpt lat="47.612661" lon="7.957964">
        <ele>797.723515</ele>
        <time>2021-11-08T21:39:06.419Z</time>
      </trkpt>
      <trkpt lat="47.612719" lon="7.958171">
        <ele>797.923891</ele>
        <time>2021-11-08T21:39:09.640Z</time>
      </trkpt>
      <trkpt lat="47.612728" lon="7.958409">
        <ele>798.136964</ele>
        <time>2021-11-08T21:39:12.870Z</time>
      </trkpt>
      <trkpt lat="47.612741" lon="7.958660">
        <ele>798.361985</ele>
        <time>2021-11-08T21:39:16.492Z</time>
      </trkpt>
      <trkpt lat="47.612659" lon="7.959516">
        <ele>799.134818</ele>
        <time>2021-11-08T21:39:28.524Z</time>
      </trkpt>
      <trkpt lat="47.612685" lon="7.959801">
        <ele>799.416475</ele>
        <time>2021-11-08T21:39:31.681Z</time>
      </trkpt>
      <trkpt lat="47.612685" lon="7.959801">
        <ele>799.416475</ele>
        <time>2021-11-08T21:39:31.682Z</time>
      </trkpt>
      <trkpt lat="47.612766" lon="7.960065">
        <ele>799.975100</ele>
        <time>2021-11-08T21:39:35.396Z</time>
      </trkpt>
      <trkpt lat="47.612881" lon="7.960311">
        <ele>800.551641</ele>
        <time>2021-11-08T21:39:39.151Z</time>
      </trkpt>
      <trkpt lat="47.613020" lon="7.960049">
        <ele>801.193747</ele>
        <time>2021-11-08T21:39:44.709Z</time>
      </trkpt>
      <trkpt lat="47.613134" lon="7.959507">
        <ele>802.287214</ele>
        <time>2021-11-08T21:39:53.926Z</time>
      </trkpt>
      <trkpt lat="47.613156" lon="7.958910">
        <ele>803.438693</ele>
        <time>2021-11-08T21:40:05.658Z</time>
      </trkpt>
      <trkpt lat="47.613253" lon="7.958684">
        <ele>803.954675</ele>
        <time>2021-11-08T21:40:11.441Z</time>
      </trkpt>
      <trkpt lat="47.613441" lon="7.958296">
        <ele>805.276836</ele>
        <time>2021-11-08T21:40:21.874Z</time>
      </trkpt>
      <trkpt lat="47.613498" lon="7.958176">
        <ele>805.870138</ele>
        <time>2021-11-08T21:40:26.366Z</time>
      </trkpt>
      <trkpt lat="47.613637" lon="7.957858">
        <ele>807.401911</ele>
        <time>2021-11-08T21:40:34.989Z</time>
      </trkpt>
      <trkpt lat="47.613747" lon="7.957547">
        <ele>808.821364</ele>
        <time>2021-11-08T21:40:43.946Z</time>
      </trkpt>
      <trkpt lat="47.613817" lon="7.957293">
        <ele>809.930408</ele>
        <time>2021-11-08T21:40:51.395Z</time>
      </trkpt>
      <trkpt lat="47.613975" lon="7.956945">
        <ele>811.626141</ele>
        <time>2021-11-08T21:41:01.968Z</time>
      </trkpt>
      <trkpt lat="47.614150" lon="7.956743">
        <ele>812.955545</ele>
        <time>2021-11-08T21:41:11.368Z</time>
      </trkpt>
      <trkpt lat="47.614413" lon="7.956465">
        <ele>814.891683</ele>
        <time>2021-11-08T21:41:26.217Z</time>
      </trkpt>
      <trkpt lat="47.614839" lon="7.956151">
        <ele>818.373976</ele>
        <time>2021-11-08T21:41:46.533Z</time>
      </trkpt>
      <trkpt lat="47.615069" lon="7.955940">
        <ele>820.412264</ele>
        <time>2021-11-08T21:41:57.676Z</time>
      </trkpt>
      <trkpt lat="47.615290" lon="7.955684">
        <ele>822.525681</ele>
        <time>2021-11-08T21:42:09.843Z</time>
      </trkpt>
      <trkpt lat="47.615567" lon="7.955253">
        <ele>825.551323</ele>
        <time>2021-11-08T21:42:28.222Z</time>
      </trkpt>
      <trkpt lat="47.615954" lon="7.954858">
        <ele>829.126602</ele>
        <time>2021-11-08T21:42:50.062Z</time>
      </trkpt>
      <trkpt lat="47.616312" lon="7.954710">
        <ele>832.327647</ele>
        <time>2021-11-08T21:43:09.106Z</time>
      </trkpt>
      <trkpt lat="47.616560" lon="7.954678">
        <ele>834.471802</ele>
        <time>2021-11-08T21:43:22.582Z</time>
      </trkpt>
      <trkpt lat="47.616890" lon="7.954760">
        <ele>837.353778</ele>
        <time>2021-11-08T21:43:39.650Z</time>
      </trkpt>
      <trkpt lat="47.617066" lon="7.954812">
        <ele>838.899485</ele>
        <time>2021-11-08T21:43:48.948Z</time>
      </trkpt>
      <trkpt lat="47.617229" lon="7.954869">
        <ele>840.341926</ele>
        <time>2021-11-08T21:43:56.640Z</time>
      </trkpt>
      <trkpt lat="47.617283" lon="7.954886">
        <ele>840.817400</ele>
        <time>2021-11-08T21:44:00.285Z</time>
      </trkpt>
      <trkpt lat="47.617621" lon="7.954956">
        <ele>843.756915</ele>
        <time>2021-11-08T21:44:16.269Z</time>
      </trkpt>
      <trkpt lat="47.617721" lon="7.954960">
        <ele>844.491780</ele>
        <time>2021-11-08T21:44:21.355Z</time>
      </trkpt>
      <trkpt lat="47.617828" lon="7.954964">
        <ele>844.991651</ele>
        <time>2021-11-08T21:44:26.063Z</time>
      </trkpt>
      <trkpt lat="47.618208" lon="7.954752">
        <ele>846.887671</ele>
        <time>2021-11-08T21:44:43.329Z</time>
      </trkpt>
      <trkpt lat="47.618328" lon="7.954588">
        <ele>847.649654</ele>
        <time>2021-11-08T21:44:50.387Z</time>
      </trkpt>
      <trkpt lat="47.618375" lon="7.954525">
        <ele>847.945480</ele>
        <time>2021-11-08T21:44:52.913Z</time>
      </trkpt>
      <trkpt lat="47.618549" lon="7.954266">
        <ele>849.096619</ele>
        <time>2021-11-08T21:45:01.358Z</time>
      </trkpt>
      <trkpt lat="47.618866" lon="7.953794">
        <ele>851.194124</ele>
        <time>2021-11-08T21:45:15.437Z</time>
      </trkpt>
      <trkpt lat="47.619515" lon="7.953035">
        <ele>851.757356</ele>
        <time>2021-11-08T21:45:28.265Z</time>
      </trkpt>
      <trkpt lat="47.619933" lon="7.952707">
        <ele>850.817132</ele>
        <time>2021-11-08T21:45:33.514Z</time>
      </trkpt>
      <trkpt lat="47.620168" lon="7.952606">
        <ele>850.330658</ele>
        <time>2021-11-08T21:45:35.890Z</time>
      </trkpt>
      <trkpt lat="47.620395" lon="7.952576">
        <ele>849.877517</ele>
        <time>2021-11-08T21:45:38.163Z</time>
      </trkpt>
      <trkpt lat="47.620544" lon="7.952585">
        <ele>849.581008</ele>
        <time>2021-11-08T21:45:39.622Z</time>
      </trkpt>
      <trkpt lat="47.621374" lon="7.952883">
        <ele>846.353420</ele>
        <time>2021-11-08T21:45:48.034Z</time>
      </trkpt>
      <trkpt lat="47.621408" lon="7.952896">
        <ele>846.200329</ele>
        <time>2021-11-08T21:45:48.335Z</time>
      </trkpt>
      <trkpt lat="47.621500" lon="7.952932">
        <ele>845.785474</ele>
        <time>2021-11-08T21:45:49.252Z</time>
      </trkpt>
      <trkpt lat="47.621882" lon="7.952893">
        <ele>844.115940</ele>
        <time>2021-11-08T21:45:52.821Z</time>
      </trkpt>
      <trkpt lat="47.622136" lon="7.952635">
        <ele>842.773764</ele>
        <time>2021-11-08T21:45:55.759Z</time>
      </trkpt>
      <trkpt lat="47.622251" lon="7.952351">
        <ele>841.800093</ele>
        <time>2021-11-08T21:45:58.048Z</time>
      </trkpt>
      <trkpt lat="47.622276" lon="7.952166">
        <ele>841.268051</ele>
        <time>2021-11-08T21:45:59.226Z</time>
      </trkpt>
      <trkpt lat="47.622261" lon="7.951375">
        <ele>839.618125</ele>
        <time>2021-11-08T21:46:04.542Z</time>
      </trkpt>
      <trkpt lat="47.622265" lon="7.951206">
        <ele>839.265534</ele>
        <time>2021-11-08T21:46:05.695Z</time>
      </trkpt>
      <trkpt lat="47.622272" lon="7.951112">
        <ele>839.068347</ele>
        <time>2021-11-08T21:46:06.411Z</time>
      </trkpt>
      <trkpt lat="47.622278" lon="7.951027">
        <ele>838.890149</ele>
        <time>2021-11-08T21:46:06.959Z</time>
      </trkpt>
      <trkpt lat="47.622427" lon="7.950567">
        <ele>837.826022</ele>
        <time>2021-11-08T21:46:10.546Z</time>
      </trkpt>
      <trkpt lat="47.622642" lon="7.950331">
        <ele>836.998685</ele>
        <time>2021-11-08T21:46:13.341Z</time>
      </trkpt>
      <trkpt lat="47.622946" lon="7.950255">
        <ele>836.045012</ele>
        <time>2021-11-08T21:46:16.546Z</time>
      </trkpt>
      <trkpt lat="47.623105" lon="7.950303">
        <ele>835.765462</ele>
        <time>2021-11-08T21:46:18.200Z</time>
      </trkpt>
      <trkpt lat="47.623553" lon="7.950603">
        <ele>835.812045</ele>
        <time>2021-11-08T21:46:23.415Z</time>
      </trkpt>
      <trkpt lat="47.624014" lon="7.951018">
        <ele>835.863150</ele>
        <time>2021-11-08T21:46:31.106Z</time>
      </trkpt>
      <trkpt lat="47.624692" lon="7.951963">
        <ele>836.961179</ele>
        <time>2021-11-08T21:46:52.488Z</time>
      </trkpt>
      <trkpt lat="47.624794" lon="7.952070">
        <ele>837.516567</ele>
        <time>2021-11-08T21:46:56.376Z</time>
      </trkpt>
      <trkpt lat="47.624864" lon="7.952108">
        <ele>837.847963</ele>
        <time>2021-11-08T21:47:00.751Z</time>
      </trkpt>
      <trkpt lat="47.625089" lon="7.952131">
        <ele>838.850681</ele>
        <time>2021-11-08T21:47:07.114Z</time>
      </trkpt>
      <trkpt lat="47.625338" lon="7.952002">
        <ele>840.023277</ele>
        <time>2021-11-08T21:47:16.308Z</time>
      </trkpt>
      <trkpt lat="47.625460" lon="7.951852">
        <ele>840.727716</ele>
        <time>2021-11-08T21:47:21.810Z</time>
      </trkpt>
      <trkpt lat="47.625812" lon="7.951163">
        <ele>843.318396</ele>
        <time>2021-11-08T21:47:43.199Z</time>
      </trkpt>
      <trkpt lat="47.625850" lon="7.951040">
        <ele>843.723838</ele>
        <time>2021-11-08T21:47:46.923Z</time>
      </trkpt>
      <trkpt lat="47.625896" lon="7.950889">
        <ele>844.190506</ele>
        <time>2021-11-08T21:47:51.541Z</time>
      </trkpt>
      <trkpt lat="47.626026" lon="7.950244">
        <ele>846.003049</ele>
        <time>2021-11-08T21:48:04.752Z</time>
      </trkpt>
      <trkpt lat="47.626078" lon="7.950083">
        <ele>846.483717</ele>
        <time>2021-11-08T21:48:09.421Z</time>
      </trkpt>
      <trkpt lat="47.626137" lon="7.949956">
        <ele>846.899003</ele>
        <time>2021-11-08T21:48:11.989Z</time>
      </trkpt>
      <trkpt lat="47.626401" lon="7.949689">
        <ele>848.175308</ele>
        <time>2021-11-08T21:48:22.367Z</time>
      </trkpt>
      <trkpt lat="47.626683" lon="7.949637">
        <ele>849.310493</ele>
        <time>2021-11-08T21:48:31.077Z</time>
      </trkpt>
      <trkpt lat="47.626752" lon="7.949657">
        <ele>849.591341</ele>
        <time>2021-11-08T21:48:33.463Z</time>
      </trkpt>
      <trkpt lat="47.626859" lon="7.949688">
        <ele>850.026851</ele>
        <time>2021-11-08T21:48:36.038Z</time>
      </trkpt>
      <trkpt lat="47.627110" lon="7.949777">
        <ele>851.057766</ele>
        <time>2021-11-08T21:48:42.797Z</time>
      </trkpt>
      <trkpt lat="47.627208" lon="7.949813">
        <ele>851.446816</ele>
        <time>2021-11-08T21:48:44.852Z</time>
      </trkpt>
      <trkpt lat="47.627309" lon="7.949824">
        <ele>851.834889</ele>
        <time>2021-11-08T21:48:48.231Z</time>
      </trkpt>
      <trkpt lat="47.627472" lon="7.949828">
        <ele>852.459591</ele>
        <time>2021-11-08T21:48:51.801Z</time>
      </trkpt>
      <trkpt lat="47.627702" lon="7.949801">
        <ele>853.343704</ele>
        <time>2021-11-08T21:48:58.557Z</time>
      </trkpt>
      <trkpt lat="47.627819" lon="7.949787">
        <ele>853.793503</ele>
        <time>2021-11-08T21:49:01.132Z</time>
      </trkpt>
      <trkpt lat="47.628018" lon="7.949775">
        <ele>854.556700</ele>
        <time>2021-11-08T21:49:07.111Z</time>
      </trkpt>
      <trkpt lat="47.628154" lon="7.949804">
        <ele>855.083206</ele>
        <time>2021-11-08T21:49:10.895Z</time>
      </trkpt>
      <trkpt lat="47.628255" lon="7.949609">
        <ele>855.718344</ele>
        <time>2021-11-08T21:49:16.191Z</time>
      </trkpt>
      <trkpt lat="47.628855" lon="7.948997">
        <ele>858.553336</ele>
        <time>2021-11-08T21:49:41.908Z</time>
      </trkpt>
      <trkpt lat="47.628909" lon="7.948921">
        <ele>858.863940</ele>
        <time>2021-11-08T21:49:44.716Z</time>
      </trkpt>
      <trkpt lat="47.629018" lon="7.948689">
        <ele>859.659351</ele>
        <time>2021-11-08T21:49:51.030Z</time>
      </trkpt>
      <trkpt lat="47.629112" lon="7.948574">
        <ele>860.167781</ele>
        <time>2021-11-08T21:49:55.056Z</time>
      </trkpt>
      <trkpt lat="47.629252" lon="7.948471">
        <ele>860.819914</ele>
        <time>2021-11-08T21:49:59.735Z</time>
      </trkpt>
      <trkpt lat="47.629285" lon="7.948439">
        <ele>860.984432</ele>
        <time>2021-11-08T21:50:00.923Z</time>
      </trkpt>
      <trkpt lat="47.629363" lon="7.948362">
        <ele>861.375404</ele>
        <time>2021-11-08T21:50:04.356Z</time>
      </trkpt>
      <trkpt lat="47.629991" lon="7.947744">
        <ele>864.520191</ele>
        <time>2021-11-08T21:50:27.610Z</time>
      </trkpt>
      <trkpt lat="47.630672" lon="7.947236">
        <ele>866.346606</ele>
        <time>2021-11-08T21:50:48.925Z</time>
      </trkpt>
      <trkpt lat="47.630971" lon="7.947084">
        <ele>866.850291</ele>
        <time>2021-11-08T21:50:55.879Z</time>
      </trkpt>
      <trkpt lat="47.631252" lon="7.946953">
        <ele>867.319684</ele>
        <time>2021-11-08T21:51:01.854Z</time>
      </trkpt>
      <trkpt lat="47.632015" lon="7.946574">
        <ele>868.042977</ele>
        <time>2021-11-08T21:51:15.758Z</time>
      </trkpt>
      <trkpt lat="47.632250" lon="7.946421">
        <ele>867.439216</ele>
        <time>2021-11-08T21:51:19.586Z</time>
      </trkpt>
      <trkpt lat="47.633498" lon="7.945219">
        <ele>863.881116</ele>
        <time>2021-11-08T21:51:34.652Z</time>
      </trkpt>
      <trkpt lat="47.633591" lon="7.945179">
        <ele>863.589431</ele>
        <time>2021-11-08T21:51:35.526Z</time>
      </trkpt>
      <trkpt lat="47.633664" lon="7.945157">
        <ele>863.365035</ele>
        <time>2021-11-08T21:51:36.303Z</time>
      </trkpt>
      <trkpt lat="47.633720" lon="7.945173">
        <ele>863.193241</ele>
        <time>2021-11-08T21:51:36.953Z</time>
      </trkpt>
      <trkpt lat="47.633818" lon="7.945221">
        <ele>862.882359</ele>
        <time>2021-11-08T21:51:38.074Z</time>
      </trkpt>
      <trkpt lat="47.633902" lon="7.945296">
        <ele>862.587045</ele>
        <time>2021-11-08T21:51:38.959Z</time>
      </trkpt>
      <trkpt lat="47.633987" lon="7.945419">
        <ele>862.229403</ele>
        <time>2021-11-08T21:51:40.196Z</time>
      </trkpt>
      <trkpt lat="47.634304" lon="7.946352">
        <ele>860.108328</ele>
        <time>2021-11-08T21:51:47.258Z</time>
      </trkpt>
      <trkpt lat="47.634437" lon="7.946594">
        <ele>859.474414</ele>
        <time>2021-11-08T21:51:49.504Z</time>
      </trkpt>
      <trkpt lat="47.634598" lon="7.946753">
        <ele>858.891834</ele>
        <time>2021-11-08T21:51:51.506Z</time>
      </trkpt>
      <trkpt lat="47.634741" lon="7.946805">
        <ele>858.716599</ele>
        <time>2021-11-08T21:51:53.172Z</time>
      </trkpt>
      <trkpt lat="47.634967" lon="7.946762">
        <ele>858.692759</ele>
        <time>2021-11-08T21:51:55.784Z</time>
      </trkpt>
      <trkpt lat="47.635305" lon="7.946397">
        <ele>858.649021</ele>
        <time>2021-11-08T21:52:02.641Z</time>
      </trkpt>
      <trkpt lat="47.635520" lon="7.945990">
        <ele>858.612559</ele>
        <time>2021-11-08T21:52:08.695Z</time>
      </trkpt>
      <trkpt lat="47.636029" lon="7.944437">
        <ele>858.807849</ele>
        <time>2021-11-08T21:52:27.966Z</time>
      </trkpt>
      <trkpt lat="47.636224" lon="7.944307">
        <ele>858.935538</ele>
        <time>2021-11-08T21:52:31.869Z</time>
      </trkpt>
      <trkpt lat="47.636341" lon="7.944314">
        <ele>859.005481</ele>
        <time>2021-11-08T21:52:34.425Z</time>
      </trkpt>
      <trkpt lat="47.636440" lon="7.944352">
        <ele>859.066562</ele>
        <time>2021-11-08T21:52:36.055Z</time>
      </trkpt>
      <trkpt lat="47.636517" lon="7.944381">
        <ele>859.114013</ele>
        <time>2021-11-08T21:52:37.580Z</time>
      </trkpt>
      <trkpt lat="47.636926" lon="7.944520">
        <ele>859.364639</ele>
        <time>2021-11-08T21:52:45.460Z</time>
      </trkpt>
      <trkpt lat="47.637316" lon="7.944402">
        <ele>859.602385</ele>
        <time>2021-11-08T21:52:51.705Z</time>
      </trkpt>
      <trkpt lat="47.637442" lon="7.944256">
        <ele>859.668423</ele>
        <time>2021-11-08T21:52:53.944Z</time>
      </trkpt>
      <trkpt lat="47.637571" lon="7.944037">
        <ele>859.745154</ele>
        <time>2021-11-08T21:52:56.866Z</time>
      </trkpt>
      <trkpt lat="47.637613" lon="7.943952">
        <ele>859.772958</ele>
        <time>2021-11-08T21:52:58.038Z</time>
      </trkpt>
      <trkpt lat="47.637910" lon="7.943332">
        <ele>859.973622</ele>
        <time>2021-11-08T21:53:06.042Z</time>
      </trkpt>
      <trkpt lat="47.638082" lon="7.942969">
        <ele>860.090680</ele>
        <time>2021-11-08T21:53:11.361Z</time>
      </trkpt>
      <trkpt lat="47.638178" lon="7.942718">
        <ele>860.166812</ele>
        <time>2021-11-08T21:53:15.194Z</time>
      </trkpt>
      <trkpt lat="47.638425" lon="7.941930">
        <ele>860.034438</ele>
        <time>2021-11-08T21:53:25.315Z</time>
      </trkpt>
      <trkpt lat="47.638557" lon="7.941269">
        <ele>859.389218</ele>
        <time>2021-11-08T21:53:31.616Z</time>
      </trkpt>
      <trkpt lat="47.638649" lon="7.940702">
        <ele>858.843400</ele>
        <time>2021-11-08T21:53:36.739Z</time>
      </trkpt>
      <trkpt lat="47.638720" lon="7.939846">
        <ele>858.036234</ele>
        <time>2021-11-08T21:53:43.060Z</time>
      </trkpt>
      <trkpt lat="47.638539" lon="7.938594">
        <ele>854.003108</ele>
        <time>2021-11-08T21:53:51.265Z</time>
      </trkpt>
      <trkpt lat="47.638716" lon="7.938236">
        <ele>852.386048</ele>
        <time>2021-11-08T21:53:54.020Z</time>
      </trkpt>
      <trkpt lat="47.638865" lon="7.938060">
        <ele>851.356815</ele>
        <time>2021-11-08T21:53:55.777Z</time>
      </trkpt>
      <trkpt lat="47.638997" lon="7.937892">
        <ele>850.416986</ele>
        <time>2021-11-08T21:53:57.357Z</time>
      </trkpt>
      <trkpt lat="47.639124" lon="7.937579">
        <ele>849.086421</ele>
        <time>2021-11-08T21:53:59.613Z</time>
      </trkpt>
      <trkpt lat="47.639320" lon="7.936602">
        <ele>844.306939</ele>
        <time>2021-11-08T21:54:05.836Z</time>
      </trkpt>
      <trkpt lat="47.639308" lon="7.936143">
        <ele>841.978547</ele>
        <time>2021-11-08T21:54:08.591Z</time>
      </trkpt>
      <trkpt lat="47.639093" lon="7.935378">
        <ele>837.777000</ele>
        <time>2021-11-08T21:54:13.516Z</time>
      </trkpt>
      <trkpt lat="47.638983" lon="7.935124">
        <ele>836.246479</ele>
        <time>2021-11-08T21:54:15.357Z</time>
      </trkpt>
      <trkpt lat="47.638891" lon="7.934970">
        <ele>835.203220</ele>
        <time>2021-11-08T21:54:16.550Z</time>
      </trkpt>
      <trkpt lat="47.638822" lon="7.934800">
        <ele>834.105882</ele>
        <time>2021-11-08T21:54:17.730Z</time>
      </trkpt>
      <trkpt lat="47.638794" lon="7.934551">
        <ele>832.509306</ele>
        <time>2021-11-08T21:54:19.244Z</time>
      </trkpt>
      <trkpt lat="47.638943" lon="7.934020">
        <ele>828.871434</ele>
        <time>2021-11-08T21:54:22.624Z</time>
      </trkpt>
      <trkpt lat="47.639130" lon="7.933575">
        <ele>825.554570</ele>
        <time>2021-11-08T21:54:25.690Z</time>
      </trkpt>
      <trkpt lat="47.639165" lon="7.933477">
        <ele>824.853092</ele>
        <time>2021-11-08T21:54:26.310Z</time>
      </trkpt>
      <trkpt lat="47.639206" lon="7.933065">
        <ele>822.219158</ele>
        <time>2021-11-08T21:54:28.777Z</time>
      </trkpt>
      <trkpt lat="47.639161" lon="7.932537">
        <ele>818.853247</ele>
        <time>2021-11-08T21:54:31.876Z</time>
      </trkpt>
      <trkpt lat="47.639059" lon="7.932072">
        <ele>815.726488</ele>
        <time>2021-11-08T21:54:34.691Z</time>
      </trkpt>
      <trkpt lat="47.638875" lon="7.931601">
        <ele>812.222377</ele>
        <time>2021-11-08T21:54:37.813Z</time>
      </trkpt>
      <trkpt lat="47.638612" lon="7.931348">
        <ele>809.228596</ele>
        <time>2021-11-08T21:54:40.502Z</time>
      </trkpt>
      <trkpt lat="47.638146" lon="7.931131">
        <ele>804.563348</ele>
        <time>2021-11-08T21:54:44.786Z</time>
      </trkpt>
      <trkpt lat="47.637860" lon="7.930973">
        <ele>801.648312</ele>
        <time>2021-11-08T21:54:47.452Z</time>
      </trkpt>
      <trkpt lat="47.637092" lon="7.930719">
        <ele>794.319685</ele>
        <time>2021-11-08T21:54:54.320Z</time>
      </trkpt>
      <trkpt lat="47.636603" lon="7.930541">
        <ele>789.651690</ele>
        <time>2021-11-08T21:54:58.679Z</time>
      </trkpt>
      <trkpt lat="47.636022" lon="7.930655">
        <ele>784.218252</ele>
        <time>2021-11-08T21:55:03.755Z</time>
      </trkpt>
      <trkpt lat="47.635717" lon="7.930591">
        <ele>780.867285</ele>
        <time>2021-11-08T21:55:06.424Z</time>
      </trkpt>
      <trkpt lat="47.635488" lon="7.930306">
        <ele>777.539787</ele>
        <time>2021-11-08T21:55:09.000Z</time>
      </trkpt>
      <trkpt lat="47.635221" lon="7.929664">
        <ele>771.879773</ele>
        <time>2021-11-08T21:55:13.329Z</time>
      </trkpt>
      <trkpt lat="47.634762" lon="7.929013">
        <ele>764.810836</ele>
        <time>2021-11-08T21:55:18.698Z</time>
      </trkpt>
      <trkpt lat="47.634257" lon="7.928526">
        <ele>757.343649</ele>
        <time>2021-11-08T21:55:23.766Z</time>
      </trkpt>
      <trkpt lat="47.633595" lon="7.928236">
        <ele>748.630959</ele>
        <time>2021-11-08T21:55:29.564Z</time>
      </trkpt>
      <trkpt lat="47.632437" lon="7.928120">
        <ele>734.536964</ele>
        <time>2021-11-08T21:55:39.351Z</time>
      </trkpt>
      <trkpt lat="47.630399" lon="7.928619">
        <ele>710.059069</ele>
        <time>2021-11-08T21:55:56.924Z</time>
      </trkpt>
      <trkpt lat="47.629245" lon="7.928563">
        <ele>696.212353</ele>
        <time>2021-11-08T21:56:06.626Z</time>
      </trkpt>
      <trkpt lat="47.628543" lon="7.928608">
        <ele>688.429738</ele>
        <time>2021-11-08T21:56:12.556Z</time>
      </trkpt>
      <trkpt lat="47.628161" lon="7.928726">
        <ele>684.107989</ele>
        <time>2021-11-08T21:56:15.906Z</time>
      </trkpt>
      <trkpt lat="47.628161" lon="7.928726">
        <ele>684.107989</ele>
        <time>2021-11-08T21:56:16.450Z</time>
      </trkpt>
      <trkpt lat="47.628161" lon="7.928726">
        <ele>684.107989</ele>
        <time>2021-11-08T21:56:16.544Z</time>
      </trkpt>
      <trkpt lat="47.627834" lon="7.928864">
        <ele>680.342490</ele>
        <time>2021-11-08T21:56:19.510Z</time>
      </trkpt>
      <trkpt lat="47.626987" lon="7.929783">
        <ele>670.267853</ele>
        <time>2021-11-08T21:56:28.588Z</time>
      </trkpt>
      <trkpt lat="47.626886" lon="7.929825">
        <ele>669.292584</ele>
        <time>2021-11-08T21:56:29.484Z</time>
      </trkpt>
      <trkpt lat="47.626513" lon="7.929764">
        <ele>665.803475</ele>
        <time>2021-11-08T21:56:32.780Z</time>
      </trkpt>
      <trkpt lat="47.626414" lon="7.929713">
        <ele>664.829084</ele>
        <time>2021-11-08T21:56:33.733Z</time>
      </trkpt>
      <trkpt lat="47.626033" lon="7.929516">
        <ele>661.033775</ele>
        <time>2021-11-08T21:56:37.244Z</time>
      </trkpt>
      <trkpt lat="47.625522" lon="7.929345">
        <ele>655.779966</ele>
        <time>2021-11-08T21:56:41.738Z</time>
      </trkpt>
      <trkpt lat="47.624693" lon="7.929271">
        <ele>647.450470</ele>
        <time>2021-11-08T21:56:48.839Z</time>
      </trkpt>
      <trkpt lat="47.624516" lon="7.929342">
        <ele>645.611513</ele>
        <time>2021-11-08T21:56:50.415Z</time>
      </trkpt>
      <trkpt lat="47.624148" lon="7.929878">
        <ele>640.543344</ele>
        <time>2021-11-08T21:56:54.877Z</time>
      </trkpt>
      <trkpt lat="47.623898" lon="7.929981">
        <ele>638.026752</ele>
        <time>2021-11-08T21:56:57.201Z</time>
      </trkpt>
      <trkpt lat="47.623661" lon="7.929775">
        <ele>635.362579</ele>
        <time>2021-11-08T21:56:59.566Z</time>
      </trkpt>
      <trkpt lat="47.623515" lon="7.929516">
        <ele>633.155274</ele>
        <time>2021-11-08T21:57:01.522Z</time>
      </trkpt>
      <trkpt lat="47.623243" lon="7.929290">
        <ele>630.131521</ele>
        <time>2021-11-08T21:57:04.237Z</time>
      </trkpt>
      <trkpt lat="47.623184" lon="7.929263">
        <ele>629.532655</ele>
        <time>2021-11-08T21:57:04.764Z</time>
      </trkpt>
      <trkpt lat="47.623083" lon="7.929217">
        <ele>628.507902</ele>
        <time>2021-11-08T21:57:05.707Z</time>
      </trkpt>
      <trkpt lat="47.622989" lon="7.929175">
        <ele>627.555716</ele>
        <time>2021-11-08T21:57:06.580Z</time>
      </trkpt>
      <trkpt lat="47.622990" lon="7.929067">
        <ele>626.849607</ele>
        <time>2021-11-08T21:57:07.181Z</time>
      </trkpt>
      <trkpt lat="47.622913" lon="7.928884">
        <ele>625.318031</ele>
        <time>2021-11-08T21:57:08.438Z</time>
      </trkpt>
      <trkpt lat="47.621861" lon="7.928723">
        <ele>613.310598</ele>
        <time>2021-11-08T21:57:17.399Z</time>
      </trkpt>
      <trkpt lat="47.620569" lon="7.928919">
        <ele>599.469003</ele>
        <time>2021-11-08T21:57:28.433Z</time>
      </trkpt>
      <trkpt lat="47.619928" lon="7.929124">
        <ele>592.963423</ele>
        <time>2021-11-08T21:57:34.099Z</time>
      </trkpt>
      <trkpt lat="47.619604" lon="7.929315">
        <ele>589.504478</ele>
        <time>2021-11-08T21:57:37.137Z</time>
      </trkpt>
      <trkpt lat="47.619329" lon="7.929527">
        <ele>586.822748</ele>
        <time>2021-11-08T21:57:39.865Z</time>
      </trkpt>
      <trkpt lat="47.618921" lon="7.930073">
        <ele>582.844250</ele>
        <time>2021-11-08T21:57:44.758Z</time>
      </trkpt>
      <trkpt lat="47.618761" lon="7.930033">
        <ele>581.669411</ele>
        <time>2021-11-08T21:57:46.264Z</time>
      </trkpt>
      <trkpt lat="47.618733" lon="7.929945">
        <ele>581.194469</ele>
        <time>2021-11-08T21:57:46.854Z</time>
      </trkpt>
      <trkpt lat="47.618734" lon="7.929873">
        <ele>580.842988</ele>
        <time>2021-11-08T21:57:47.264Z</time>
      </trkpt>
      <trkpt lat="47.618861" lon="7.929607">
        <ele>579.252061</ele>
        <time>2021-11-08T21:57:49.335Z</time>
      </trkpt>
      <trkpt lat="47.619053" lon="7.929381">
        <ele>577.477426</ele>
        <time>2021-11-08T21:57:51.564Z</time>
      </trkpt>
      <trkpt lat="47.620384" lon="7.928242">
        <ele>564.232037</ele>
        <time>2021-11-08T21:58:05.237Z</time>
      </trkpt>
      <trkpt lat="47.620796" lon="7.927816">
        <ele>559.690030</ele>
        <time>2021-11-08T21:58:09.510Z</time>
      </trkpt>
      <trkpt lat="47.620873" lon="7.927631">
        <ele>558.275789</ele>
        <time>2021-11-08T21:58:10.750Z</time>
      </trkpt>
      <trkpt lat="47.620930" lon="7.927423">
        <ele>556.375687</ele>
        <time>2021-11-08T21:58:12.012Z</time>
      </trkpt>
      <trkpt lat="47.620993" lon="7.927078">
        <ele>553.350903</ele>
        <time>2021-11-08T21:58:14.048Z</time>
      </trkpt>
      <trkpt lat="47.621010" lon="7.926916">
        <ele>551.963476</ele>
        <time>2021-11-08T21:58:14.977Z</time>
      </trkpt>
      <trkpt lat="47.621008" lon="7.926716">
        <ele>550.270806</ele>
        <time>2021-11-08T21:58:16.114Z</time>
      </trkpt>
      <trkpt lat="47.621092" lon="7.926230">
        <ele>546.025009</ele>
        <time>2021-11-08T21:58:18.957Z</time>
      </trkpt>
      <trkpt lat="47.621290" lon="7.925709">
        <ele>540.963584</ele>
        <time>2021-11-08T21:58:22.342Z</time>
      </trkpt>
      <trkpt lat="47.621339" lon="7.925596">
        <ele>539.826539</ele>
        <time>2021-11-08T21:58:23.093Z</time>
      </trkpt>
      <trkpt lat="47.621723" lon="7.924936">
        <ele>532.960669</ele>
        <time>2021-11-08T21:58:28.034Z</time>
      </trkpt>
      <trkpt lat="47.623053" lon="7.924259">
        <ele>517.845314</ele>
        <time>2021-11-08T21:58:40.137Z</time>
      </trkpt>
      <trkpt lat="47.623206" lon="7.923969">
        <ele>515.085143</ele>
        <time>2021-11-08T21:58:42.302Z</time>
      </trkpt>
      <trkpt lat="47.623246" lon="7.923768">
        <ele>513.473653</ele>
        <time>2021-11-08T21:58:43.498Z</time>
      </trkpt>
      <trkpt lat="47.623227" lon="7.922954">
        <ele>507.210894</ele>
        <time>2021-11-08T21:58:48.167Z</time>
      </trkpt>
      <trkpt lat="47.623251" lon="7.922713">
        <ele>505.337679</ele>
        <time>2021-11-08T21:58:49.545Z</time>
      </trkpt>
      <trkpt lat="47.623298" lon="7.922501">
        <ele>503.621651</ele>
        <time>2021-11-08T21:58:50.828Z</time>
      </trkpt>
      <trkpt lat="47.623564" lon="7.921962">
        <ele>498.484984</ele>
        <time>2021-11-08T21:58:54.636Z</time>
      </trkpt>
      <trkpt lat="47.623626" lon="7.921633">
        <ele>495.877642</ele>
        <time>2021-11-08T21:58:56.595Z</time>
      </trkpt>
      <trkpt lat="47.623611" lon="7.921528">
        <ele>495.105993</ele>
        <time>2021-11-08T21:58:57.198Z</time>
      </trkpt>
      <trkpt lat="47.623588" lon="7.921368">
        <ele>493.929830</ele>
        <time>2021-11-08T21:58:58.132Z</time>
      </trkpt>
      <trkpt lat="47.623561" lon="7.920975">
        <ele>491.089784</ele>
        <time>2021-11-08T21:59:00.387Z</time>
      </trkpt>
      <trkpt lat="47.623430" lon="7.919875">
        <ele>483.059012</ele>
        <time>2021-11-08T21:59:06.854Z</time>
      </trkpt>
      <trkpt lat="47.623255" lon="7.919315">
        <ele>478.621282</ele>
        <time>2021-11-08T21:59:10.428Z</time>
      </trkpt>
      <trkpt lat="47.623010" lon="7.918947">
        <ele>475.089231</ele>
        <time>2021-11-08T21:59:13.410Z</time>
      </trkpt>
      <trkpt lat="47.622446" lon="7.918652">
        <ele>469.286059</ele>
        <time>2021-11-08T21:59:18.632Z</time>
      </trkpt>
      <trkpt lat="47.622366" lon="7.918470">
        <ele>467.864902</ele>
        <time>2021-11-08T21:59:19.886Z</time>
      </trkpt>
      <trkpt lat="47.622381" lon="7.918164">
        <ele>465.858195</ele>
        <time>2021-11-08T21:59:21.696Z</time>
      </trkpt>
      <trkpt lat="47.622424" lon="7.918069">
        <ele>465.109732</ele>
        <time>2021-11-08T21:59:22.352Z</time>
      </trkpt>
      <trkpt lat="47.622587" lon="7.917873">
        <ele>463.073728</ele>
        <time>2021-11-08T21:59:24.166Z</time>
      </trkpt>
      <trkpt lat="47.622656" lon="7.917625">
        <ele>461.318905</ele>
        <time>2021-11-08T21:59:25.729Z</time>
      </trkpt>
      <trkpt lat="47.622677" lon="7.917170">
        <ele>458.298271</ele>
        <time>2021-11-08T21:59:28.385Z</time>
      </trkpt>
      <trkpt lat="47.622647" lon="7.916647">
        <ele>454.755598</ele>
        <time>2021-11-08T21:59:31.421Z</time>
      </trkpt>
      <trkpt lat="47.622576" lon="7.916379">
        <ele>452.812058</ele>
        <time>2021-11-08T21:59:33.077Z</time>
      </trkpt>
      <trkpt lat="47.622393" lon="7.916077">
        <ele>450.071106</ele>
        <time>2021-11-08T21:59:35.412Z</time>
      </trkpt>
      <trkpt lat="47.621809" lon="7.915582">
        <ele>443.336022</ele>
        <time>2021-11-08T21:59:41.225Z</time>
      </trkpt>
      <trkpt lat="47.621530" lon="7.915222">
        <ele>439.629888</ele>
        <time>2021-11-08T21:59:44.431Z</time>
      </trkpt>
      <trkpt lat="47.621037" lon="7.914355">
        <ele>431.959478</ele>
        <time>2021-11-08T21:59:51.061Z</time>
      </trkpt>
      <trkpt lat="47.620869" lon="7.913635">
        <ele>426.807217</ele>
        <time>2021-11-08T21:59:55.424Z</time>
      </trkpt>
      <trkpt lat="47.620841" lon="7.913331">
        <ele>424.732401</ele>
        <time>2021-11-08T21:59:57.202Z</time>
      </trkpt>
      <trkpt lat="47.620822" lon="7.912670">
        <ele>420.608389</ele>
        <time>2021-11-08T22:00:01.031Z</time>
      </trkpt>
      <trkpt lat="47.620858" lon="7.912289">
        <ele>418.290986</ele>
        <time>2021-11-08T22:00:03.291Z</time>
      </trkpt>
      <trkpt lat="47.620910" lon="7.911951">
        <ele>416.202677</ele>
        <time>2021-11-08T22:00:05.306Z</time>
      </trkpt>
      <trkpt lat="47.620953" lon="7.911653">
        <ele>414.366998</ele>
        <time>2021-11-08T22:00:07.096Z</time>
      </trkpt>
      <trkpt lat="47.620946" lon="7.911321">
        <ele>412.366214</ele>
        <time>2021-11-08T22:00:09.066Z</time>
      </trkpt>
      <trkpt lat="47.620846" lon="7.911023">
        <ele>410.361053</ele>
        <time>2021-11-08T22:00:11.038Z</time>
      </trkpt>
      <trkpt lat="47.620625" lon="7.910808">
        <ele>407.999337</ele>
        <time>2021-11-08T22:00:13.367Z</time>
      </trkpt>
      <trkpt lat="47.620181" lon="7.910694">
        <ele>405.203462</ele>
        <time>2021-11-08T22:00:17.374Z</time>
      </trkpt>
      <trkpt lat="47.620162" lon="7.910587">
        <ele>404.777175</ele>
        <time>2021-11-08T22:00:18.042Z</time>
      </trkpt>
      <trkpt lat="47.620245" lon="7.910440">
        <ele>404.038411</ele>
        <time>2021-11-08T22:00:19.214Z</time>
      </trkpt>
      <trkpt lat="47.620712" lon="7.910483">
        <ele>401.364095</ele>
        <time>2021-11-08T22:00:23.668Z</time>
      </trkpt>
      <trkpt lat="47.621308" lon="7.910162">
        <ele>397.740080</ele>
        <time>2021-11-08T22:00:29.723Z</time>
      </trkpt>
      <trkpt lat="47.621461" lon="7.910146">
        <ele>396.900394</ele>
        <time>2021-11-08T22:00:31.134Z</time>
      </trkpt>
      <trkpt lat="47.622368" lon="7.910396">
        <ele>392.426456</ele>
        <time>2021-11-08T22:00:39.833Z</time>
      </trkpt>
      <trkpt lat="47.622666" lon="7.910254">
        <ele>390.908539</ele>
        <time>2021-11-08T22:00:42.847Z</time>
      </trkpt>
      <trkpt lat="47.622755" lon="7.910176">
        <ele>390.407237</ele>
        <time>2021-11-08T22:00:43.798Z</time>
      </trkpt>
      <trkpt lat="47.622850" lon="7.910055">
        <ele>389.800033</ele>
        <time>2021-11-08T22:00:45.012Z</time>
      </trkpt>
      <trkpt lat="47.623414" lon="7.909173">
        <ele>385.520103</ele>
        <time>2021-11-08T22:00:52.856Z</time>
      </trkpt>
      <trkpt lat="47.623851" lon="7.909030">
        <ele>383.090414</ele>
        <time>2021-11-08T22:00:57.028Z</time>
      </trkpt>
      <trkpt lat="47.624367" lon="7.909092">
        <ele>380.279649</ele>
        <time>2021-11-08T22:01:01.946Z</time>
      </trkpt>
      <trkpt lat="47.624823" lon="7.909229">
        <ele>377.209562</ele>
        <time>2021-11-08T22:01:06.158Z</time>
      </trkpt>
      <trkpt lat="47.624962" lon="7.909272">
        <ele>375.954004</ele>
        <time>2021-11-08T22:01:07.389Z</time>
      </trkpt>
      <trkpt lat="47.625366" lon="7.909623">
        <ele>371.814183</ele>
        <time>2021-11-08T22:01:11.508Z</time>
      </trkpt>
      <trkpt lat="47.625586" lon="7.909712">
        <ele>369.797791</ele>
        <time>2021-11-08T22:01:13.495Z</time>
      </trkpt>
      <trkpt lat="47.625630" lon="7.909700">
        <ele>369.402197</ele>
        <time>2021-11-08T22:01:13.867Z</time>
      </trkpt>
      <trkpt lat="47.625660" lon="7.909693">
        <ele>369.133658</ele>
        <time>2021-11-08T22:01:14.123Z</time>
      </trkpt>
      <trkpt lat="47.625738" lon="7.909657">
        <ele>368.411334</ele>
        <time>2021-11-08T22:01:14.870Z</time>
      </trkpt>
      <trkpt lat="47.625820" lon="7.909530">
        <ele>367.363180</ele>
        <time>2021-11-08T22:01:15.906Z</time>
      </trkpt>
      <trkpt lat="47.625875" lon="7.909372">
        <ele>366.303372</ele>
        <time>2021-11-08T22:01:16.912Z</time>
      </trkpt>
      <trkpt lat="47.626074" lon="7.908682">
        <ele>362.006721</ele>
        <time>2021-11-08T22:01:21.281Z</time>
      </trkpt>
      <trkpt lat="47.626373" lon="7.908242">
        <ele>359.025394</ele>
        <time>2021-11-08T22:01:24.912Z</time>
      </trkpt>
      <trkpt lat="47.626436" lon="7.907974">
        <ele>357.671117</ele>
        <time>2021-11-08T22:01:26.540Z</time>
      </trkpt>
      <trkpt lat="47.626446" lon="7.907798">
        <ele>356.828379</ele>
        <time>2021-11-08T22:01:27.621Z</time>
      </trkpt>
      <trkpt lat="47.626442" lon="7.907543">
        <ele>355.611353</ele>
        <time>2021-11-08T22:01:29.110Z</time>
      </trkpt>
      <trkpt lat="47.626436" lon="7.907187">
        <ele>353.912219</ele>
        <time>2021-11-08T22:01:31.341Z</time>
      </trkpt>
      <trkpt lat="47.626436" lon="7.907061">
        <ele>353.311028</ele>
        <time>2021-11-08T22:01:32.164Z</time>
      </trkpt>
      <trkpt lat="47.626436" lon="7.906623">
        <ele>351.221173</ele>
        <time>2021-11-08T22:01:35.030Z</time>
      </trkpt>
      <trkpt lat="47.626439" lon="7.906299">
        <ele>349.969638</ele>
        <time>2021-11-08T22:01:37.184Z</time>
      </trkpt>
      <trkpt lat="47.626443" lon="7.905945">
        <ele>349.909064</ele>
        <time>2021-11-08T22:01:39.736Z</time>
      </trkpt>
      <trkpt lat="47.626460" lon="7.905124">
        <ele>349.768535</ele>
        <time>2021-11-08T22:01:46.642Z</time>
      </trkpt>
      <trkpt lat="47.626440" lon="7.905007">
        <ele>349.747884</ele>
        <time>2021-11-08T22:01:48.439Z</time>
      </trkpt>
      <trkpt lat="47.626399" lon="7.904961">
        <ele>349.734836</ele>
        <time>2021-11-08T22:01:49.239Z</time>
      </trkpt>
      <trkpt lat="47.626221" lon="7.904920">
        <ele>349.689108</ele>
        <time>2021-11-08T22:01:52.271Z</time>
      </trkpt>
      <trkpt lat="47.626086" lon="7.904879">
        <ele>349.654128</ele>
        <time>2021-11-08T22:01:55.458Z</time>
      </trkpt>
      <trkpt lat="47.625742" lon="7.904774">
        <ele>349.564973</ele>
        <time>2021-11-08T22:02:03.082Z</time>
      </trkpt>
      <trkpt lat="47.625516" lon="7.904701">
        <ele>349.558343</ele>
        <time>2021-11-08T22:02:07.715Z</time>
      </trkpt>
      <trkpt lat="47.625088" lon="7.904563">
        <ele>349.773583</ele>
        <time>2021-11-08T22:02:17.037Z</time>
      </trkpt>
      <trkpt lat="47.624956" lon="7.904522">
        <ele>349.839857</ele>
        <time>2021-11-08T22:02:19.793Z</time>
      </trkpt>
      <trkpt lat="47.624761" lon="7.904481">
        <ele>349.936642</ele>
        <time>2021-11-08T22:02:22.964Z</time>
      </trkpt>
      <trkpt lat="47.624565" lon="7.904455">
        <ele>350.033346</ele>
        <time>2021-11-08T22:02:26.024Z</time>
      </trkpt>
      <trkpt lat="47.624472" lon="7.904367">
        <ele>350.087552</ele>
        <time>2021-11-08T22:02:27.710Z</time>
      </trkpt>
      <trkpt lat="47.624451" lon="7.904332">
        <ele>350.103072</ele>
        <time>2021-11-08T22:02:28.231Z</time>
      </trkpt>
      <trkpt lat="47.624399" lon="7.904386">
        <ele>350.134264</ele>
        <time>2021-11-08T22:02:29.149Z</time>
      </trkpt>
      <trkpt lat="47.624263" lon="7.904484">
        <ele>350.208563</ele>
        <time>2021-11-08T22:02:31.370Z</time>
      </trkpt>
      <trkpt lat="47.624120" lon="7.904530">
        <ele>350.280470</ele>
        <time>2021-11-08T22:02:33.542Z</time>
      </trkpt>
      <trkpt lat="47.623650" lon="7.904642">
        <ele>350.169333</ele>
        <time>2021-11-08T22:02:39.821Z</time>
      </trkpt>
      <trkpt lat="47.622648" lon="7.904863">
        <ele>349.054193</ele>
        <time>2021-11-08T22:02:52.230Z</time>
      </trkpt>
      <trkpt lat="47.622424" lon="7.904919">
        <ele>348.804134</ele>
        <time>2021-11-08T22:02:54.838Z</time>
      </trkpt>
      <trkpt lat="47.622235" lon="7.904957">
        <ele>348.594178</ele>
        <time>2021-11-08T22:02:57.000Z</time>
      </trkpt>
      <trkpt lat="47.621248" lon="7.905159">
        <ele>346.678442</ele>
        <time>2021-11-08T22:03:08.111Z</time>
      </trkpt>
      <trkpt lat="47.621107" lon="7.905191">
        <ele>346.383232</ele>
        <time>2021-11-08T22:03:09.678Z</time>
      </trkpt>
      <trkpt lat="47.620699" lon="7.905223">
        <ele>345.537651</ele>
        <time>2021-11-08T22:03:14.105Z</time>
      </trkpt>
      <trkpt lat="47.620426" lon="7.905244">
        <ele>344.971888</ele>
        <time>2021-11-08T22:03:17.070Z</time>
      </trkpt>
      <trkpt lat="47.619447" lon="7.905300">
        <ele>342.030985</ele>
        <time>2021-11-08T22:03:27.198Z</time>
      </trkpt>
      <trkpt lat="47.619299" lon="7.905308">
        <ele>341.565544</ele>
        <time>2021-11-08T22:03:28.600Z</time>
      </trkpt>
      <trkpt lat="47.619155" lon="7.905319">
        <ele>341.112383</ele>
        <time>2021-11-08T22:03:30.180Z</time>
      </trkpt>
      <trkpt lat="47.618976" lon="7.905535">
        <ele>340.387228</ele>
        <time>2021-11-08T22:03:32.427Z</time>
      </trkpt>
      <trkpt lat="47.618920" lon="7.906208">
        <ele>338.950696</ele>
        <time>2021-11-08T22:03:37.127Z</time>
      </trkpt>
      <trkpt lat="47.618888" lon="7.906392">
        <ele>338.548091</ele>
        <time>2021-11-08T22:03:38.392Z</time>
      </trkpt>
      <trkpt lat="47.618867" lon="7.906514">
        <ele>338.281316</ele>
        <time>2021-11-08T22:03:39.178Z</time>
      </trkpt>
      <trkpt lat="47.618719" lon="7.906838">
        <ele>337.452084</ele>
        <time>2021-11-08T22:03:41.921Z</time>
      </trkpt>
      <trkpt lat="47.618579" lon="7.906988">
        <ele>336.909276</ele>
        <time>2021-11-08T22:03:43.586Z</time>
      </trkpt>
      <trkpt lat="47.618470" lon="7.907083">
        <ele>336.511920</ele>
        <time>2021-11-08T22:03:44.871Z</time>
      </trkpt>
      <trkpt lat="47.617957" lon="7.907285">
        <ele>334.843636</ele>
        <time>2021-11-08T22:03:50.193Z</time>
      </trkpt>
      <trkpt lat="47.617381" lon="7.907963">
        <ele>332.967018</ele>
        <time>2021-11-08T22:03:58.006Z</time>
      </trkpt>
      <trkpt lat="47.617238" lon="7.908130">
        <ele>332.681767</ele>
        <time>2021-11-08T22:03:59.990Z</time>
      </trkpt>
      <trkpt lat="47.617086" lon="7.908230">
        <ele>332.421150</ele>
        <time>2021-11-08T22:04:01.921Z</time>
      </trkpt>
      <trkpt lat="47.617046" lon="7.908239">
        <ele>332.357738</ele>
        <time>2021-11-08T22:04:02.371Z</time>
      </trkpt>
      <trkpt lat="47.616832" lon="7.908284">
        <ele>332.018967</ele>
        <time>2021-11-08T22:04:04.779Z</time>
      </trkpt>
      <trkpt lat="47.616604" lon="7.908203">
        <ele>331.651501</ele>
        <time>2021-11-08T22:04:07.399Z</time>
      </trkpt>
      <trkpt lat="47.616124" lon="7.907729">
        <ele>330.747718</ele>
        <time>2021-11-08T22:04:14.206Z</time>
      </trkpt>
      <trkpt lat="47.616009" lon="7.907686">
        <ele>330.584160</ele>
        <time>2021-11-08T22:04:15.682Z</time>
      </trkpt>
      <trkpt lat="47.615946" lon="7.907692">
        <ele>330.606387</ele>
        <time>2021-11-08T22:04:16.419Z</time>
      </trkpt>
      <trkpt lat="47.615821" lon="7.907747">
        <ele>330.652294</ele>
        <time>2021-11-08T22:04:18.481Z</time>
      </trkpt>
      <trkpt lat="47.615669" lon="7.907870">
        <ele>330.713256</ele>
        <time>2021-11-08T22:04:21.131Z</time>
      </trkpt>
      <trkpt lat="47.615460" lon="7.908111">
        <ele>330.806459</ele>
        <time>2021-11-08T22:04:25.532Z</time>
      </trkpt>
      <trkpt lat="47.615374" lon="7.908222">
        <ele>330.846596</ele>
        <time>2021-11-08T22:04:27.450Z</time>
      </trkpt>
      <trkpt lat="47.615246" lon="7.908385">
        <ele>330.905991</ele>
        <time>2021-11-08T22:04:30.474Z</time>
      </trkpt>
      <trkpt lat="47.615085" lon="7.908567">
        <ele>330.977260</ele>
        <time>2021-11-08T22:04:33.885Z</time>
      </trkpt>
      <trkpt lat="47.614876" lon="7.908760">
        <ele>331.063940</ele>
        <time>2021-11-08T22:04:38.203Z</time>
      </trkpt>
      <trkpt lat="47.614784" lon="7.908839">
        <ele>331.101368</ele>
        <time>2021-11-08T22:04:40.007Z</time>
      </trkpt>
      <trkpt lat="47.614412" lon="7.909095">
        <ele>331.327862</ele>
        <time>2021-11-08T22:04:47.278Z</time>
      </trkpt>
      <trkpt lat="47.614063" lon="7.909285">
        <ele>331.790425</ele>
        <time>2021-11-08T22:04:54.357Z</time>
      </trkpt>
      <trkpt lat="47.613934" lon="7.909339">
        <ele>331.957202</ele>
        <time>2021-11-08T22:04:56.934Z</time>
      </trkpt>
      <trkpt lat="47.613360" lon="7.909602">
        <ele>332.704694</ele>
        <time>2021-11-08T22:05:09.739Z</time>
      </trkpt>
      <trkpt lat="47.613280" lon="7.909624">
        <ele>332.805930</ele>
        <time>2021-11-08T22:05:11.427Z</time>
      </trkpt>
      <trkpt lat="47.612897" lon="7.909812">
        <ele>333.307890</ele>
        <time>2021-11-08T22:05:19.983Z</time>
      </trkpt>
      <trkpt lat="47.612216" lon="7.910134">
        <ele>333.804091</ele>
        <time>2021-11-08T22:05:32.994Z</time>
      </trkpt>
      <trkpt lat="47.612131" lon="7.910214">
        <ele>333.863330</ele>
        <time>2021-11-08T22:05:34.886Z</time>
      </trkpt>
      <trkpt lat="47.612082" lon="7.910269">
        <ele>333.899489</ele>
        <time>2021-11-08T22:05:35.965Z</time>
      </trkpt>
      <trkpt lat="47.612020" lon="7.910364">
        <ele>333.951944</ele>
        <time>2021-11-08T22:05:37.524Z</time>
      </trkpt>
      <trkpt lat="47.611986" lon="7.910466">
        <ele>333.997085</ele>
        <time>2021-11-08T22:05:38.794Z</time>
      </trkpt>
      <trkpt lat="47.611981" lon="7.910534">
        <ele>334.024222</ele>
        <time>2021-11-08T22:05:39.421Z</time>
      </trkpt>
      <trkpt lat="47.611988" lon="7.910610">
        <ele>334.054652</ele>
        <time>2021-11-08T22:05:40.380Z</time>
      </trkpt>
      <trkpt lat="47.611994" lon="7.910676">
        <ele>334.081072</ele>
        <time>2021-11-08T22:05:41.307Z</time>
      </trkpt>
      <trkpt lat="47.612005" lon="7.910790">
        <ele>334.126758</ele>
        <time>2021-11-08T22:05:42.571Z</time>
      </trkpt>
      <trkpt lat="47.612029" lon="7.910940">
        <ele>334.187918</ele>
        <time>2021-11-08T22:05:44.459Z</time>
      </trkpt>
      <trkpt lat="47.611260" lon="7.911383">
        <ele>334.296365</ele>
        <time>2021-11-08T22:05:57.589Z</time>
      </trkpt>
      <trkpt lat="47.610416" lon="7.911983">
        <ele>333.578127</ele>
        <time>2021-11-08T22:06:09.497Z</time>
      </trkpt>
      <trkpt lat="47.610100" lon="7.912169">
        <ele>333.317230</ele>
        <time>2021-11-08T22:06:13.398Z</time>
      </trkpt>
      <trkpt lat="47.609914" lon="7.912278">
        <ele>333.163756</ele>
        <time>2021-11-08T22:06:15.703Z</time>
      </trkpt>
      <trkpt lat="47.608679" lon="7.912703">
        <ele>331.374361</ele>
        <time>2021-11-08T22:06:30.424Z</time>
      </trkpt>
      <trkpt lat="47.607663" lon="7.913198">
        <ele>329.944605</ele>
        <time>2021-11-08T22:06:42.758Z</time>
      </trkpt>
      <trkpt lat="47.607292" lon="7.913435">
        <ele>329.450672</ele>
        <time>2021-11-08T22:06:47.456Z</time>
      </trkpt>
      <trkpt lat="47.606938" lon="7.913697">
        <ele>328.966915</ele>
        <time>2021-11-08T22:06:52.230Z</time>
      </trkpt>
      <trkpt lat="47.606706" lon="7.913869">
        <ele>328.649767</ele>
        <time>2021-11-08T22:06:55.418Z</time>
      </trkpt>
      <trkpt lat="47.606558" lon="7.913988">
        <ele>328.443916</ele>
        <time>2021-11-08T22:06:57.509Z</time>
      </trkpt>
      <trkpt lat="47.606450" lon="7.914067">
        <ele>328.294891</ele>
        <time>2021-11-08T22:06:59.009Z</time>
      </trkpt>
      <trkpt lat="47.606200" lon="7.914255">
        <ele>327.940533</ele>
        <time>2021-11-08T22:07:02.423Z</time>
      </trkpt>
      <trkpt lat="47.605929" lon="7.914457">
        <ele>327.557097</ele>
        <time>2021-11-08T22:07:06.106Z</time>
      </trkpt>
      <trkpt lat="47.605648" lon="7.914613">
        <ele>327.177780</ele>
        <time>2021-11-08T22:07:09.670Z</time>
      </trkpt>
      <trkpt lat="47.605408" lon="7.914750">
        <ele>326.852670</ele>
        <time>2021-11-08T22:07:12.621Z</time>
      </trkpt>
      <trkpt lat="47.605105" lon="7.914869">
        <ele>326.456408</ele>
        <time>2021-11-08T22:07:16.191Z</time>
      </trkpt>
      <trkpt lat="47.604722" lon="7.914915">
        <ele>325.949781</ele>
        <time>2021-11-08T22:07:20.642Z</time>
      </trkpt>
      <trkpt lat="47.604393" lon="7.914885">
        <ele>325.450068</ele>
        <time>2021-11-08T22:07:24.503Z</time>
      </trkpt>
      <trkpt lat="47.604062" lon="7.914772">
        <ele>324.935142</ele>
        <time>2021-11-08T22:07:28.446Z</time>
      </trkpt>
      <trkpt lat="47.603884" lon="7.914671">
        <ele>324.646215</ele>
        <time>2021-11-08T22:07:30.561Z</time>
      </trkpt>
      <trkpt lat="47.603615" lon="7.914449">
        <ele>324.179520</ele>
        <time>2021-11-08T22:07:34.034Z</time>
      </trkpt>
      <trkpt lat="47.603466" lon="7.914620">
        <ele>323.893901</ele>
        <time>2021-11-08T22:07:36.198Z</time>
      </trkpt>
      <trkpt lat="47.603302" lon="7.914722">
        <ele>323.624296</ele>
        <time>2021-11-08T22:07:38.180Z</time>
      </trkpt>
      <trkpt lat="47.602754" lon="7.914823">
        <ele>323.067898</ele>
        <time>2021-11-08T22:07:44.660Z</time>
      </trkpt>
      <trkpt lat="47.602131" lon="7.915025">
        <ele>322.584658</ele>
        <time>2021-11-08T22:07:52.542Z</time>
      </trkpt>
      <trkpt lat="47.601546" lon="7.915285">
        <ele>322.121886</ele>
        <time>2021-11-08T22:08:01.037Z</time>
      </trkpt>
      <trkpt lat="47.601054" lon="7.915633">
        <ele>321.814538</ele>
        <time>2021-11-08T22:08:08.815Z</time>
      </trkpt>
      <trkpt lat="47.600689" lon="7.915853">
        <ele>321.630034</ele>
        <time>2021-11-08T22:08:14.170Z</time>
      </trkpt>
      <trkpt lat="47.600545" lon="7.915898">
        <ele>321.561119</ele>
        <time>2021-11-08T22:08:16.215Z</time>
      </trkpt>
      <trkpt lat="47.600344" lon="7.915900">
        <ele>321.466991</ele>
        <time>2021-11-08T22:08:18.851Z</time>
      </trkpt>
      <trkpt lat="47.600078" lon="7.915859">
        <ele>321.341754</ele>
        <time>2021-11-08T22:08:22.388Z</time>
      </trkpt>
      <trkpt lat="47.599906" lon="7.915798">
        <ele>321.258937</ele>
        <time>2021-11-08T22:08:24.686Z</time>
      </trkpt>
      <trkpt lat="47.599374" lon="7.915625">
        <ele>320.803102</ele>
        <time>2021-11-08T22:08:31.534Z</time>
      </trkpt>
      <trkpt lat="47.599120" lon="7.915596">
        <ele>320.511925</ele>
        <time>2021-11-08T22:08:34.691Z</time>
      </trkpt>
      <trkpt lat="47.597656" lon="7.915778">
        <ele>318.874031</ele>
        <time>2021-11-08T22:08:51.799Z</time>
      </trkpt>
      <trkpt lat="47.597083" lon="7.915733">
        <ele>318.324531</ele>
        <time>2021-11-08T22:08:59.108Z</time>
      </trkpt>
      <trkpt lat="47.596850" lon="7.915674">
        <ele>318.098170</ele>
        <time>2021-11-08T22:09:02.150Z</time>
      </trkpt>
      <trkpt lat="47.596736" lon="7.915598">
        <ele>317.978474</ele>
        <time>2021-11-08T22:09:03.887Z</time>
      </trkpt>
      <trkpt lat="47.596349" lon="7.915301">
        <ele>317.561176</ele>
        <time>2021-11-08T22:09:09.380Z</time>
      </trkpt>
      <trkpt lat="47.596117" lon="7.915243">
        <ele>317.312004</ele>
        <time>2021-11-08T22:09:12.250Z</time>
      </trkpt>
      <trkpt lat="47.595949" lon="7.915202">
        <ele>317.015255</ele>
        <time>2021-11-08T22:09:14.203Z</time>
      </trkpt>
      <trkpt lat="47.595909" lon="7.915188">
        <ele>316.943623</ele>
        <time>2021-11-08T22:09:14.648Z</time>
      </trkpt>
      <trkpt lat="47.595861" lon="7.915155">
        <ele>316.851410</ele>
        <time>2021-11-08T22:09:15.269Z</time>
      </trkpt>
      <trkpt lat="47.595688" lon="7.915084">
        <ele>316.538551</ele>
        <time>2021-11-08T22:09:17.406Z</time>
      </trkpt>
      <trkpt lat="47.595476" lon="7.914889">
        <ele>316.103743</ele>
        <time>2021-11-08T22:09:20.204Z</time>
      </trkpt>
      <trkpt lat="47.595292" lon="7.914664">
        <ele>315.688072</ele>
        <time>2021-11-08T22:09:22.925Z</time>
      </trkpt>
      <trkpt lat="47.595031" lon="7.914316">
        <ele>315.076324</ele>
        <time>2021-11-08T22:09:26.873Z</time>
      </trkpt>
      <trkpt lat="47.594871" lon="7.914141">
        <ele>314.729807</ele>
        <time>2021-11-08T22:09:28.990Z</time>
      </trkpt>
      <trkpt lat="47.594719" lon="7.914022">
        <ele>314.430229</ele>
        <time>2021-11-08T22:09:30.862Z</time>
      </trkpt>
      <trkpt lat="47.594163" lon="7.913924">
        <ele>313.220551</ele>
        <time>2021-11-08T22:09:36.795Z</time>
      </trkpt>
      <trkpt lat="47.593654" lon="7.913672">
        <ele>312.003389</ele>
        <time>2021-11-08T22:09:42.487Z</time>
      </trkpt>
      <trkpt lat="47.593511" lon="7.913649">
        <ele>311.677135</ele>
        <time>2021-11-08T22:09:43.979Z</time>
      </trkpt>
      <trkpt lat="47.593189" lon="7.913725">
        <ele>310.937581</ele>
        <time>2021-11-08T22:09:47.460Z</time>
      </trkpt>
      <trkpt lat="47.592807" lon="7.913929">
        <ele>310.066059</ele>
        <time>2021-11-08T22:09:51.880Z</time>
      </trkpt>
      <trkpt lat="47.592672" lon="7.914009">
        <ele>309.858106</ele>
        <time>2021-11-08T22:09:53.803Z</time>
      </trkpt>
      <trkpt lat="47.592589" lon="7.914035">
        <ele>309.736763</ele>
        <time>2021-11-08T22:09:54.815Z</time>
      </trkpt>
      <trkpt lat="47.592496" lon="7.914014">
        <ele>309.602203</ele>
        <time>2021-11-08T22:09:55.721Z</time>
      </trkpt>
      <trkpt lat="47.591953" lon="7.913843">
        <ele>308.808176</ele>
        <time>2021-11-08T22:10:02.313Z</time>
      </trkpt>
      <trkpt lat="47.591858" lon="7.913783">
        <ele>308.660475</ele>
        <time>2021-11-08T22:10:03.554Z</time>
      </trkpt>
      <trkpt lat="47.591809" lon="7.913704">
        <ele>308.556936</ele>
        <time>2021-11-08T22:10:04.300Z</time>
      </trkpt>
      <trkpt lat="47.591746" lon="7.913330">
        <ele>308.185066</ele>
        <time>2021-11-08T22:10:07.850Z</time>
      </trkpt>
      <trkpt lat="47.591721" lon="7.913096">
        <ele>307.956519</ele>
        <time>2021-11-08T22:10:09.586Z</time>
      </trkpt>
      <trkpt lat="47.591714" lon="7.913064">
        <ele>307.924066</ele>
        <time>2021-11-08T22:10:09.880Z</time>
      </trkpt>
      <trkpt lat="47.591605" lon="7.912829">
        <ele>307.648928</ele>
        <time>2021-11-08T22:10:12.387Z</time>
      </trkpt>
      <trkpt lat="47.591443" lon="7.912678">
        <ele>307.463985</ele>
        <time>2021-11-08T22:10:14.520Z</time>
      </trkpt>
      <trkpt lat="47.591348" lon="7.912662">
        <ele>307.387192</ele>
        <time>2021-11-08T22:10:15.802Z</time>
      </trkpt>
      <trkpt lat="47.591044" lon="7.912710">
        <ele>307.141646</ele>
        <time>2021-11-08T22:10:19.418Z</time>
      </trkpt>
      <trkpt lat="47.590570" lon="7.912784">
        <ele>306.758835</ele>
        <time>2021-11-08T22:10:25.205Z</time>
      </trkpt>
      <trkpt lat="47.590231" lon="7.912830">
        <ele>306.485420</ele>
        <time>2021-11-08T22:10:29.484Z</time>
      </trkpt>
      <trkpt lat="47.589873" lon="7.912855">
        <ele>306.197564</ele>
        <time>2021-11-08T22:10:34.457Z</time>
      </trkpt>
      <trkpt lat="47.589326" lon="7.912720">
        <ele>305.994326</ele>
        <time>2021-11-08T22:10:42.421Z</time>
      </trkpt>
      <trkpt lat="47.588907" lon="7.912607">
        <ele>305.869758</ele>
        <time>2021-11-08T22:10:48.717Z</time>
      </trkpt>
      <trkpt lat="47.587897" lon="7.912517">
        <ele>305.345501</ele>
        <time>2021-11-08T22:11:03.281Z</time>
      </trkpt>
      <trkpt lat="47.587725" lon="7.912508">
        <ele>304.948106</ele>
        <time>2021-11-08T22:11:05.267Z</time>
      </trkpt>
      <trkpt lat="47.586917" lon="7.912301">
        <ele>303.054788</ele>
        <time>2021-11-08T22:11:14.270Z</time>
      </trkpt>
      <trkpt lat="47.586622" lon="7.912140">
        <ele>302.328951</ele>
        <time>2021-11-08T22:11:17.591Z</time>
      </trkpt>
      <trkpt lat="47.586433" lon="7.912047">
        <ele>301.869144</ele>
        <time>2021-11-08T22:11:19.580Z</time>
      </trkpt>
      <trkpt lat="47.586263" lon="7.911881">
        <ele>301.348098</ele>
        <time>2021-11-08T22:11:21.543Z</time>
      </trkpt>
      <trkpt lat="47.586028" lon="7.911561">
        <ele>299.924302</ele>
        <time>2021-11-08T22:11:24.622Z</time>
      </trkpt>
      <trkpt lat="47.585610" lon="7.910640">
        <ele>296.583226</ele>
        <time>2021-11-08T22:11:31.678Z</time>
      </trkpt>
      <trkpt lat="47.585430" lon="7.910346">
        <ele>295.388185</ele>
        <time>2021-11-08T22:11:34.184Z</time>
      </trkpt>
      <trkpt lat="47.585271" lon="7.910136">
        <ele>294.437989</ele>
        <time>2021-11-08T22:11:36.226Z</time>
      </trkpt>
      <trkpt lat="47.585157" lon="7.909965">
        <ele>293.714348</ele>
        <time>2021-11-08T22:11:37.822Z</time>
      </trkpt>
      <trkpt lat="47.585093" lon="7.909869">
        <ele>293.337194</ele>
        <time>2021-11-08T22:11:38.767Z</time>
      </trkpt>
      <trkpt lat="47.585066" lon="7.909809">
        <ele>293.172861</ele>
        <time>2021-11-08T22:11:39.252Z</time>
      </trkpt>
      <trkpt lat="47.585051" lon="7.909751">
        <ele>293.031334</ele>
        <time>2021-11-08T22:11:39.668Z</time>
      </trkpt>
      <trkpt lat="47.585045" lon="7.909674">
        <ele>292.854733</ele>
        <time>2021-11-08T22:11:40.155Z</time>
      </trkpt>
      <trkpt lat="47.585078" lon="7.909509">
        <ele>292.462623</ele>
        <time>2021-11-08T22:11:41.311Z</time>
      </trkpt>
      <trkpt lat="47.585337" lon="7.909031">
        <ele>291.065678</ele>
        <time>2021-11-08T22:11:45.417Z</time>
      </trkpt>
      <trkpt lat="47.585222" lon="7.908901">
        <ele>290.577184</ele>
        <time>2021-11-08T22:11:46.858Z</time>
      </trkpt>
      <trkpt lat="47.585149" lon="7.908804">
        <ele>290.246055</ele>
        <time>2021-11-08T22:11:47.800Z</time>
      </trkpt>
      <trkpt lat="47.585084" lon="7.908692">
        <ele>289.909420</ele>
        <time>2021-11-08T22:11:48.788Z</time>
      </trkpt>
      <trkpt lat="47.584719" lon="7.908091">
        <ele>288.066835</ele>
        <time>2021-11-08T22:11:54.374Z</time>
      </trkpt>
      <trkpt lat="47.583887" lon="7.907113">
        <ele>285.628689</ele>
        <time>2021-11-08T22:12:05.675Z</time>
      </trkpt>
      <trkpt lat="47.583711" lon="7.906911">
        <ele>285.177493</ele>
        <time>2021-11-08T22:12:08.095Z</time>
      </trkpt>
      <trkpt lat="47.583451" lon="7.906619">
        <ele>284.516281</ele>
        <time>2021-11-08T22:12:11.741Z</time>
      </trkpt>
      <trkpt lat="47.583245" lon="7.906443">
        <ele>284.034310</ele>
        <time>2021-11-08T22:12:14.483Z</time>
      </trkpt>
      <trkpt lat="47.583077" lon="7.906399">
        <ele>283.697467</ele>
        <time>2021-11-08T22:12:16.408Z</time>
      </trkpt>
      <trkpt lat="47.583078" lon="7.906333">
        <ele>283.653220</ele>
        <time>2021-11-08T22:12:17.562Z</time>
      </trkpt>
      <trkpt lat="47.582978" lon="7.906058">
        <ele>283.443828</ele>
        <time>2021-11-08T22:12:22.673Z</time>
      </trkpt>
      <trkpt lat="47.582444" lon="7.905407">
        <ele>282.756863</ele>
        <time>2021-11-08T22:12:39.727Z</time>
      </trkpt>
      <trkpt lat="47.582363" lon="7.904904">
        <ele>282.410257</ele>
        <time>2021-11-08T22:12:48.557Z</time>
      </trkpt>
      <trkpt lat="47.582239" lon="7.904634">
        <ele>282.191329</ele>
        <time>2021-11-08T22:12:54.096Z</time>
      </trkpt>
      <trkpt lat="47.582142" lon="7.904333">
        <ele>281.967744</ele>
        <time>2021-11-08T22:12:59.852Z</time>
      </trkpt>
      <trkpt lat="47.582160" lon="7.904319">
        <ele>281.947546</ele>
        <time>2021-11-08T22:13:00.367Z</time>
      </trkpt>
      <trkpt lat="47.582349" lon="7.904176">
        <ele>281.833322</ele>
        <time>2021-11-08T22:13:03.140Z</time>
      </trkpt>
      <trkpt lat="47.582359" lon="7.904169">
        <ele>281.828160</ele>
        <time>2021-11-08T22:13:03.414Z</time>
      </trkpt>
      <trkpt lat="47.582292" lon="7.903924">
        <ele>281.744932</ele>
        <time>2021-11-08T22:13:16.927Z</time>
      </trkpt>
      <trkpt lat="47.582281" lon="7.903499">
        <ele>281.611036</ele>
        <time>2021-11-08T22:13:38.953Z</time>
      </trkpt>
      <trkpt lat="47.582367" lon="7.903320">
        <ele>281.541850</ele>
        <time>2021-11-08T22:13:50.276Z</time>
      </trkpt>
      <trkpt lat="47.583690" lon="7.901743">
        <ele>281.521334</ele>
        <time>2021-11-08T22:16:03.427Z</time>
      </trkpt>
      <trkpt lat="47.583908" lon="7.901447">
        <ele>281.706148</ele>
        <time>2021-11-08T22:16:28.012Z</time>
      </trkpt>
      <trkpt lat="47.583958" lon="7.901371">
        <ele>281.750918</ele>
        <time>2021-11-08T22:16:30.837Z</time>
      </trkpt>
      <trkpt lat="47.584030" lon="7.901259">
        <ele>281.816163</ele>
        <time>2021-11-08T22:16:33.924Z</time>
      </trkpt>
      <trkpt lat="47.584184" lon="7.901068">
        <ele>281.941690</ele>
        <time>2021-11-08T22:16:38.160Z</time>
      </trkpt>
      <trkpt lat="47.585046" lon="7.900322">
        <ele>282.964672</ele>
        <time>2021-11-08T22:16:58.529Z</time>
      </trkpt>
      <trkpt lat="47.585046" lon="7.900322">
        <ele>282.964672</ele>
        <time>2021-11-08T22:16:58.632Z</time>
      </trkpt>
      <trkpt lat="47.585269" lon="7.900343">
        <ele>283.258433</ele>
        <time>2021-11-08T22:17:03.076Z</time>
      </trkpt>
      <trkpt lat="47.585995" lon="7.900985">
        <ele>284.369761</ele>
        <time>2021-11-08T22:17:20.379Z</time>
      </trkpt>
      <trkpt lat="47.586252" lon="7.900599">
        <ele>284.689960</ele>
        <time>2021-11-08T22:17:27.561Z</time>
      </trkpt>
      <trkpt lat="47.587652" lon="7.896710">
        <ele>285.796573</ele>
        <time>2021-11-08T22:18:15.954Z</time>
      </trkpt>
      <trkpt lat="47.587920" lon="7.895460">
        <ele>285.688380</ele>
        <time>2021-11-08T22:18:27.915Z</time>
      </trkpt>
      <trkpt lat="47.588181" lon="7.894619">
        <ele>285.464711</ele>
        <time>2021-11-08T22:18:36.186Z</time>
      </trkpt>
      <trkpt lat="47.588308" lon="7.893899">
        <ele>285.284905</ele>
        <time>2021-11-08T22:18:42.818Z</time>
      </trkpt>
      <trkpt lat="47.588446" lon="7.893562">
        <ele>285.277641</ele>
        <time>2021-11-08T22:18:46.394Z</time>
      </trkpt>
      <trkpt lat="47.588527" lon="7.892870">
        <ele>285.713627</ele>
        <time>2021-11-08T22:18:53.946Z</time>
      </trkpt>
      <trkpt lat="47.588665" lon="7.892418">
        <ele>286.021618</ele>
        <time>2021-11-08T22:18:59.745Z</time>
      </trkpt>
      <trkpt lat="47.588978" lon="7.891785">
        <ele>286.508846</ele>
        <time>2021-11-08T22:19:10.137Z</time>
      </trkpt>
      <trkpt lat="47.589091" lon="7.891624">
        <ele>286.653085</ele>
        <time>2021-11-08T22:19:13.231Z</time>
      </trkpt>
      <trkpt lat="47.589229" lon="7.891458">
        <ele>286.816641</ele>
        <time>2021-11-08T22:19:17.459Z</time>
      </trkpt>
      <trkpt lat="47.589499" lon="7.891160">
        <ele>287.583385</ele>
        <time>2021-11-08T22:19:25.310Z</time>
      </trkpt>
      <trkpt lat="47.590049" lon="7.890882">
        <ele>289.070298</ele>
        <time>2021-11-08T22:19:39.810Z</time>
      </trkpt>
      <trkpt lat="47.590244" lon="7.890664">
        <ele>289.695218</ele>
        <time>2021-11-08T22:19:46.445Z</time>
      </trkpt>
      <trkpt lat="47.590839" lon="7.889929">
        <ele>291.613742</ele>
        <time>2021-11-08T22:20:07.346Z</time>
      </trkpt>
      <trkpt lat="47.591491" lon="7.889123">
        <ele>293.115491</ele>
        <time>2021-11-08T22:20:27.308Z</time>
      </trkpt>
      <trkpt lat="47.591631" lon="7.888967">
        <ele>293.425306</ele>
        <time>2021-11-08T22:20:30.927Z</time>
      </trkpt>
      <trkpt lat="47.591709" lon="7.888913">
        <ele>293.577597</ele>
        <time>2021-11-08T22:20:33.307Z</time>
      </trkpt>
      <trkpt lat="47.591826" lon="7.888492">
        <ele>294.120869</ele>
        <time>2021-11-08T22:20:39.339Z</time>
      </trkpt>
      <trkpt lat="47.591875" lon="7.888327">
        <ele>294.335972</ele>
        <time>2021-11-08T22:20:41.817Z</time>
      </trkpt>
      <trkpt lat="47.592704" lon="7.885535">
        <ele>294.910929</ele>
        <time>2021-11-08T22:21:14.080Z</time>
      </trkpt>
      <trkpt lat="47.593108" lon="7.884664">
        <ele>294.366027</ele>
        <time>2021-11-08T22:21:22.763Z</time>
      </trkpt>
      <trkpt lat="47.593166" lon="7.884637">
        <ele>294.319562</ele>
        <time>2021-11-08T22:21:23.999Z</time>
      </trkpt>
      <trkpt lat="47.593037" lon="7.884537">
        <ele>294.208304</ele>
        <time>2021-11-08T22:21:25.713Z</time>
      </trkpt>
      <trkpt lat="47.592977" lon="7.884463">
        <ele>294.148654</ele>
        <time>2021-11-08T22:21:26.555Z</time>
      </trkpt>
      <trkpt lat="47.592959" lon="7.884237">
        <ele>294.031351</ele>
        <time>2021-11-08T22:21:28.652Z</time>
      </trkpt>
      <trkpt lat="47.592917" lon="7.883969">
        <ele>293.889528</ele>
        <time>2021-11-08T22:21:30.811Z</time>
      </trkpt>
      <trkpt lat="47.592842" lon="7.883686">
        <ele>293.732794</ele>
        <time>2021-11-08T22:21:33.475Z</time>
      </trkpt>
      <trkpt lat="47.592487" lon="7.882778">
        <ele>293.060393</ele>
        <time>2021-11-08T22:21:42.220Z</time>
      </trkpt>
      <trkpt lat="47.592493" lon="7.882622">
        <ele>292.953693</ele>
        <time>2021-11-08T22:21:43.490Z</time>
      </trkpt>
      <trkpt lat="47.592531" lon="7.882114">
        <ele>292.604669</ele>
        <time>2021-11-08T22:21:47.545Z</time>
      </trkpt>
      <trkpt lat="47.592592" lon="7.881680">
        <ele>292.301938</ele>
        <time>2021-11-08T22:21:51.277Z</time>
      </trkpt>
      <trkpt lat="47.592680" lon="7.881162">
        <ele>291.937164</ele>
        <time>2021-11-08T22:21:55.840Z</time>
      </trkpt>
      <trkpt lat="47.592723" lon="7.880948">
        <ele>291.784683</ele>
        <time>2021-11-08T22:21:57.707Z</time>
      </trkpt>
      <trkpt lat="47.592855" lon="7.880299">
        <ele>291.011924</ele>
        <time>2021-11-08T22:22:03.218Z</time>
      </trkpt>
      <trkpt lat="47.592558" lon="7.880084">
        <ele>290.448550</ele>
        <time>2021-11-08T22:22:06.977Z</time>
      </trkpt>
      <trkpt lat="47.592176" lon="7.879859">
        <ele>289.747903</ele>
        <time>2021-11-08T22:22:11.579Z</time>
      </trkpt>
      <trkpt lat="47.591747" lon="7.879696">
        <ele>288.993007</ele>
        <time>2021-11-08T22:22:16.356Z</time>
      </trkpt>
      <trkpt lat="47.591433" lon="7.879589">
        <ele>288.392657</ele>
        <time>2021-11-08T22:22:19.790Z</time>
      </trkpt>
      <trkpt lat="47.591348" lon="7.879568">
        <ele>288.217457</ele>
        <time>2021-11-08T22:22:20.713Z</time>
      </trkpt>
      <trkpt lat="47.591318" lon="7.879563">
        <ele>288.156079</ele>
        <time>2021-11-08T22:22:21.043Z</time>
      </trkpt>
      <trkpt lat="47.591234" lon="7.879550">
        <ele>287.984367</ele>
        <time>2021-11-08T22:22:21.920Z</time>
      </trkpt>
      <trkpt lat="47.591206" lon="7.878544">
        <ele>286.603780</ele>
        <time>2021-11-08T22:22:29.287Z</time>
      </trkpt>
      <trkpt lat="47.591201" lon="7.878391">
        <ele>286.393742</ele>
        <time>2021-11-08T22:22:30.350Z</time>
      </trkpt>
      <trkpt lat="47.591165" lon="7.877839">
        <ele>285.633317</ele>
        <time>2021-11-08T22:22:34.455Z</time>
      </trkpt>
      <trkpt lat="47.591021" lon="7.877714">
        <ele>285.294062</ele>
        <time>2021-11-08T22:22:36.402Z</time>
      </trkpt>
      <trkpt lat="47.590631" lon="7.877615">
        <ele>284.768539</ele>
        <time>2021-11-08T22:22:41.104Z</time>
      </trkpt>
      <trkpt lat="47.590500" lon="7.877526">
        <ele>284.620797</ele>
        <time>2021-11-08T22:22:42.740Z</time>
      </trkpt>
      <trkpt lat="47.590479" lon="7.877434">
        <ele>284.553636</ele>
        <time>2021-11-08T22:22:43.520Z</time>
      </trkpt>
      <trkpt lat="47.590532" lon="7.877177">
        <ele>284.367802</ele>
        <time>2021-11-08T22:22:45.853Z</time>
      </trkpt>
      <trkpt lat="47.590592" lon="7.876946">
        <ele>284.196633</ele>
        <time>2021-11-08T22:22:47.750Z</time>
      </trkpt>
      <trkpt lat="47.590643" lon="7.876593">
        <ele>283.947002</ele>
        <time>2021-11-08T22:22:50.820Z</time>
      </trkpt>
      <trkpt lat="47.590771" lon="7.875667">
        <ele>283.293380</ele>
        <time>2021-11-08T22:22:58.849Z</time>
      </trkpt>
      <trkpt lat="47.590851" lon="7.875195">
        <ele>283.074855</ele>
        <time>2021-11-08T22:23:03.017Z</time>
      </trkpt>
      <trkpt lat="47.591067" lon="7.874101">
        <ele>282.656730</ele>
        <time>2021-11-08T22:23:13.347Z</time>
      </trkpt>
      <trkpt lat="47.591105" lon="7.873760">
        <ele>282.529955</ele>
        <time>2021-11-08T22:23:16.535Z</time>
      </trkpt>
      <trkpt lat="47.591074" lon="7.872343">
        <ele>281.936122</ele>
        <time>2021-11-08T22:23:29.024Z</time>
      </trkpt>
      <trkpt lat="47.590993" lon="7.871168">
        <ele>281.357547</ele>
        <time>2021-11-08T22:23:38.961Z</time>
      </trkpt>
      <trkpt lat="47.590885" lon="7.870375">
        <ele>280.961253</ele>
        <time>2021-11-08T22:23:45.780Z</time>
      </trkpt>
      <trkpt lat="47.590882" lon="7.870356">
        <ele>280.951694</ele>
        <time>2021-11-08T22:23:45.962Z</time>
      </trkpt>
      <trkpt lat="47.590872" lon="7.870300">
        <ele>280.923456</ele>
        <time>2021-11-08T22:23:46.547Z</time>
      </trkpt>
      <trkpt lat="47.590870" lon="7.870288">
        <ele>280.921717</ele>
        <time>2021-11-08T22:23:46.694Z</time>
      </trkpt>
      <trkpt lat="47.590773" lon="7.869984">
        <ele>280.874412</ele>
        <time>2021-11-08T22:23:49.593Z</time>
      </trkpt>
      <trkpt lat="47.590705" lon="7.869768">
        <ele>280.840883</ele>
        <time>2021-11-08T22:23:51.812Z</time>
      </trkpt>
      <trkpt lat="47.590470" lon="7.869069">
        <ele>280.731023</ele>
        <time>2021-11-08T22:23:58.844Z</time>
      </trkpt>
      <trkpt lat="47.590421" lon="7.868927">
        <ele>280.708587</ele>
        <time>2021-11-08T22:24:00.311Z</time>
      </trkpt>
      <trkpt lat="47.590348" lon="7.868680">
        <ele>280.670654</ele>
        <time>2021-11-08T22:24:03.185Z</time>
      </trkpt>
      <trkpt lat="47.590292" lon="7.868520">
        <ele>280.645298</ele>
        <time>2021-11-08T22:24:04.813Z</time>
      </trkpt>
      <trkpt lat="47.590365" lon="7.868441">
        <ele>280.626450</ele>
        <time>2021-11-08T22:24:06.203Z</time>
      </trkpt>
      <trkpt lat="47.590348" lon="7.868400">
        <ele>280.619680</ele>
        <time>2021-11-08T22:24:06.868Z</time>
      </trkpt>
      <trkpt lat="47.590333" lon="7.867008">
        <ele>280.739603</ele>
        <time>2021-11-08T22:24:21.861Z</time>
      </trkpt>
      <trkpt lat="47.590274" lon="7.866644">
        <ele>280.820464</ele>
        <time>2021-11-08T22:24:26.359Z</time>
      </trkpt>
      <trkpt lat="47.590266" lon="7.866595">
        <ele>280.831354</ele>
        <time>2021-11-08T22:24:26.896Z</time>
      </trkpt>
      <trkpt lat="47.590251" lon="7.866509">
        <ele>280.850541</ele>
        <time>2021-11-08T22:24:27.775Z</time>
      </trkpt>
      <trkpt lat="47.589823" lon="7.864422">
        <ele>281.147243</ele>
        <time>2021-11-08T22:24:51.045Z</time>
      </trkpt>
      <trkpt lat="47.589471" lon="7.862994">
        <ele>281.185224</ele>
        <time>2021-11-08T22:25:05.791Z</time>
      </trkpt>
      <trkpt lat="47.587447" lon="7.853842">
        <ele>280.838261</ele>
        <time>2021-11-08T22:26:40.439Z</time>
      </trkpt>
      <trkpt lat="47.587300" lon="7.853345">
        <ele>280.863765</ele>
        <time>2021-11-08T22:26:46.009Z</time>
      </trkpt>
      <trkpt lat="47.586757" lon="7.850579">
        <ele>281.281861</ele>
        <time>2021-11-08T22:27:16.765Z</time>
      </trkpt>
      <trkpt lat="47.586522" lon="7.848600">
        <ele>281.701134</ele>
        <time>2021-11-08T22:27:38.916Z</time>
      </trkpt>
      <trkpt lat="47.586484" lon="7.848370">
        <ele>281.753009</ele>
        <time>2021-11-08T22:27:41.566Z</time>
      </trkpt>
      <trkpt lat="47.586486" lon="7.847936">
        <ele>281.848086</ele>
        <time>2021-11-08T22:27:46.276Z</time>
      </trkpt>
      <trkpt lat="47.586452" lon="7.845634">
        <ele>282.057428</ele>
        <time>2021-11-08T22:28:10.533Z</time>
      </trkpt>
      <trkpt lat="47.586790" lon="7.842637">
        <ele>281.860767</ele>
        <time>2021-11-08T22:28:39.827Z</time>
      </trkpt>
      <trkpt lat="47.586802" lon="7.842180">
        <ele>281.809363</ele>
        <time>2021-11-08T22:28:44.103Z</time>
      </trkpt>
      <trkpt lat="47.586809" lon="7.842018">
        <ele>281.779447</ele>
        <time>2021-11-08T22:28:45.606Z</time>
      </trkpt>
      <trkpt lat="47.586920" lon="7.841604">
        <ele>281.688959</ele>
        <time>2021-11-08T22:28:49.779Z</time>
      </trkpt>
      <trkpt lat="47.587628" lon="7.835942">
        <ele>280.471622</ele>
        <time>2021-11-08T22:29:43.128Z</time>
      </trkpt>
      <trkpt lat="47.587715" lon="7.835270">
        <ele>280.310794</ele>
        <time>2021-11-08T22:29:49.318Z</time>
      </trkpt>
      <trkpt lat="47.587848" lon="7.834235">
        <ele>280.088284</ele>
        <time>2021-11-08T22:29:58.984Z</time>
      </trkpt>
      <trkpt lat="47.586496" lon="7.833050">
        <ele>280.374150</ele>
        <time>2021-11-08T22:30:21.426Z</time>
      </trkpt>
      <trkpt lat="47.586276" lon="7.833601">
        <ele>281.088608</ele>
        <time>2021-11-08T22:30:29.679Z</time>
      </trkpt>
      <trkpt lat="47.585278" lon="7.832688">
        <ele>284.270832</ele>
        <time>2021-11-08T22:31:01.133Z</time>
      </trkpt>
      <trkpt lat="47.585247" lon="7.832651">
        <ele>284.378825</ele>
        <time>2021-11-08T22:31:02.433Z</time>
      </trkpt>
      <trkpt lat="47.585195" lon="7.832588">
        <ele>284.561053</ele>
        <time>2021-11-08T22:31:04.629Z</time>
      </trkpt>
      <trkpt lat="47.585027" lon="7.832425">
        <ele>285.105880</ele>
        <time>2021-11-08T22:31:10.037Z</time>
      </trkpt>
      <trkpt lat="47.584717" lon="7.832264">
        <ele>286.403045</ele>
        <time>2021-11-08T22:31:19.702Z</time>
      </trkpt>
      <trkpt lat="47.584367" lon="7.832247">
        <ele>287.896946</ele>
        <time>2021-11-08T22:31:30.803Z</time>
      </trkpt>
      <trkpt lat="47.584156" lon="7.832334">
        <ele>288.831235</ele>
        <time>2021-11-08T22:31:38.524Z</time>
      </trkpt>
      <trkpt lat="47.584029" lon="7.832543">
        <ele>289.640675</ele>
        <time>2021-11-08T22:31:45.245Z</time>
      </trkpt>
      <trkpt lat="47.583849" lon="7.832883">
        <ele>290.884370</ele>
        <time>2021-11-08T22:31:55.635Z</time>
      </trkpt>
      <trkpt lat="47.583696" lon="7.833171">
        <ele>291.939252</ele>
        <time>2021-11-08T22:32:04.352Z</time>
      </trkpt>
      <trkpt lat="47.583523" lon="7.833509">
        <ele>293.072424</ele>
        <time>2021-11-08T22:32:12.838Z</time>
      </trkpt>
      <trkpt lat="47.583401" lon="7.833658">
        <ele>293.449942</ele>
        <time>2021-11-08T22:32:16.673Z</time>
      </trkpt>
      <trkpt lat="47.583327" lon="7.833750">
        <ele>293.680600</ele>
        <time>2021-11-08T22:32:19.799Z</time>
      </trkpt>
      <trkpt lat="47.583320" lon="7.833759">
        <ele>293.702730</ele>
        <time>2021-11-08T22:32:20.121Z</time>
      </trkpt>
      <trkpt lat="47.583163" lon="7.833942">
        <ele>294.179718</ele>
        <time>2021-11-08T22:32:25.292Z</time>
      </trkpt>
      <trkpt lat="47.582828" lon="7.834117">
        <ele>295.028036</ele>
        <time>2021-11-08T22:32:33.740Z</time>
      </trkpt>
      <trkpt lat="47.580816" lon="7.834599">
        <ele>298.377053</ele>
        <time>2021-11-08T22:33:17.619Z</time>
      </trkpt>
      <trkpt lat="47.580667" lon="7.834627">
        <ele>298.529342</ele>
        <time>2021-11-08T22:33:20.000Z</time>
      </trkpt>
      <trkpt lat="47.579073" lon="7.834987">
        <ele>298.484993</ele>
        <time>2021-11-08T22:33:43.961Z</time>
      </trkpt>
      <trkpt lat="47.576219" lon="7.835650">
        <ele>295.404281</ele>
        <time>2021-11-08T22:34:17.621Z</time>
      </trkpt>
      <trkpt lat="47.575959" lon="7.835718">
        <ele>295.235992</ele>
        <time>2021-11-08T22:34:20.776Z</time>
      </trkpt>
      <trkpt lat="47.575033" lon="7.835907">
        <ele>294.640174</ele>
        <time>2021-11-08T22:34:33.230Z</time>
      </trkpt>
      <trkpt lat="47.574568" lon="7.836025">
        <ele>294.567520</ele>
        <time>2021-11-08T22:34:40.217Z</time>
      </trkpt>
      <trkpt lat="47.574158" lon="7.836106">
        <ele>294.709853</ele>
        <time>2021-11-08T22:34:46.890Z</time>
      </trkpt>
      <trkpt lat="47.573815" lon="7.836215">
        <ele>294.830564</ele>
        <time>2021-11-08T22:34:54.569Z</time>
      </trkpt>
      <trkpt lat="47.573348" lon="7.836386">
        <ele>294.996095</ele>
        <time>2021-11-08T22:35:05.420Z</time>
      </trkpt>
      <trkpt lat="47.572760" lon="7.836606">
        <ele>295.277257</ele>
        <time>2021-11-08T22:35:19.032Z</time>
      </trkpt>
      <trkpt lat="47.572296" lon="7.836777">
        <ele>295.563120</ele>
        <time>2021-11-08T22:35:29.456Z</time>
      </trkpt>
      <trkpt lat="47.572139" lon="7.836834">
        <ele>295.659762</ele>
        <time>2021-11-08T22:35:32.943Z</time>
      </trkpt>
      <trkpt lat="47.571871" lon="7.836932">
        <ele>295.824798</ele>
        <time>2021-11-08T22:35:38.980Z</time>
      </trkpt>
      <trkpt lat="47.571771" lon="7.836971">
        <ele>295.886622</ele>
        <time>2021-11-08T22:35:41.217Z</time>
      </trkpt>
      <trkpt lat="47.571254" lon="7.837161">
        <ele>296.232921</ele>
        <time>2021-11-08T22:35:53.667Z</time>
      </trkpt>
      <trkpt lat="47.570985" lon="7.837265">
        <ele>296.598436</ele>
        <time>2021-11-08T22:36:00.621Z</time>
      </trkpt>
      <trkpt lat="47.570872" lon="7.837307">
        <ele>296.751609</ele>
        <time>2021-11-08T22:36:03.637Z</time>
      </trkpt>
      <trkpt lat="47.570298" lon="7.837528">
        <ele>297.531351</ele>
        <time>2021-11-08T22:36:18.959Z</time>
      </trkpt>
      <trkpt lat="47.570038" lon="7.837643">
        <ele>297.888096</ele>
        <time>2021-11-08T22:36:26.081Z</time>
      </trkpt>
      <trkpt lat="47.569907" lon="7.837696">
        <ele>298.066636</ele>
        <time>2021-11-08T22:36:29.603Z</time>
      </trkpt>
      <trkpt lat="47.569814" lon="7.837733">
        <ele>298.193241</ele>
        <time>2021-11-08T22:36:32.165Z</time>
      </trkpt>
      <trkpt lat="47.569665" lon="7.837789">
        <ele>298.395347</ele>
        <time>2021-11-08T22:36:36.129Z</time>
      </trkpt>
      <trkpt lat="47.569522" lon="7.837844">
        <ele>298.585187</ele>
        <time>2021-11-08T22:36:39.983Z</time>
      </trkpt>
      <trkpt lat="47.569310" lon="7.837922">
        <ele>298.842878</ele>
        <time>2021-11-08T22:36:45.731Z</time>
      </trkpt>
      <trkpt lat="47.568988" lon="7.838054">
        <ele>299.237010</ele>
        <time>2021-11-08T22:36:54.508Z</time>
      </trkpt>
      <trkpt lat="47.568420" lon="7.838300">
        <ele>299.935113</ele>
        <time>2021-11-08T22:37:09.766Z</time>
      </trkpt>
      <trkpt lat="47.568160" lon="7.838415">
        <ele>300.255208</ele>
        <time>2021-11-08T22:37:16.176Z</time>
      </trkpt>
      <trkpt lat="47.568042" lon="7.838436">
        <ele>300.395415</ele>
        <time>2021-11-08T22:37:18.911Z</time>
      </trkpt>
      <trkpt lat="47.567936" lon="7.838380">
        <ele>300.528172</ele>
        <time>2021-11-08T22:37:21.446Z</time>
      </trkpt>
      <trkpt lat="47.567846" lon="7.838609">
        <ele>300.713320</ele>
        <time>2021-11-08T22:37:24.472Z</time>
      </trkpt>
      <trkpt lat="47.567823" lon="7.838648">
        <ele>300.739462</ele>
        <time>2021-11-08T22:37:25.129Z</time>
      </trkpt>
      <trkpt lat="47.567634" lon="7.839037">
        <ele>300.981387</ele>
        <time>2021-11-08T22:37:30.544Z</time>
      </trkpt>
      <trkpt lat="47.567626" lon="7.839064">
        <ele>300.996269</ele>
        <time>2021-11-08T22:37:30.958Z</time>
      </trkpt>
      <trkpt lat="47.567564" lon="7.839283">
        <ele>301.116130</ele>
        <time>2021-11-08T22:37:33.677Z</time>
      </trkpt>
      <trkpt lat="47.567530" lon="7.839459">
        <ele>301.208524</ele>
        <time>2021-11-08T22:37:35.864Z</time>
      </trkpt>
      <trkpt lat="47.567510" lon="7.839548">
        <ele>301.255867</ele>
        <time>2021-11-08T22:37:36.986Z</time>
      </trkpt>
      <trkpt lat="47.567481" lon="7.839664">
        <ele>301.318300</ele>
        <time>2021-11-08T22:37:38.328Z</time>
      </trkpt>
      <trkpt lat="47.567406" lon="7.839778">
        <ele>301.398657</ele>
        <time>2021-11-08T22:37:40.380Z</time>
      </trkpt>
      <trkpt lat="47.567314" lon="7.839847">
        <ele>301.475782</ele>
        <time>2021-11-08T22:37:42.290Z</time>
      </trkpt>
      <trkpt lat="47.567111" lon="7.839998">
        <ele>301.645675</ele>
        <time>2021-11-08T22:37:46.361Z</time>
      </trkpt>
      <trkpt lat="47.566826" lon="7.840179">
        <ele>301.877600</ele>
        <time>2021-11-08T22:37:51.881Z</time>
      </trkpt>
      <trkpt lat="47.566592" lon="7.840279">
        <ele>302.083715</ele>
        <time>2021-11-08T22:37:56.509Z</time>
      </trkpt>
      <trkpt lat="47.566515" lon="7.840312">
        <ele>302.175050</ele>
        <time>2021-11-08T22:37:57.799Z</time>
      </trkpt>
      <trkpt lat="47.566450" lon="7.840326">
        <ele>302.249894</ele>
        <time>2021-11-08T22:37:59.038Z</time>
      </trkpt>
      <trkpt lat="47.566350" lon="7.840350">
        <ele>302.365327</ele>
        <time>2021-11-08T22:38:00.945Z</time>
      </trkpt>
      <trkpt lat="47.566221" lon="7.840340">
        <ele>302.512520</ele>
        <time>2021-11-08T22:38:03.278Z</time>
      </trkpt>
      <trkpt lat="47.566142" lon="7.840322">
        <ele>302.603597</ele>
        <time>2021-11-08T22:38:04.512Z</time>
      </trkpt>
      <trkpt lat="47.566081" lon="7.840309">
        <ele>302.673820</ele>
        <time>2021-11-08T22:38:05.725Z</time>
      </trkpt>
      <trkpt lat="47.565906" lon="7.840272">
        <ele>302.875248</ele>
        <time>2021-11-08T22:38:09.174Z</time>
      </trkpt>
      <trkpt lat="47.565343" lon="7.840185">
        <ele>303.520252</ele>
        <time>2021-11-08T22:38:20.497Z</time>
      </trkpt>
      <trkpt lat="47.565233" lon="7.840176">
        <ele>303.645786</ele>
        <time>2021-11-08T22:38:22.834Z</time>
      </trkpt>
      <trkpt lat="47.565168" lon="7.840179">
        <ele>303.719888</ele>
        <time>2021-11-08T22:38:24.210Z</time>
      </trkpt>
      <trkpt lat="47.565057" lon="7.840213">
        <ele>303.849043</ele>
        <time>2021-11-08T22:38:26.453Z</time>
      </trkpt>
      <trkpt lat="47.564936" lon="7.840261">
        <ele>303.991774</ele>
        <time>2021-11-08T22:38:29.169Z</time>
      </trkpt>
      <trkpt lat="47.564558" lon="7.840516">
        <ele>304.438904</ele>
        <time>2021-11-08T22:38:37.451Z</time>
      </trkpt>
      <trkpt lat="47.564534" lon="7.840532">
        <ele>304.466941</ele>
        <time>2021-11-08T22:38:37.949Z</time>
      </trkpt>
      <trkpt lat="47.564463" lon="7.840580">
        <ele>304.550080</ele>
        <time>2021-11-08T22:38:39.563Z</time>
      </trkpt>
      <trkpt lat="47.564094" lon="7.840838">
        <ele>304.984752</ele>
        <time>2021-11-08T22:38:47.223Z</time>
      </trkpt>
      <trkpt lat="47.563986" lon="7.840916">
        <ele>305.112747</ele>
        <time>2021-11-08T22:38:49.511Z</time>
      </trkpt>
      <trkpt lat="47.563941" lon="7.840948">
        <ele>305.165921</ele>
        <time>2021-11-08T22:38:50.436Z</time>
      </trkpt>
      <trkpt lat="47.563805" lon="7.841046">
        <ele>305.327030</ele>
        <time>2021-11-08T22:38:53.243Z</time>
      </trkpt>
      <trkpt lat="47.563659" lon="7.841150">
        <ele>305.499607</ele>
        <time>2021-11-08T22:38:56.134Z</time>
      </trkpt>
      <trkpt lat="47.563483" lon="7.841269">
        <ele>305.705704</ele>
        <time>2021-11-08T22:38:59.863Z</time>
      </trkpt>
      <trkpt lat="47.563300" lon="7.841391">
        <ele>305.919483</ele>
        <time>2021-11-08T22:39:03.423Z</time>
      </trkpt>
      <trkpt lat="47.563016" lon="7.841568">
        <ele>306.287403</ele>
        <time>2021-11-08T22:39:09.280Z</time>
      </trkpt>
      <trkpt lat="47.562965" lon="7.841597">
        <ele>306.354218</ele>
        <time>2021-11-08T22:39:10.259Z</time>
      </trkpt>
      <trkpt lat="47.562904" lon="7.841632">
        <ele>306.434226</ele>
        <time>2021-11-08T22:39:11.487Z</time>
      </trkpt>
      <trkpt lat="47.562574" lon="7.841873">
        <ele>306.884213</ele>
        <time>2021-11-08T22:39:18.453Z</time>
      </trkpt>
      <trkpt lat="47.562440" lon="7.842083">
        <ele>307.122761</ele>
        <time>2021-11-08T22:39:22.073Z</time>
      </trkpt>
      <trkpt lat="47.562385" lon="7.842183">
        <ele>307.229240</ele>
        <time>2021-11-08T22:39:23.639Z</time>
      </trkpt>
      <trkpt lat="47.562300" lon="7.842326">
        <ele>307.386528</ele>
        <time>2021-11-08T22:39:26.539Z</time>
      </trkpt>
      <trkpt lat="47.562179" lon="7.842500">
        <ele>307.592753</ele>
        <time>2021-11-08T22:39:30.018Z</time>
      </trkpt>
      <trkpt lat="47.561498" lon="7.843130">
        <ele>308.502390</ele>
        <time>2021-11-08T22:39:46.729Z</time>
      </trkpt>
      <trkpt lat="47.561434" lon="7.843181">
        <ele>308.575002</ele>
        <time>2021-11-08T22:39:48.534Z</time>
      </trkpt>
      <trkpt lat="47.561038" lon="7.843502">
        <ele>309.026035</ele>
        <time>2021-11-08T22:39:57.235Z</time>
      </trkpt>
      <trkpt lat="47.560934" lon="7.843550">
        <ele>309.134880</ele>
        <time>2021-11-08T22:39:59.390Z</time>
      </trkpt>
      <trkpt lat="47.560812" lon="7.843560">
        <ele>309.256975</ele>
        <time>2021-11-08T22:40:01.633Z</time>
      </trkpt>
      <trkpt lat="47.560515" lon="7.843379">
        <ele>309.577868</ele>
        <time>2021-11-08T22:40:07.370Z</time>
      </trkpt>
      <trkpt lat="47.560430" lon="7.843341">
        <ele>309.666586</ele>
        <time>2021-11-08T22:40:09.172Z</time>
      </trkpt>
      <trkpt lat="47.560338" lon="7.843341">
        <ele>309.758517</ele>
        <time>2021-11-08T22:40:10.395Z</time>
      </trkpt>
      <trkpt lat="47.560209" lon="7.843393">
        <ele>309.892104</ele>
        <time>2021-11-08T22:40:12.870Z</time>
      </trkpt>
      <trkpt lat="47.560139" lon="7.843433">
        <ele>309.967071</ele>
        <time>2021-11-08T22:40:14.190Z</time>
      </trkpt>
      <trkpt lat="47.559847" lon="7.843604">
        <ele>309.955270</ele>
        <time>2021-11-08T22:40:19.358Z</time>
      </trkpt>
      <trkpt lat="47.559583" lon="7.843813">
        <ele>309.933878</ele>
        <time>2021-11-08T22:40:23.848Z</time>
      </trkpt>
      <trkpt lat="47.559158" lon="7.844233">
        <ele>309.897368</ele>
        <time>2021-11-08T22:40:31.058Z</time>
      </trkpt>
      <trkpt lat="47.559109" lon="7.844229">
        <ele>309.893860</ele>
        <time>2021-11-08T22:40:31.648Z</time>
      </trkpt>
      <trkpt lat="47.559060" lon="7.844197">
        <ele>309.890033</ele>
        <time>2021-11-08T22:40:32.279Z</time>
      </trkpt>
      <trkpt lat="47.558884" lon="7.843836">
        <ele>309.868553</ele>
        <time>2021-11-08T22:40:36.431Z</time>
      </trkpt>
      <trkpt lat="47.558555" lon="7.843392">
        <ele>309.863798</ele>
        <time>2021-11-08T22:40:42.467Z</time>
      </trkpt>
      <trkpt lat="47.558471" lon="7.843365">
        <ele>309.871858</ele>
        <time>2021-11-08T22:40:43.724Z</time>
      </trkpt>
      <trkpt lat="47.558405" lon="7.843371">
        <ele>309.878059</ele>
        <time>2021-11-08T22:40:44.893Z</time>
      </trkpt>
      <trkpt lat="47.558136" lon="7.843582">
        <ele>309.906599</ele>
        <time>2021-11-08T22:40:49.100Z</time>
      </trkpt>
      <trkpt lat="47.557967" lon="7.843683">
        <ele>309.923686</ele>
        <time>2021-11-08T22:40:51.819Z</time>
      </trkpt>
      <trkpt lat="47.557846" lon="7.843756">
        <ele>309.935937</ele>
        <time>2021-11-08T22:40:53.663Z</time>
      </trkpt>
      <trkpt lat="47.557759" lon="7.843839">
        <ele>309.945640</ele>
        <time>2021-11-08T22:40:55.439Z</time>
      </trkpt>
      <trkpt lat="47.557715" lon="7.843940">
        <ele>309.953247</ele>
        <time>2021-11-08T22:40:56.668Z</time>
      </trkpt>
      <trkpt lat="47.557560" lon="7.844433">
        <ele>309.987664</ele>
        <time>2021-11-08T22:41:02.627Z</time>
      </trkpt>
      <trkpt lat="47.557282" lon="7.844832">
        <ele>310.070674</ele>
        <time>2021-11-08T22:41:09.059Z</time>
      </trkpt>
      <trkpt lat="47.557134" lon="7.845095">
        <ele>310.240197</ele>
        <time>2021-11-08T22:41:12.834Z</time>
      </trkpt>
      <trkpt lat="47.556636" lon="7.845928">
        <ele>310.791110</ele>
        <time>2021-11-08T22:41:25.685Z</time>
      </trkpt>
      <trkpt lat="47.556060" lon="7.846859">
        <ele>311.473090</ele>
        <time>2021-11-08T22:41:41.812Z</time>
      </trkpt>
      <trkpt lat="47.555990" lon="7.846965">
        <ele>311.598656</ele>
        <time>2021-11-08T22:41:43.796Z</time>
      </trkpt>
      <trkpt lat="47.555966" lon="7.846932">
        <ele>311.639732</ele>
        <time>2021-11-08T22:41:44.384Z</time>
      </trkpt>
      <trkpt lat="47.555892" lon="7.846856">
        <ele>311.752689</ele>
        <time>2021-11-08T22:41:45.939Z</time>
      </trkpt>
      <trkpt lat="47.555855" lon="7.846815">
        <ele>311.810653</ele>
        <time>2021-11-08T22:41:46.849Z</time>
      </trkpt>
      <trkpt lat="47.555727" lon="7.846715">
        <ele>311.992190</ele>
        <time>2021-11-08T22:41:49.853Z</time>
      </trkpt>
      <trkpt lat="47.555199" lon="7.846687">
        <ele>312.655025</ele>
        <time>2021-11-08T22:41:59.819Z</time>
      </trkpt>
      <trkpt lat="47.555068" lon="7.846672">
        <ele>312.819863</ele>
        <time>2021-11-08T22:42:02.680Z</time>
      </trkpt>
      <trkpt lat="47.554995" lon="7.846915">
        <ele>313.045070</ele>
        <time>2021-11-08T22:42:06.406Z</time>
      </trkpt>
      <trkpt lat="47.554897" lon="7.847138">
        <ele>313.270382</ele>
        <time>2021-11-08T22:42:10.186Z</time>
      </trkpt>
      <trkpt lat="47.554892" lon="7.847148">
        <ele>313.280920</ele>
        <time>2021-11-08T22:42:10.376Z</time>
      </trkpt>
      <trkpt lat="47.554759" lon="7.847388">
        <ele>313.543852</ele>
        <time>2021-11-08T22:42:14.696Z</time>
      </trkpt>
      <trkpt lat="47.554618" lon="7.847626">
        <ele>313.841842</ele>
        <time>2021-11-08T22:42:19.256Z</time>
      </trkpt>
      <trkpt lat="47.554465" lon="7.847858">
        <ele>314.153929</ele>
        <time>2021-11-08T22:42:23.890Z</time>
      </trkpt>
      <trkpt lat="47.554351" lon="7.848049">
        <ele>314.399249</ele>
        <time>2021-11-08T22:42:27.352Z</time>
      </trkpt>
      <trkpt lat="47.554269" lon="7.848188">
        <ele>314.576873</ele>
        <time>2021-11-08T22:42:29.883Z</time>
      </trkpt>
      <trkpt lat="47.554209" lon="7.848300">
        <ele>314.714453</ele>
        <time>2021-11-08T22:42:31.964Z</time>
      </trkpt>
      <trkpt lat="47.554055" lon="7.848586">
        <ele>315.066471</ele>
        <time>2021-11-08T22:42:36.833Z</time>
      </trkpt>
      <trkpt lat="47.553725" lon="7.849291">
        <ele>315.891950</ele>
        <time>2021-11-08T22:42:48.200Z</time>
      </trkpt>
      <trkpt lat="47.553605" lon="7.849629">
        <ele>316.304508</ele>
        <time>2021-11-08T22:42:53.655Z</time>
      </trkpt>
      <trkpt lat="47.553537" lon="7.849904">
        <ele>316.710627</ele>
        <time>2021-11-08T22:42:57.846Z</time>
      </trkpt>
      <trkpt lat="47.553380" lon="7.850453">
        <ele>317.537424</ele>
        <time>2021-11-08T22:43:06.698Z</time>
      </trkpt>
      <trkpt lat="47.553344" lon="7.850525">
        <ele>317.661677</ele>
        <time>2021-11-08T22:43:07.964Z</time>
      </trkpt>
      <trkpt lat="47.553283" lon="7.850634">
        <ele>317.858026</ele>
        <time>2021-11-08T22:43:10.018Z</time>
      </trkpt>
      <trkpt lat="47.552876" lon="7.851300">
        <ele>319.103885</ele>
        <time>2021-11-08T22:43:23.850Z</time>
      </trkpt>
      <trkpt lat="47.552678" lon="7.851709">
        <ele>319.801850</ele>
        <time>2021-11-08T22:43:32.532Z</time>
      </trkpt>
      <trkpt lat="47.552449" lon="7.852231">
        <ele>321.134150</ele>
        <time>2021-11-08T22:43:43.832Z</time>
      </trkpt>
      <trkpt lat="47.552272" lon="7.852167">
        <ele>321.724556</ele>
        <time>2021-11-08T22:43:49.232Z</time>
      </trkpt>
      <trkpt lat="47.552097" lon="7.852063">
        <ele>322.335565</ele>
        <time>2021-11-08T22:43:54.479Z</time>
      </trkpt>
      <trkpt lat="47.552042" lon="7.852007">
        <ele>322.551820</ele>
        <time>2021-11-08T22:43:56.879Z</time>
      </trkpt>
      <trkpt lat="47.551925" lon="7.851845">
        <ele>323.070747</ele>
        <time>2021-11-08T22:44:01.145Z</time>
      </trkpt>
      <trkpt lat="47.551830" lon="7.851603">
        <ele>323.683045</ele>
        <time>2021-11-08T22:44:06.967Z</time>
      </trkpt>
      <trkpt lat="47.551660" lon="7.851725">
        <ele>324.295154</ele>
        <time>2021-11-08T22:44:12.201Z</time>
      </trkpt>
      <trkpt lat="47.551516" lon="7.851950">
        <ele>324.973323</ele>
        <time>2021-11-08T22:44:18.759Z</time>
      </trkpt>
      <trkpt lat="47.550221" lon="7.853833">
        <ele>329.730410</ele>
        <time>2021-11-08T22:45:06.051Z</time>
      </trkpt>
      <trkpt lat="47.549883" lon="7.854434">
        <ele>330.394430</ele>
        <time>2021-11-08T22:45:16.171Z</time>
      </trkpt>
      <trkpt lat="47.549566" lon="7.855225">
        <ele>330.680445</ele>
        <time>2021-11-08T22:45:30.030Z</time>
      </trkpt>
      <trkpt lat="47.549362" lon="7.855774">
        <ele>330.875294</ele>
        <time>2021-11-08T22:45:38.518Z</time>
      </trkpt>
      <trkpt lat="47.548887" lon="7.857308">
        <ele>331.185510</ele>
        <time>2021-11-08T22:46:00.626Z</time>
      </trkpt>
      <trkpt lat="47.548743" lon="7.857692">
        <ele>331.232474</ele>
        <time>2021-11-08T22:46:06.598Z</time>
      </trkpt>
      <trkpt lat="47.548701" lon="7.857893">
        <ele>331.254969</ele>
        <time>2021-11-08T22:46:09.569Z</time>
      </trkpt>
      <trkpt lat="47.548686" lon="7.857973">
        <ele>331.263845</ele>
        <time>2021-11-08T22:46:10.693Z</time>
      </trkpt>
      <trkpt lat="47.548611" lon="7.858381">
        <ele>331.309053</ele>
        <time>2021-11-08T22:46:16.907Z</time>
      </trkpt>
      <trkpt lat="47.548334" lon="7.859801">
        <ele>332.181402</ele>
        <time>2021-11-08T22:46:39.944Z</time>
      </trkpt>
      <trkpt lat="47.548049" lon="7.860929">
        <ele>333.153299</ele>
        <time>2021-11-08T22:47:00.963Z</time>
      </trkpt>
      <trkpt lat="47.547930" lon="7.861711">
        <ele>333.898671</ele>
        <time>2021-11-08T22:47:15.726Z</time>
      </trkpt>
      <trkpt lat="47.547568" lon="7.863151">
        <ele>335.557120</ele>
        <time>2021-11-08T22:47:44.854Z</time>
      </trkpt>
      <trkpt lat="47.547320" lon="7.863864">
        <ele>336.382525</ele>
        <time>2021-11-08T22:47:58.794Z</time>
      </trkpt>
      <trkpt lat="47.546974" lon="7.864423">
        <ele>336.345392</ele>
        <time>2021-11-08T22:48:09.617Z</time>
      </trkpt>
      <trkpt lat="47.546885" lon="7.864500">
        <ele>336.337917</ele>
        <time>2021-11-08T22:48:12.702Z</time>
      </trkpt>
      <trkpt lat="47.546894" lon="7.864837">
        <ele>336.321405</ele>
        <time>2021-11-08T22:48:16.586Z</time>
      </trkpt>
      <trkpt lat="47.546889" lon="7.865225">
        <ele>336.302406</ele>
        <time>2021-11-08T22:48:22.011Z</time>
      </trkpt>
      <trkpt lat="47.546819" lon="7.865489">
        <ele>336.288519</ele>
        <time>2021-11-08T22:48:25.956Z</time>
      </trkpt>
      <trkpt lat="47.546510" lon="7.865766">
        <ele>336.262323</ele>
        <time>2021-11-08T22:48:32.590Z</time>
      </trkpt>
      <trkpt lat="47.546327" lon="7.865959">
        <ele>336.182800</ele>
        <time>2021-11-08T22:48:36.105Z</time>
      </trkpt>
      <trkpt lat="47.546096" lon="7.866147">
        <ele>336.008378</ele>
        <time>2021-11-08T22:48:40.661Z</time>
      </trkpt>
      <trkpt lat="47.545240" lon="7.866887">
        <ele>335.352492</ele>
        <time>2021-11-08T22:48:57.334Z</time>
      </trkpt>
      <trkpt lat="47.545160" lon="7.866985">
        <ele>335.283794</ele>
        <time>2021-11-08T22:48:59.290Z</time>
      </trkpt>
      <trkpt lat="47.545003" lon="7.867278">
        <ele>335.116680</ele>
        <time>2021-11-08T22:49:04.959Z</time>
      </trkpt>
      <trkpt lat="47.544568" lon="7.867693">
        <ele>335.617060</ele>
        <time>2021-11-08T22:49:17.749Z</time>
      </trkpt>
      <trkpt lat="47.544469" lon="7.867776">
        <ele>335.761151</ele>
        <time>2021-11-08T22:49:20.611Z</time>
      </trkpt>
      <trkpt lat="47.544410" lon="7.867825">
        <ele>335.846828</ele>
        <time>2021-11-08T22:49:22.700Z</time>
      </trkpt>
      <trkpt lat="47.544246" lon="7.867967">
        <ele>336.087444</ele>
        <time>2021-11-08T22:49:27.383Z</time>
      </trkpt>
      <trkpt lat="47.544214" lon="7.867988">
        <ele>336.131776</ele>
        <time>2021-11-08T22:49:28.231Z</time>
      </trkpt>
      <trkpt lat="47.543801" lon="7.868269">
        <ele>336.707454</ele>
        <time>2021-11-08T22:49:39.834Z</time>
      </trkpt>
      <trkpt lat="47.543657" lon="7.868359">
        <ele>336.905425</ele>
        <time>2021-11-08T22:49:44.184Z</time>
      </trkpt>
      <trkpt lat="47.543201" lon="7.868657">
        <ele>337.341803</ele>
        <time>2021-11-08T22:49:54.384Z</time>
      </trkpt>
      <trkpt lat="47.543105" lon="7.868711">
        <ele>337.341803</ele>
        <time>2021-11-08T22:49:56.968Z</time>
      </trkpt>
      <trkpt lat="47.543049" lon="7.868759">
        <ele>337.341803</ele>
        <time>2021-11-08T22:49:58.345Z</time>
      </trkpt>
      <trkpt lat="47.542722" lon="7.869201">
        <ele>337.341803</ele>
        <time>2021-11-08T22:50:08.177Z</time>
      </trkpt>
      <trkpt lat="47.542696" lon="7.869257">
        <ele>337.341803</ele>
        <time>2021-11-08T22:50:09.007Z</time>
      </trkpt>
      <trkpt lat="47.542657" lon="7.869354">
        <ele>337.341803</ele>
        <time>2021-11-08T22:50:10.443Z</time>
      </trkpt>
      <trkpt lat="47.542372" lon="7.869746">
        <ele>337.341803</ele>
        <time>2021-11-08T22:50:17.398Z</time>
      </trkpt>
      <trkpt lat="47.542329" lon="7.869820">
        <ele>337.341803</ele>
        <time>2021-11-08T22:50:18.580Z</time>
      </trkpt>
      <trkpt lat="47.542348" lon="7.869983">
        <ele>337.341803</ele>
        <time>2021-11-08T22:50:20.119Z</time>
      </trkpt>
      <trkpt lat="47.542317" lon="7.870012">
        <ele>337.341803</ele>
        <time>2021-11-08T22:50:20.776Z</time>
      </trkpt>
      <trkpt lat="47.542181" lon="7.870131">
        <ele>337.341803</ele>
        <time>2021-11-08T22:50:23.212Z</time>
      </trkpt>
      <trkpt lat="47.542118" lon="7.870135">
        <ele>337.341803</ele>
        <time>2021-11-08T22:50:24.215Z</time>
      </trkpt>
      <trkpt lat="47.542014" lon="7.870126">
        <ele>337.341803</ele>
        <time>2021-11-08T22:50:25.570Z</time>
      </trkpt>
      <trkpt lat="47.541910" lon="7.870106">
        <ele>337.341803</ele>
        <time>2021-11-08T22:50:27.099Z</time>
      </trkpt>
      <trkpt lat="47.541606" lon="7.870424">
        <ele>337.341803</ele>
        <time>2021-11-08T22:50:32.221Z</time>
      </trkpt>
      <trkpt lat="47.541521" lon="7.870517">
        <ele>337.341803</ele>
        <time>2021-11-08T22:50:33.649Z</time>
      </trkpt>
      <trkpt lat="47.541550" lon="7.870601">
        <ele>337.341803</ele>
        <time>2021-11-08T22:50:34.509Z</time>
      </trkpt>
      <trkpt lat="47.541576" lon="7.870664">
        <ele>337.341803</ele>
        <time>2021-11-08T22:50:35.181Z</time>
      </trkpt>
    </trkseg>
  </trk>
</gpx>